Provisional Data: Lackawanna River near Forest City, PA


Please select a monitoring station.
Please select start date.
Please select start date.

Toggle Unit: C/F Toggle Unit: C/F
Sample Time Temperature (C) Temperature (F) Specific Conductivity (mS/cm) pH   Turbidity (NTU+) DO (mg/L)
3/23/2021 12:00:00 AM 3.49 38.282 0.059 6.69 4.32 13.03
3/23/2021 12:15:00 AM 3.43 38.174 0.058 6.7 4.23 13.03
3/23/2021 12:30:00 AM 3.41 38.138 0.057 6.69 4.31 13.02
3/23/2021 12:45:00 AM 3.39 38.102 0.056 6.7 4.26 13
3/23/2021 1:00:00 AM 3.41 38.138 0.058 6.7 4.42 12.99
3/23/2021 1:15:00 AM 3.36 38.048 0.058 6.71 4.44 12.98
3/23/2021 1:30:00 AM 3.32 37.976 0.059 6.69 4.22 12.98
3/23/2021 1:45:00 AM 3.31 37.958 0.06 6.71 4.24 12.97
3/23/2021 2:00:00 AM 3.3 37.94 0.059 6.7 4.42 12.96
3/23/2021 2:15:00 AM 3.33 37.994 0.058 6.71 4.48 12.93
3/23/2021 2:30:00 AM 3.28 37.904 0.059 6.71 4.36 12.94
3/23/2021 2:45:00 AM 3.28 37.904 0.06 6.71 4.42 12.93
3/23/2021 3:00:00 AM 3.32 37.976 0.059 6.71 4.36 12.89
3/23/2021 3:15:00 AM 3.29 37.922 0.056 6.7 4.39 12.89
3/23/2021 3:30:00 AM 3.3 37.94 0.057 6.7 4.25 12.88
3/23/2021 3:45:00 AM 3.32 37.976 0.058 6.7 4.2 12.85
3/23/2021 4:00:00 AM 3.3 37.94 0.059 6.71 4.44 12.86
3/23/2021 4:15:00 AM 3.31 37.958 0.058 6.71 4.34 12.85
3/23/2021 4:30:00 AM 3.31 37.958 0.058 6.71 4.36 12.83
3/23/2021 4:45:00 AM 3.31 37.958 0.06 6.71 4.53 12.81
3/23/2021 5:00:00 AM 3.3 37.94 0.057 6.71 4.5 12.83
3/23/2021 5:15:00 AM 3.3 37.94 0.059 6.71 4.31 12.82
3/23/2021 5:30:00 AM 3.29 37.922 0.058 6.71 4.3 12.8
3/23/2021 5:45:00 AM 3.29 37.922 0.059 6.71 4.36 12.79
3/23/2021 6:00:00 AM 3.29 37.922 0.058 6.7 4.57 12.76
3/23/2021 6:15:00 AM 3.29 37.922 0.059 6.72 4.61 12.75
3/23/2021 6:30:00 AM 3.29 37.922 0.058 6.71 4.33 12.72
3/23/2021 6:45:00 AM 3.29 37.922 0.057 6.71 4.5 12.72
3/23/2021 7:00:00 AM 3.28 37.904 0.056 6.7 4.46 12.7
3/23/2021 7:15:00 AM 3.31 37.958 0.059 6.7 4.46 12.69
3/23/2021 7:30:00 AM 3.3 37.94 0.058 6.71 4.38 12.69
3/23/2021 7:45:00 AM 3.31 37.958 0.057 6.71 4.23 12.69
3/23/2021 8:00:00 AM 3.3 37.94 0.058 6.71 4.47 12.65
3/23/2021 8:15:00 AM 3.33 37.994 0.055 6.71 4.3 12.67
3/23/2021 8:30:00 AM 3.32 37.976 0.058 6.71 4.28 12.69
3/23/2021 8:45:00 AM 3.34 38.012 0.057 6.72 4.06 12.68
3/23/2021 9:00:00 AM 3.37 38.066 0.055 6.71 4.24 12.69
3/23/2021 9:15:00 AM 3.47 38.246 0.058 6.73 4.15 12.76
3/23/2021 9:30:00 AM 3.53 38.354 0.057 6.73 4.04 12.79
3/23/2021 9:45:00 AM 3.6 38.48 0.057 6.73 4.04 12.8
3/23/2021 10:00:00 AM 3.71 38.678 0.055 6.74 4.18 12.84
3/23/2021 10:15:00 AM 3.81 38.858 0.056 6.75 4.05 12.88
3/23/2021 10:30:00 AM 3.96 39.128 0.059 6.76 4.12 12.93
3/23/2021 10:45:00 AM 4.08 39.344 0.057 6.77 4.05 12.96
3/23/2021 11:00:00 AM 4.21 39.578 0.055 6.78 3.97 12.99
3/23/2021 11:15:00 AM 4.35 39.83 0.056 6.77 3.94 13.01
3/23/2021 11:30:00 AM 4.51 40.118 0.055 6.8 4.02 13.03
3/23/2021 11:45:00 AM 4.64 40.352 0.055 6.8 4.18 13.09
3/23/2021 12:00:00 PM 4.8 40.64 0.055 6.81 4.07 13.11
3/23/2021 12:15:00 PM 4.98 40.964 0.057 6.82 4.03 13.13
3/23/2021 12:30:00 PM 5.11 41.198 0.056 6.82 3.97 13.16
3/23/2021 12:45:00 PM 5.27 41.486 0.054 6.83 4.04 13.19
3/23/2021 1:00:00 PM 5.44 41.792 0.056 6.84 4.06 13.2
3/23/2021 1:15:00 PM 5.58 42.044 0.056 6.83 4.13 13.2
3/23/2021 1:30:00 PM 5.72 42.296 0.056 6.84 4.39 13.2
3/23/2021 1:45:00 PM 5.85 42.53 0.055 6.84 4.05 13.23
3/23/2021 2:00:00 PM 5.97 42.746 0.055 6.85 4.01 13.24
3/23/2021 2:15:00 PM 6.09 42.962 0.054 6.85 4.35 13.24
3/23/2021 2:30:00 PM 6.15 43.07 0.054 6.86 4.14 13.25
3/23/2021 2:45:00 PM 6.24 43.232 0.056 6.86 4.14 13.26
3/23/2021 3:00:00 PM 6.33 43.394 0.057 6.85 4.05 13.26
3/23/2021 3:15:00 PM 6.37 43.466 0.055 6.86 4.24 13.28
3/23/2021 3:30:00 PM 6.42 43.556 0.055 6.86 4.08 13.28
3/23/2021 3:45:00 PM 6.45 43.61 0.055 6.86 4.1 13.28
3/23/2021 4:00:00 PM 6.41 43.538 0.056 6.86 4.14 13.3
3/23/2021 4:15:00 PM 6.43 43.574 0.056 6.86 4.52 13.3
3/23/2021 4:30:00 PM 6.43 43.574 0.054 6.86 4.13 13.29
3/23/2021 4:45:00 PM 6.34 43.412 0.056 6.85 4.11 13.3
3/23/2021 5:00:00 PM 6.3 43.34 0.056 6.85 4.14 13.29
3/23/2021 5:15:00 PM 6.14 43.052 0.056 6.84 4.08 13.29
3/23/2021 5:30:00 PM 6.11 42.998 0.056 6.85 4.17 13.28
3/23/2021 5:45:00 PM 5.98 42.764 0.055 6.84 4.19 13.28
3/23/2021 6:00:00 PM 5.88 42.584 0.056 6.84 4.08 13.27
3/23/2021 6:15:00 PM 5.8 42.44 0.056 6.83 4.15 13.27
3/23/2021 6:30:00 PM 5.67 42.206 0.057 6.82 4.19 13.26
3/23/2021 6:45:00 PM 5.59 42.062 0.057 6.83 4.01 13.26
3/23/2021 7:00:00 PM 5.53 41.954 0.056 6.82 4.15 13.24
3/23/2021 7:15:00 PM 5.51 41.918 0.054 6.81 4.05 13.24
3/23/2021 7:30:00 PM 5.33 41.594 0.056 6.8 4.06 13.22
3/23/2021 7:45:00 PM 5.19 41.342 0.055 6.81 4.17 13.21
3/23/2021 8:00:00 PM 5.12 41.216 0.057 6.78 4.32 13.19
3/23/2021 8:15:00 PM 5.04 41.072 0.057 6.77 4.11 13.17
3/23/2021 8:30:00 PM 5.02 41.036 0.057 6.76 4.19 13.14
3/23/2021 8:45:00 PM 4.83 40.694 0.056 6.76 4.19 13.12
3/23/2021 9:00:00 PM 4.69 40.442 0.058 6.74 4.13 13.09
3/23/2021 9:15:00 PM 4.66 40.388 0.056 6.73 4.1 13.06
3/23/2021 9:30:00 PM 4.57 40.226 0.057 6.73 4.19 13.03
3/23/2021 9:45:00 PM 4.54 40.172 0.053 6.72 4.15 13.01
3/23/2021 10:00:00 PM 4.39 39.902 0.057 6.72 4.35 12.99
3/23/2021 10:15:00 PM 4.37 39.866 0.057 6.72 4.19 12.97
3/23/2021 10:30:00 PM 4.28 39.704 0.057 6.7 4.03 12.95
3/23/2021 10:45:00 PM 4.23 39.614 0.056 6.7 4.25 12.93
3/23/2021 11:00:00 PM 4.18 39.524 0.055 6.72 7.54 12.92
3/23/2021 11:15:00 PM 4.1 39.38 0.055 6.73 4.86 12.91
3/23/2021 11:30:00 PM 4.08 39.344 0.057 6.73 3.98 12.9
3/23/2021 11:45:00 PM 4.05 39.29 0.057 6.73 3.85 12.88
3/24/2021 12:00:00 AM 4.01 39.218 0.058 6.74 4.04 12.86
3/24/2021 12:15:00 AM 3.98 39.164 0.058 6.74 3.84 12.85
3/24/2021 12:30:00 AM 4.01 39.218 0.057 6.74 3.94 12.83
3/24/2021 12:45:00 AM 3.94 39.092 0.055 6.73 4.09 12.82
3/24/2021 1:00:00 AM 3.94 39.092 0.057 6.74 4.18 12.81
3/24/2021 1:15:00 AM 3.97 39.146 0.057 6.74 4.12 12.78
3/24/2021 1:30:00 AM 3.97 39.146 0.056 6.74 3.89 12.76
3/24/2021 1:45:00 AM 3.9 39.02 0.056 6.75 4.05 12.79
3/24/2021 2:00:00 AM 3.9 39.02 0.056 6.75 4.11 12.78
3/24/2021 2:15:00 AM 3.9 39.02 0.056 6.75 4.11 12.77
3/24/2021 2:30:00 AM 3.91 39.038 0.059 6.74 3.92 12.77
3/24/2021 2:45:00 AM 3.92 39.056 0.058 6.75 3.98 12.75
3/24/2021 3:00:00 AM 3.92 39.056 0.057 6.75 4.14 12.75
3/24/2021 3:15:00 AM 3.96 39.128 0.056 6.74 3.98 12.71
3/24/2021 3:30:00 AM 3.94 39.092 0.057 6.74 3.94 12.74
3/24/2021 3:45:00 AM 3.98 39.164 0.057 6.75 4.18 12.7
3/24/2021 4:00:00 AM 3.96 39.128 0.057 6.75 4 12.71
3/24/2021 4:15:00 AM 4 39.2 0.057 6.75 4.51 12.7
3/24/2021 4:30:00 AM 3.97 39.146 0.057 6.75 3.95 12.71
3/24/2021 4:45:00 AM 3.99 39.182 0.057 6.76 3.82 12.7
3/24/2021 5:00:00 AM 4.02 39.236 0.057 6.75 4.33 12.69
3/24/2021 5:15:00 AM 4.05 39.29 0.057 6.76 4.08 12.68
3/24/2021 5:30:00 AM 4.05 39.29 0.057 6.76 4.15 12.67
3/24/2021 5:45:00 AM 4.07 39.326 0.057 6.76 4.1 12.66
3/24/2021 6:00:00 AM 4.1 39.38 0.056 6.77 4.04 12.64
3/24/2021 6:15:00 AM 4.13 39.434 0.057 6.77 4.21 12.62
3/24/2021 6:30:00 AM 4.15 39.47 0.057 6.77 4.15 12.6
3/24/2021 6:45:00 AM 4.19 39.542 0.056 6.76 4.52 12.58
3/24/2021 7:00:00 AM 4.22 39.596 0.055 6.77 4.14 12.56
3/24/2021 7:15:00 AM 4.23 39.614 0.054 6.76 4.03 12.55
3/24/2021 7:30:00 AM 4.25 39.65 0.055 6.77 4.15 12.54
3/24/2021 7:45:00 AM 4.27 39.686 0.058 6.76 4.06 12.51
3/24/2021 8:00:00 AM 4.27 39.686 0.056 6.76 3.99 12.54
3/24/2021 8:15:00 AM 4.27 39.686 0.054 6.77 3.87 12.54
3/24/2021 8:30:00 AM 4.27 39.686 0.056 6.78 3.64 12.55
3/24/2021 8:45:00 AM 4.28 39.704 0.058 6.77 3.63 12.55
3/24/2021 9:00:00 AM 4.3 39.74 0.056 6.77 3.89 12.54
3/24/2021 9:15:00 AM 4.32 39.776 0.054 6.77 3.73 12.53
3/24/2021 9:30:00 AM 4.35 39.83 0.059 6.78 3.7 12.53
3/24/2021 9:45:00 AM 4.37 39.866 0.055 6.77 3.83 12.54
3/24/2021 10:00:00 AM 4.38 39.884 0.056 6.78 4.41 12.56
3/24/2021 10:15:00 AM 4.41 39.938 0.056 6.79 4.13 12.58
3/24/2021 10:30:00 AM 4.43 39.974 0.056 6.78 4.16 12.6
3/24/2021 10:45:00 AM 4.47 40.046 0.056 6.79 3.81 12.58
3/24/2021 11:00:00 AM 4.5 40.1 0.056 6.79 3.61 12.61
3/24/2021 11:15:00 AM 4.52 40.136 0.056 6.79 3.69 12.64
3/24/2021 11:30:00 AM 4.54 40.172 0.056 6.81 3.91 12.65
3/24/2021 11:45:00 AM 4.57 40.226 0.057 6.81 3.61 12.68
3/24/2021 12:00:00 PM 4.6 40.28 0.057 6.81 3.61 12.7
3/24/2021 12:15:00 PM 4.64 40.352 0.057 6.83 3.66 12.72
3/24/2021 12:30:00 PM 4.71 40.478 0.056 6.83 4.07 12.7
3/24/2021 12:45:00 PM 4.77 40.586 0.056 6.83 4 12.72
3/24/2021 1:00:00 PM 4.8 40.64 0.054 6.84 3.67 12.75
3/24/2021 1:15:00 PM 4.85 40.73 0.053 6.84 3.57 12.77
3/24/2021 1:30:00 PM 4.9 40.82 0.055 6.85 3.62 12.8
3/24/2021 1:45:00 PM 4.95 40.91 0.055 6.85 3.72 12.83
3/24/2021 2:00:00 PM 5 41 0.054 6.87 3.66 12.83
3/24/2021 2:15:00 PM 5.08 41.144 0.056 6.87 3.75 12.82
3/24/2021 2:30:00 PM 5.12 41.216 0.055 6.88 3.62 12.83
3/24/2021 3:30:00 PM 5.22 41.396 0.058 6.87 2.84 12.85
3/24/2021 3:45:00 PM 5.24 41.432 0.058 6.87 2.82 12.84
3/24/2021 4:00:00 PM 5.27 41.486 0.057 6.88 2.82 12.84
3/24/2021 4:15:00 PM 5.34 41.612 0.057 6.87 2.79 12.8
3/24/2021 4:30:00 PM 5.33 41.594 0.057 6.87 2.85 12.8
3/24/2021 4:45:00 PM 5.3 41.54 0.058 6.87 2.92 12.79
3/24/2021 5:00:00 PM 5.3 41.54 0.059 6.87 2.98 12.77
3/24/2021 5:15:00 PM 5.3 41.54 0.058 6.87 2.9 12.75
3/24/2021 5:30:00 PM 5.32 41.576 0.058 6.86 2.85 12.72
3/24/2021 5:45:00 PM 5.33 41.594 0.056 6.86 2.86 12.69
3/24/2021 6:00:00 PM 5.36 41.648 0.058 6.86 2.83 12.65
3/24/2021 6:15:00 PM 5.34 41.612 0.058 6.85 2.84 12.62
3/24/2021 6:30:00 PM 5.27 41.486 0.058 6.85 2.88 12.62
3/24/2021 6:45:00 PM 5.26 41.468 0.057 6.85 2.9 12.59
3/24/2021 7:00:00 PM 5.26 41.468 0.058 6.85 3.04 12.57
3/24/2021 7:15:00 PM 5.26 41.468 0.058 6.84 2.8 12.54
3/24/2021 7:30:00 PM 5.23 41.414 0.058 6.83 3.11 12.52
3/24/2021 7:45:00 PM 5.2 41.36 0.057 6.83 2.96 12.5
3/24/2021 8:00:00 PM 5.21 41.378 0.057 6.82 2.97 12.47
3/24/2021 8:15:00 PM 5.22 41.396 0.058 6.82 2.96 12.44
3/24/2021 8:30:00 PM 5.22 41.396 0.058 6.81 2.93 12.41
3/24/2021 8:45:00 PM 5.21 41.378 0.059 6.8 3.02 12.39
3/24/2021 9:00:00 PM 5.2 41.36 0.058 6.8 3.31 12.37
3/24/2021 9:15:00 PM 5.21 41.378 0.058 6.79 2.96 12.34
3/24/2021 9:30:00 PM 5.17 41.306 0.058 6.78 3.18 12.33
3/24/2021 9:45:00 PM 5.12 41.216 0.06 6.78 3.28 12.32
3/24/2021 10:00:00 PM 5.11 41.198 0.058 6.78 3.15 12.3
3/24/2021 10:15:00 PM 5.13 41.234 0.058 6.77 3.18 12.27
3/24/2021 10:30:00 PM 5.09 41.162 0.059 6.77 3.28 12.27
3/24/2021 10:45:00 PM 5.1 41.18 0.058 6.77 3.37 12.24
3/24/2021 11:00:00 PM 5.11 41.198 0.057 6.76 3.42 12.23
3/24/2021 11:15:00 PM 5.03 41.054 0.061 6.76 3.5 12.25
3/24/2021 11:30:00 PM 5.05 41.09 0.058 6.75 3.41 12.22
3/24/2021 11:45:00 PM 5 41 0.058 6.75 3.41 12.23
3/25/2021 12:00:00 AM 4.98 40.964 0.059 6.75 3.79 12.23
3/25/2021 12:15:00 AM 4.96 40.928 0.06 6.75 4.18 12.22
3/25/2021 12:30:00 AM 5 41 0.059 6.75 3.22 12.2
3/25/2021 12:45:00 AM 5 41 0.06 6.74 3.23 12.18
3/25/2021 1:00:00 AM 4.98 40.964 0.061 6.74 3.22 12.18
3/25/2021 1:15:00 AM 4.97 40.946 0.059 6.74 3.23 12.17
3/25/2021 1:30:00 AM 4.97 40.946 0.06 6.74 3.38 12.18
3/25/2021 1:45:00 AM 4.93 40.874 0.058 6.73 3.34 12.18
3/25/2021 2:00:00 AM 4.96 40.928 0.059 6.73 3.32 12.16
3/25/2021 2:15:00 AM 4.92 40.856 0.06 6.73 3.32 12.17
3/25/2021 2:30:00 AM 4.86 40.748 0.06 6.73 3.28 12.2
3/25/2021 2:45:00 AM 4.88 40.784 0.06 6.72 3.23 12.19
3/25/2021 3:00:00 AM 4.87 40.766 0.058 6.72 3.33 12.19
3/25/2021 3:15:00 AM 4.86 40.748 0.06 6.72 3.36 12.18
3/25/2021 3:30:00 AM 4.81 40.658 0.059 6.72 2.99 12.21
3/25/2021 3:45:00 AM 4.81 40.658 0.057 6.72 3.18 12.2
3/25/2021 4:00:00 AM 4.82 40.676 0.058 6.71 3.25 12.18
3/25/2021 4:15:00 AM 4.78 40.604 0.06 6.71 12.16 12.21
3/25/2021 4:30:00 AM 4.76 40.568 0.059 6.72 3.32 12.21
3/25/2021 4:45:00 AM 4.76 40.568 0.057 6.71 3.43 12.2
3/25/2021 5:00:00 AM 4.74 40.532 0.058 6.71 3.45 12.22
3/25/2021 5:15:00 AM 4.76 40.568 0.059 6.71 3.64 12.19
3/25/2021 5:30:00 AM 4.75 40.55 0.057 6.7 3.76 12.19
3/25/2021 5:45:00 AM 4.77 40.586 0.057 6.7 3.64 12.18
3/25/2021 6:00:00 AM 4.78 40.604 0.058 6.69 3.74 12.16
3/25/2021 6:15:00 AM 4.76 40.568 0.058 6.7 5.61 12.16
3/25/2021 6:30:00 AM 4.73 40.514 0.056 6.69 3.57 12.19
3/25/2021 6:45:00 AM 4.76 40.568 0.057 6.69 3.48 12.16
3/25/2021 7:00:00 AM 4.72 40.496 0.055 6.7 3.59 12.19
3/25/2021 7:15:00 AM 4.7 40.46 0.057 6.7 3.39 12.19
3/25/2021 7:30:00 AM 4.7 40.46 0.057 6.7 3.3 12.2
3/25/2021 7:45:00 AM 4.72 40.496 0.058 6.7 3.32 12.17
3/25/2021 8:00:00 AM 4.67 40.406 0.058 6.71 3.24 12.21
3/25/2021 8:15:00 AM 4.67 40.406 0.058 6.7 3.23 12.23
3/25/2021 8:30:00 AM 4.7 40.46 0.057 6.7 3.09 12.21
3/25/2021 8:45:00 AM 4.68 40.424 0.057 6.72 3.2 12.28
3/25/2021 9:00:00 AM 4.68 40.424 0.053 6.71 3.2 12.31
3/25/2021 9:15:00 AM 4.69 40.442 0.057 6.73 3.25 12.35
3/25/2021 9:30:00 AM 4.71 40.478 0.053 6.74 3.37 12.4
3/25/2021 9:45:00 AM 4.73 40.514 0.057 6.73 3.73 12.48
3/25/2021 10:00:00 AM 4.81 40.658 0.054 6.74 3.5 12.49
3/25/2021 10:15:00 AM 4.88 40.784 0.056 6.73 3.71 12.53
3/25/2021 10:30:00 AM 4.86 40.748 0.054 6.74 3.79 12.62
3/25/2021 10:45:00 AM 4.86 40.748 0.053 6.75 3.51 12.73
3/25/2021 11:00:00 AM 5 41 0.054 6.75 4.08 12.71
3/25/2021 11:15:00 AM 5 41 0.056 6.76 4.26 12.79
3/25/2021 11:30:00 AM 5.09 41.162 0.054 6.76 4.48 12.8
3/25/2021 11:45:00 AM 5.16 41.288 0.052 6.75 4.34 12.83
3/25/2021 12:00:00 PM 5.34 41.612 0.053 6.74 4.7 12.83
3/25/2021 12:15:00 PM 5.43 41.774 0.051 6.74 4.82 12.86
3/25/2021 12:30:00 PM 5.56 42.008 0.054 6.74 4.99 12.87
3/25/2021 12:45:00 PM 5.72 42.296 0.054 6.72 5.41 12.87
3/25/2021 1:00:00 PM 5.88 42.584 0.053 6.74 5.75 12.89
3/25/2021 1:15:00 PM 6.03 42.854 0.054 6.72 5.54 12.9
3/25/2021 1:30:00 PM 6.17 43.106 0.052 6.71 6.46 12.92
3/25/2021 1:45:00 PM 6.24 43.232 0.051 6.71 6.61 12.93
3/25/2021 2:00:00 PM 6.32 43.376 0.052 6.71 5.56 12.94
3/25/2021 2:15:00 PM 6.47 43.646 0.052 6.73 5.38 12.95
3/25/2021 2:30:00 PM 6.55 43.79 0.052 6.72 5.37 12.94
3/25/2021 2:45:00 PM 6.71 44.078 0.052 6.72 5.6 12.92
3/25/2021 3:00:00 PM 6.8 44.24 0.053 6.72 5.76 12.91
3/25/2021 3:15:00 PM 6.93 44.474 0.052 6.72 6.13 12.9
3/25/2021 3:30:00 PM 6.97 44.546 0.051 6.71 7.1 12.88
3/25/2021 3:45:00 PM 6.96 44.528 0.051 6.7 12.71 12.87
3/25/2021 4:00:00 PM 6.97 44.546 0.053 6.69 6.27 12.84
3/25/2021 4:15:00 PM 6.92 44.456 0.052 6.68 5.68 12.82
3/25/2021 4:30:00 PM 6.98 44.564 0.051 6.67 5.27 12.8
3/25/2021 4:45:00 PM 6.97 44.546 0.052 6.66 5.52 12.77
3/25/2021 5:00:00 PM 6.86 44.348 0.05 6.65 5.38 12.76
3/25/2021 5:15:00 PM 6.71 44.078 0.052 6.63 5.5 12.75
3/25/2021 5:30:00 PM 6.72 44.096 0.051 6.63 5.89 12.74
3/25/2021 5:45:00 PM 6.62 43.916 0.051 6.61 5 12.72
3/25/2021 6:00:00 PM 6.54 43.772 0.051 6.6 7.46 12.69
3/25/2021 6:15:00 PM 6.44 43.592 0.051 6.6 5.47 12.65
3/25/2021 6:30:00 PM 6.42 43.556 0.052 6.59 5.08 12.61
3/25/2021 6:45:00 PM 6.3 43.34 0.052 6.58 5.35 12.58
3/25/2021 7:00:00 PM 6.14 43.052 0.052 6.57 5.7 12.56
3/25/2021 7:15:00 PM 6.16 43.088 0.051 6.57 5.48 12.53
3/25/2021 7:30:00 PM 6.03 42.854 0.052 6.56 5.73 12.5
3/25/2021 7:45:00 PM 5.91 42.638 0.05 6.55 5.47 12.48
3/25/2021 8:00:00 PM 5.88 42.584 0.052 6.53 5.52 12.45
3/25/2021 8:15:00 PM 5.74 42.332 0.052 6.52 5.44 12.43
3/25/2021 8:30:00 PM 5.7 42.26 0.052 6.51 5.51 12.39
3/25/2021 8:45:00 PM 5.6 42.08 0.052 6.51 5.32 12.38
3/25/2021 9:00:00 PM 5.64 42.152 0.052 6.5 5.32 12.33
3/25/2021 9:15:00 PM 5.61 42.098 0.052 6.49 5.25 12.3
3/25/2021 9:30:00 PM 5.51 41.918 0.051 6.49 5.35 12.31
3/25/2021 9:45:00 PM 5.51 41.918 0.052 6.48 5.32 12.28
3/25/2021 10:00:00 PM 5.53 41.954 0.052 6.48 5.17 12.26
3/25/2021 10:15:00 PM 5.45 41.81 0.05 6.48 5.37 12.26
3/25/2021 10:30:00 PM 5.45 41.81 0.051 6.48 5.19 12.23
3/25/2021 10:45:00 PM 5.45 41.81 0.051 6.48 5.1 12.22
3/25/2021 11:00:00 PM 5.44 41.792 0.051 6.49 4.88 12.2
3/25/2021 11:15:00 PM 5.45 41.81 0.053 6.5 5.02 12.19
3/25/2021 11:30:00 PM 5.41 41.738 0.051 6.5 5.1 12.18
3/25/2021 11:45:00 PM 5.43 41.774 0.053 6.49 4.98 12.17
3/26/2021 12:00:00 AM 5.33 41.594 0.052 6.51 5 12.23
3/26/2021 12:15:00 AM 5.37 41.666 0.052 6.5 5.07 12.19
3/26/2021 12:30:00 AM 5.32 41.576 0.052 6.51 4.82 12.22
3/26/2021 12:45:00 AM 5.32 41.576 0.052 6.51 4.9 12.21
3/26/2021 1:00:00 AM 5.33 41.594 0.053 6.51 5.16 12.2
3/26/2021 1:15:00 AM 5.35 41.63 0.052 6.52 4.95 12.16
3/26/2021 1:30:00 AM 5.35 41.63 0.052 6.52 4.97 12.16
3/26/2021 1:45:00 AM 5.39 41.702 0.053 6.51 4.71 12.13
3/26/2021 2:00:00 AM 5.4 41.72 0.053 6.52 4.73 12.12
3/26/2021 2:15:00 AM 5.38 41.684 0.053 6.52 4.74 12.14
3/26/2021 2:30:00 AM 5.41 41.738 0.052 6.53 4.85 12.11
3/26/2021 2:45:00 AM 5.38 41.684 0.053 6.52 4.78 12.12
3/26/2021 3:00:00 AM 5.42 41.756 0.053 6.53 4.82 12.07
3/26/2021 3:15:00 AM 5.38 41.684 0.053 6.53 4.98 12.1
3/26/2021 3:30:00 AM 5.39 41.702 0.052 6.52 4.84 12.06
3/26/2021 3:45:00 AM 5.38 41.684 0.052 6.53 4.86 12.07
3/26/2021 4:00:00 AM 5.34 41.612 0.052 6.53 4.89 12.1
3/26/2021 4:15:00 AM 5.33 41.594 0.051 6.53 4.91 12.1
3/26/2021 4:30:00 AM 5.36 41.648 0.053 6.53 4.81 12.06
3/26/2021 4:45:00 AM 5.35 41.63 0.052 6.53 4.77 12.08
3/26/2021 5:00:00 AM 5.35 41.63 0.052 6.53 4.79 12.08
3/26/2021 5:15:00 AM 5.34 41.612 0.052 6.54 4.51 12.09
3/26/2021 5:30:00 AM 5.38 41.684 0.051 6.53 4.59 12.03
3/26/2021 5:45:00 AM 5.41 41.738 0.05 6.52 4.68 12
3/26/2021 6:00:00 AM 5.4 41.72 0.051 6.52 4.77 12
3/26/2021 6:15:00 AM 5.35 41.63 0.051 6.52 4.74 12.04
3/26/2021 6:30:00 AM 5.4 41.72 0.05 6.52 4.58 12.01
3/26/2021 6:45:00 AM 5.36 41.648 0.05 6.54 4.66 12.04
3/26/2021 7:00:00 AM 5.36 41.648 0.051 6.54 4.7 12.05
3/26/2021 7:15:00 AM 5.41 41.738 0.05 6.53 4.44 11.98
3/26/2021 7:30:00 AM 5.39 41.702 0.051 6.53 4.57 12.01
3/26/2021 7:45:00 AM 5.42 41.756 0.052 6.54 4.51 11.99
3/26/2021 8:00:00 AM 5.44 41.792 0.052 6.53 4.49 11.97
3/26/2021 8:15:00 AM 5.44 41.792 0.051 6.54 4.8 12
3/26/2021 8:30:00 AM 5.48 41.864 0.051 6.54 4.35 12.02
3/26/2021 8:45:00 AM 5.5 41.9 0.051 6.55 4.28 12.03
3/26/2021 9:00:00 AM 5.57 42.026 0.051 6.54 4.35 12.02
3/26/2021 9:15:00 AM 5.6 42.08 0.051 6.55 4.38 12.07
3/26/2021 9:30:00 AM 5.67 42.206 0.052 6.57 4.32 12.09
3/26/2021 9:45:00 AM 5.77 42.386 0.05 6.55 4.22 12.09
3/26/2021 10:00:00 AM 5.9 42.62 0.05 6.56 4.26 12.11
3/26/2021 10:15:00 AM 6 42.8 0.049 6.59 4.15 12.13
3/26/2021 10:30:00 AM 6.12 43.016 0.05 6.61 4.18 12.17
3/26/2021 10:45:00 AM 6.27 43.286 0.051 6.62 4.28 12.19
3/26/2021 11:00:00 AM 6.36 43.448 0.051 6.63 4.21 12.23
3/26/2021 11:15:00 AM 6.46 43.628 0.051 6.64 4.1 12.27
3/26/2021 11:30:00 AM 6.57 43.826 0.05 6.65 4.15 12.27
3/26/2021 11:45:00 AM 6.63 43.934 0.05 6.66 4.26 12.31
3/26/2021 12:00:00 PM 6.68 44.024 0.049 6.67 4.29 12.35
3/26/2021 12:15:00 PM 6.85 44.33 0.05 6.68 4.2 12.33
3/26/2021 12:30:00 PM 6.89 44.402 0.051 6.69 4 12.36
3/26/2021 12:45:00 PM 6.95 44.51 0.052 6.69 4.22 12.38
3/26/2021 1:00:00 PM 7 44.6 0.05 6.71 4.08 12.4
3/26/2021 1:15:00 PM 7.12 44.816 0.051 6.71 4.15 12.4
3/26/2021 1:30:00 PM 7.15 44.87 0.05 6.72 4.22 12.4
3/26/2021 1:45:00 PM 7.29 45.122 0.051 6.72 4.62 12.39
3/26/2021 2:00:00 PM 7.33 45.194 0.05 6.73 3.94 12.37
3/26/2021 2:15:00 PM 7.35 45.23 0.05 6.74 4.01 12.35
3/26/2021 2:30:00 PM 7.48 45.464 0.051 6.74 4.28 12.32
3/26/2021 2:45:00 PM 7.55 45.59 0.051 6.75 4.15 12.29
3/26/2021 3:00:00 PM 7.62 45.716 0.05 6.76 4.17 12.27
3/26/2021 3:15:00 PM 7.67 45.806 0.05 6.75 4.37 12.26
3/26/2021 3:30:00 PM 7.68 45.824 0.05 6.76 4.11 12.25
3/26/2021 3:45:00 PM 7.75 45.95 0.051 6.77 4 12.24
3/26/2021 4:00:00 PM 7.75 45.95 0.05 6.76 4.54 12.23
3/26/2021 4:15:00 PM 7.81 46.058 0.049 6.78 3.88 12.2
3/26/2021 4:30:00 PM 7.86 46.148 0.05 6.8 3.93 12.17
3/26/2021 4:45:00 PM 7.88 46.184 0.05 6.81 3.99 12.14
3/26/2021 5:00:00 PM 7.87 46.166 0.05 6.8 3.76 12.12
3/26/2021 5:15:00 PM 7.85 46.13 0.05 6.79 3.98 12.08
3/26/2021 5:30:00 PM 7.83 46.094 0.05 6.79 4 12.05
3/26/2021 5:45:00 PM 7.75 45.95 0.049 6.79 4.08 12.01
3/26/2021 6:00:00 PM 7.7 45.86 0.05 6.78 4.02 11.98
3/26/2021 6:15:00 PM 7.66 45.788 0.049 6.79 4.04 11.95
3/26/2021 6:30:00 PM 7.6 45.68 0.049 6.77 4.14 11.93
3/26/2021 6:45:00 PM 7.59 45.662 0.049 6.78 4.45 11.89
3/26/2021 7:00:00 PM 7.5 45.5 0.051 6.77 4.65 11.87
3/26/2021 7:15:00 PM 7.46 45.428 0.05 6.77 4.8 11.85
3/26/2021 7:30:00 PM 7.38 45.284 0.05 6.77 4.38 11.83
3/26/2021 7:45:00 PM 7.3 45.14 0.05 6.75 4.41 11.82
3/26/2021 8:00:00 PM 7.27 45.086 0.05 6.76 4.99 11.79
3/26/2021 8:15:00 PM 7.23 45.014 0.05 6.74 4.54 11.76
3/26/2021 8:30:00 PM 7.17 44.906 0.049 6.73 4.67 11.75
3/26/2021 8:45:00 PM 7.17 44.906 0.051 6.72 6.42 11.71
3/26/2021 9:00:00 PM 7.13 44.834 0.05 6.71 4.29 11.7
3/26/2021 9:15:00 PM 7.12 44.816 0.05 6.71 6.58 11.67
3/26/2021 9:30:00 PM 7.15 44.87 0.05 6.71 4.42 11.64
3/26/2021 9:45:00 PM 7.2 44.96 0.05 6.68 6.49 11.62
3/26/2021 10:00:00 PM 7.28 45.104 0.05 6.69 4.61 11.56
3/26/2021 10:15:00 PM 7.35 45.23 0.051 6.68 5.08 11.52
3/26/2021 10:30:00 PM 7.47 45.446 0.05 6.67 4.47 11.47
3/26/2021 10:45:00 PM 7.53 45.554 0.05 6.68 4.26 11.44
3/26/2021 11:00:00 PM 7.57 45.626 0.048 6.67 6.69 11.39
3/26/2021 11:15:00 PM 7.63 45.734 0.049 6.67 7.23 11.38
3/26/2021 11:30:00 PM 7.67 45.806 0.048 6.67 9.36 11.36
3/26/2021 11:45:00 PM 7.71 45.878 0.048 6.67 10.64 11.33
3/27/2021 12:00:00 AM 7.73 45.914 0.048 6.66 12.9 11.3
3/27/2021 12:15:00 AM 7.77 45.986 0.048 6.67 7.43 11.3
3/27/2021 12:30:00 AM 7.8 46.04 0.048 6.66 5.1 11.27
3/27/2021 12:45:00 AM 7.83 46.094 0.048 6.66 7.48 11.28
3/27/2021 1:00:00 AM 7.82 46.076 0.048 6.65 6.9 11.25
3/27/2021 1:15:00 AM 7.82 46.076 0.048 6.65 6.33 11.26
3/27/2021 1:30:00 AM 7.82 46.076 0.048 6.64 10.6 11.25
3/27/2021 1:45:00 AM 7.8 46.04 0.048 6.63 8.06 11.23
3/27/2021 2:00:00 AM 7.78 46.004 0.048 6.63 8.49 11.24
3/27/2021 2:15:00 AM 7.77 45.986 0.047 6.63 9.15 11.24
3/27/2021 2:30:00 AM 7.74 45.932 0.048 6.62 8.01 11.24
3/27/2021 2:45:00 AM 7.71 45.878 0.048 6.62 10.73 11.24
3/27/2021 3:00:00 AM 7.69 45.842 0.048 6.61 8.67 11.24
3/27/2021 3:15:00 AM 7.65 45.77 0.048 6.61 8.58 11.24
3/27/2021 3:30:00 AM 7.63 45.734 0.047 6.6 7.87 11.25
3/27/2021 3:45:00 AM 7.61 45.698 0.049 6.6 8.53 11.24
3/27/2021 4:00:00 AM 7.57 45.626 0.049 6.59 12.96 11.23
3/27/2021 4:15:00 AM 7.57 45.626 0.048 6.58 10.88 11.25
3/27/2021 4:30:00 AM 7.55 45.59 0.047 6.58 5.51 11.23
3/27/2021 4:45:00 AM 7.53 45.554 0.048 6.58 8.56 11.21
3/27/2021 5:00:00 AM 7.52 45.536 0.048 6.57 7.55 11.24
3/27/2021 5:15:00 AM 7.51 45.518 0.048 6.58 4.77 11.22
3/27/2021 5:30:00 AM 7.5 45.5 0.049 6.56 4.17 11.24
3/27/2021 5:45:00 AM 7.49 45.482 0.048 6.56 4.53 11.24
3/27/2021 6:00:00 AM 7.47 45.446 0.049 6.57 4.62 11.23
3/27/2021 6:15:00 AM 7.46 45.428 0.049 6.57 4.75 11.27
3/27/2021 6:30:00 AM 7.45 45.41 0.048 6.56 4.31 11.23
3/27/2021 6:45:00 AM 7.43 45.374 0.049 6.56 4.46 11.24
3/27/2021 7:00:00 AM 7.42 45.356 0.049 6.55 4.29 11.24
3/27/2021 7:15:00 AM 7.41 45.338 0.048 6.55 4.52 11.23
3/27/2021 7:30:00 AM 7.39 45.302 0.049 6.55 4.37 11.25
3/27/2021 7:45:00 AM 7.38 45.284 0.049 6.55 4.19 11.26
3/27/2021 8:00:00 AM 7.37 45.266 0.048 6.55 4.26 11.27
3/27/2021 8:15:00 AM 7.37 45.266 0.048 6.55 4.07 11.29
3/27/2021 8:30:00 AM 7.36 45.248 0.049 6.55 4.07 11.29
3/27/2021 8:45:00 AM 7.37 45.266 0.049 6.55 3.94 11.31
3/27/2021 9:00:00 AM 7.37 45.266 0.049 6.56 3.91 11.36
3/27/2021 9:15:00 AM 7.37 45.266 0.049 6.56 3.93 11.34
3/27/2021 9:30:00 AM 7.37 45.266 0.049 6.57 3.84 11.38
3/27/2021 9:45:00 AM 7.37 45.266 0.049 6.59 3.87 11.48
3/27/2021 10:00:00 AM 7.38 45.284 0.048 6.59 3.85 11.46
3/27/2021 10:15:00 AM 7.41 45.338 0.049 6.59 3.72 11.56
3/27/2021 10:30:00 AM 7.43 45.374 0.049 6.6 3.8 11.54
3/27/2021 10:45:00 AM 7.47 45.446 0.049 6.61 3.75 11.61
3/27/2021 11:00:00 AM 7.5 45.5 0.049 6.62 3.65 11.63
3/27/2021 11:15:00 AM 7.55 45.59 0.048 6.63 3.84 11.69
3/27/2021 11:30:00 AM 7.62 45.716 0.049 6.64 3.66 11.74
3/27/2021 11:45:00 AM 7.7 45.86 0.048 6.65 3.78 11.77
3/27/2021 12:00:00 PM 7.8 46.04 0.048 6.65 3.8 11.81
3/27/2021 12:15:00 PM 7.9 46.22 0.048 6.67 3.73 11.86
3/27/2021 12:30:00 PM 8 46.4 0.049 6.68 3.69 11.88
3/27/2021 12:45:00 PM 8.1 46.58 0.05 6.69 4.31 11.91
3/27/2021 1:00:00 PM 8.19 46.742 0.048 6.71 3.72 11.95
3/27/2021 1:15:00 PM 8.3 46.94 0.049 6.71 3.58 11.98
3/27/2021 1:30:00 PM 8.37 47.066 0.049 6.73 3.75 12.02
3/27/2021 1:45:00 PM 8.46 47.228 0.049 6.74 3.59 12.06
3/27/2021 2:00:00 PM 8.58 47.444 0.048 6.76 3.59 12.08
3/27/2021 2:15:00 PM 8.71 47.678 0.049 6.75 3.62 12.09
3/27/2021 2:30:00 PM 8.82 47.876 0.049 6.77 3.6 12.11
3/27/2021 2:45:00 PM 8.93 48.074 0.049 6.78 3.62 12.12
3/27/2021 3:00:00 PM 8.98 48.164 0.048 6.78 3.73 12.15
3/27/2021 3:15:00 PM 9.02 48.236 0.048 6.79 3.7 12.17
3/27/2021 3:30:00 PM 9.01 48.218 0.049 6.8 3.59 12.17
3/27/2021 3:45:00 PM 9.1 48.38 0.049 6.8 3.62 12.18
3/27/2021 4:00:00 PM 9.14 48.452 0.048 6.8 3.63 12.19
3/27/2021 4:15:00 PM 9.19 48.542 0.049 6.8 3.63 12.18
3/27/2021 4:30:00 PM 9.3 48.74 0.049 6.81 3.56 12.19
3/27/2021 4:45:00 PM 9.3 48.74 0.05 6.82 3.63 12.16
3/27/2021 5:00:00 PM 9.34 48.812 0.05 6.81 3.48 12.16
3/27/2021 5:15:00 PM 9.38 48.884 0.051 6.82 3.46 12.14
3/27/2021 5:30:00 PM 9.35 48.83 0.051 6.83 3.49 12.11
3/27/2021 5:45:00 PM 9.35 48.83 0.051 6.82 3.46 12.11
3/27/2021 6:00:00 PM 9.29 48.722 0.05 6.81 3.98 12.09
3/27/2021 6:15:00 PM 9.24 48.632 0.05 6.81 3.84 12.08
3/27/2021 6:30:00 PM 9.17 48.506 0.05 6.79 3.73 12.05
3/27/2021 6:45:00 PM 9.17 48.506 0.05 6.8 3.54 12.04
3/27/2021 7:00:00 PM 9.12 48.416 0.05 6.79 3.63 12.02
3/27/2021 7:15:00 PM 9.05 48.29 0.05 6.78 3.56 11.98
3/27/2021 7:30:00 PM 9 48.2 0.05 6.78 3.47 11.97
3/27/2021 7:45:00 PM 8.91 48.038 0.05 6.76 3.64 11.93
3/27/2021 8:00:00 PM 8.81 47.858 0.05 6.75 3.66 11.9
3/27/2021 8:15:00 PM 8.72 47.696 0.051 6.74 3.65 11.86
3/27/2021 8:30:00 PM 8.62 47.516 0.051 6.73 3.76 11.83
3/27/2021 8:45:00 PM 8.54 47.372 0.05 6.7 3.73 11.79
3/27/2021 9:00:00 PM 8.42 47.156 0.05 6.7 3.69 11.74
3/27/2021 9:15:00 PM 8.32 46.976 0.05 6.68 3.8 11.71
3/27/2021 9:30:00 PM 8.26 46.868 0.051 6.67 3.84 11.68
3/27/2021 9:45:00 PM 8.18 46.724 0.05 6.65 3.84 11.65
3/27/2021 10:00:00 PM 8.1 46.58 0.051 6.65 3.92 11.62
3/27/2021 10:15:00 PM 8.05 46.49 0.05 6.63 4.03 11.6
3/27/2021 10:30:00 PM 8.01 46.418 0.05 6.63 10.5 11.58
3/27/2021 10:45:00 PM 7.94 46.292 0.05 6.62 11.4 11.56
3/27/2021 11:00:00 PM 7.9 46.22 0.05 6.62 4.07 11.55
3/27/2021 11:15:00 PM 7.82 46.076 0.05 6.61 4.02 11.54
3/27/2021 11:30:00 PM 7.79 46.022 0.05 6.6 4.05 11.52
3/27/2021 11:45:00 PM 7.79 46.022 0.05 6.6 4.06 11.5
3/28/2021 12:00:00 AM 7.7 45.86 0.049 6.6 4.01 11.51
3/28/2021 12:15:00 AM 7.69 45.842 0.05 6.6 4.05 11.48
3/28/2021 12:30:00 AM 7.64 45.752 0.049 6.59 4.15 11.48
3/28/2021 12:45:00 AM 7.62 45.716 0.049 6.6 4.2 11.46
3/28/2021 1:00:00 AM 7.57 45.626 0.052 6.59 3.97 11.45
3/28/2021 1:15:00 AM 7.54 45.572 0.051 6.59 4.16 11.44
3/28/2021 1:30:00 AM 7.49 45.482 0.05 6.59 4.89 11.44
3/28/2021 1:45:00 AM 7.45 45.41 0.05 6.59 4.29 11.43
3/28/2021 2:00:00 AM 7.41 45.338 0.05 6.59 4.51 11.44
3/28/2021 2:15:00 AM 7.43 45.374 0.05 6.59 4.53 11.41
3/28/2021 2:30:00 AM 7.39 45.302 0.05 6.59 4.61 11.41
3/28/2021 2:45:00 AM 7.39 45.302 0.051 6.6 3.93 11.4
3/28/2021 3:00:00 AM 7.37 45.266 0.05 6.6 4.14 11.41
3/28/2021 3:15:00 AM 7.36 45.248 0.05 6.6 4.2 11.4
3/28/2021 3:30:00 AM 7.35 45.23 0.051 6.59 4.68 11.39
3/28/2021 3:45:00 AM 7.34 45.212 0.05 6.6 4.44 11.39
3/28/2021 4:00:00 AM 7.35 45.23 0.05 6.6 4.43 11.36
3/28/2021 4:15:00 AM 7.35 45.23 0.05 6.6 4.7 11.35
3/28/2021 4:30:00 AM 7.38 45.284 0.05 6.6 4.22 11.35
3/28/2021 4:45:00 AM 7.4 45.32 0.05 6.61 4.18 11.33
3/28/2021 5:00:00 AM 7.44 45.392 0.051 6.6 4.33 11.31
3/28/2021 5:15:00 AM 7.46 45.428 0.052 6.6 4.75 11.29
3/28/2021 5:30:00 AM 7.48 45.464 0.051 6.61 4.4 11.3
3/28/2021 5:45:00 AM 7.5 45.5 0.051 6.61 4.11 11.3
3/28/2021 6:00:00 AM 7.52 45.536 0.051 6.62 4.06 11.28
3/28/2021 6:15:00 AM 7.53 45.554 0.052 6.62 4.28 11.23
3/28/2021 6:30:00 AM 7.54 45.572 0.051 6.63 4.46 11.27
3/28/2021 6:45:00 AM 7.56 45.608 0.051 6.62 4.32 11.24
3/28/2021 7:00:00 AM 7.57 45.626 0.052 6.62 4.27 11.22
3/28/2021 7:15:00 AM 7.59 45.662 0.052 6.61 4.14 11.21
3/28/2021 7:30:00 AM 7.61 45.698 0.051 6.61 4.26 11.21
3/28/2021 7:45:00 AM 7.62 45.716 0.052 6.6 4.07 11.17
3/28/2021 8:00:00 AM 7.63 45.734 0.05 6.61 4.09 11.2
3/28/2021 8:15:00 AM 7.61 45.698 0.051 6.61 4.01 11.22
3/28/2021 8:30:00 AM 7.59 45.662 0.051 6.61 3.91 11.23
3/28/2021 8:45:00 AM 7.55 45.59 0.051 6.6 3.94 11.2
3/28/2021 9:00:00 AM 7.51 45.518 0.051 6.61 3.97 11.24
3/28/2021 9:15:00 AM 7.48 45.464 0.051 6.6 4.11 11.25
3/28/2021 9:30:00 AM 7.46 45.428 0.05 6.6 3.96 11.24
3/28/2021 9:45:00 AM 7.44 45.392 0.051 6.61 4.02 11.27
3/28/2021 10:00:00 AM 7.44 45.392 0.051 6.61 10.15 11.29
3/28/2021 10:15:00 AM 7.43 45.374 0.051 6.62 3.91 11.3
3/28/2021 10:30:00 AM 7.43 45.374 0.051 6.62 4.02 11.29
3/28/2021 10:45:00 AM 7.41 45.338 0.051 6.62 3.85 11.37
3/28/2021 11:00:00 AM 7.42 45.356 0.05 6.63 3.93 11.41
3/28/2021 11:15:00 AM 7.43 45.374 0.051 6.64 3.95 11.45
3/28/2021 11:30:00 AM 7.44 45.392 0.051 6.64 3.84 11.48
3/28/2021 11:45:00 AM 7.48 45.464 0.052 6.65 3.83 11.48
3/28/2021 12:00:00 PM 7.51 45.518 0.051 6.66 3.88 11.5
3/28/2021 12:15:00 PM 7.55 45.59 0.051 6.67 3.86 11.54
3/28/2021 12:30:00 PM 7.6 45.68 0.05 6.68 3.7 11.55
3/28/2021 12:45:00 PM 7.63 45.734 0.05 6.69 3.87 11.58
3/28/2021 1:00:00 PM 7.68 45.824 0.05 6.7 3.93 11.61
3/28/2021 1:15:00 PM 7.73 45.914 0.051 6.71 3.85 11.63
3/28/2021 1:30:00 PM 7.77 45.986 0.051 6.73 3.8 11.66
3/28/2021 1:45:00 PM 7.81 46.058 0.05 6.74 3.82 11.69
3/28/2021 2:00:00 PM 7.85 46.13 0.051 6.74 3.93 11.73
3/28/2021 2:15:00 PM 7.88 46.184 0.05 6.75 3.79 11.75
3/28/2021 2:30:00 PM 7.9 46.22 0.05 6.76 3.79 11.77
3/28/2021 2:45:00 PM 7.92 46.256 0.05 6.75 3.71 11.79
3/28/2021 3:00:00 PM 7.95 46.31 0.05 6.77 3.73 11.82
3/28/2021 3:15:00 PM 7.98 46.364 0.049 6.78 3.82 11.84
3/28/2021 3:30:00 PM 8.04 46.472 0.05 6.79 3.76 11.86
3/28/2021 3:45:00 PM 8.08 46.544 0.05 6.79 3.79 11.87
3/28/2021 4:00:00 PM 8.11 46.598 0.05 6.79 3.74 11.88
3/28/2021 4:15:00 PM 8.13 46.634 0.05 6.8 3.86 11.88
3/28/2021 4:30:00 PM 8.15 46.67 0.05 6.8 3.74 11.89
3/28/2021 4:45:00 PM 8.16 46.688 0.05 6.8 3.61 11.88
3/28/2021 5:00:00 PM 8.14 46.652 0.05 6.8 3.79 11.86
3/28/2021 5:15:00 PM 8.16 46.688 0.05 6.79 3.74 11.84
3/28/2021 5:30:00 PM 8.18 46.724 0.05 6.79 3.77 11.83
3/28/2021 5:45:00 PM 8.17 46.706 0.051 6.8 3.76 11.79
3/28/2021 6:00:00 PM 8.19 46.742 0.051 6.79 3.78 11.75
3/28/2021 6:15:00 PM 8.23 46.814 0.051 6.79 3.75 11.73
3/28/2021 6:30:00 PM 8.22 46.796 0.051 6.78 3.88 11.65
3/28/2021 6:45:00 PM 8.2 46.76 0.05 6.79 3.75 11.61
3/28/2021 7:00:00 PM 8.22 46.796 0.051 6.78 3.77 11.57
3/28/2021 7:15:00 PM 8.19 46.742 0.051 6.78 4.17 11.52
3/28/2021 7:30:00 PM 8.19 46.742 0.051 6.78 4.2 11.48
3/28/2021 7:45:00 PM 8.15 46.67 0.051 6.76 4.01 11.44
3/28/2021 8:00:00 PM 8.13 46.634 0.051 6.76 4.73 11.41
3/28/2021 8:15:00 PM 8.11 46.598 0.052 6.76 4.65 11.38
3/28/2021 8:30:00 PM 8.05 46.49 0.052 6.75 4.5 11.36
3/28/2021 8:45:00 PM 8.02 46.436 0.052 6.74 4.54 11.34
3/28/2021 9:00:00 PM 8 46.4 0.051 6.73 4.1 11.32
3/28/2021 9:15:00 PM 7.98 46.364 0.052 6.73 4.34 11.3
3/28/2021 9:30:00 PM 7.96 46.328 0.052 6.72 4.13 11.27
3/28/2021 9:45:00 PM 7.9 46.22 0.052 6.71 4.07 11.26
3/28/2021 10:00:00 PM 7.86 46.148 0.052 6.71 4.54 11.24
3/28/2021 10:15:00 PM 7.8 46.04 0.052 6.7 4.3 11.24
3/28/2021 10:30:00 PM 7.77 45.986 0.052 6.7 4.42 11.22
3/28/2021 10:45:00 PM 7.73 45.914 0.053 6.69 4.46 11.22
3/28/2021 11:15:00 PM 7.65 45.77 0.053 6.69 4.4 11.22
3/28/2021 11:30:00 PM 7.61 45.698 0.053 6.69 4.59 11.19
3/28/2021 11:45:00 PM 7.56 45.608 0.053 6.69 4.89 11.16
3/29/2021 12:00:00 AM 7.5 45.5 0.054 6.68 4.64 11.19
3/29/2021 12:15:00 AM 7.46 45.428 0.053 6.68 4.5 11.17
3/29/2021 12:30:00 AM 7.41 45.338 0.053 6.67 4.75 11.15
3/29/2021 12:45:00 AM 7.38 45.284 0.053 6.67 4.67 11.15
3/29/2021 1:00:00 AM 7.31 45.158 0.053 6.67 5.15 11.16
3/29/2021 1:15:00 AM 7.25 45.05 0.053 6.68 5.01 11.16
3/29/2021 1:30:00 AM 7.19 44.942 0.053 6.68 5.78 11.16
3/29/2021 1:45:00 AM 7.13 44.834 0.052 6.68 5.51 11.16
3/29/2021 2:00:00 AM 7.09 44.762 0.052 6.68 5.89 11.17
3/29/2021 2:30:00 AM 7.02 44.636 0.052 6.67 6.73 11.16
3/29/2021 2:45:00 AM 6.97 44.546 0.051 6.67 5.96 11.17
3/29/2021 3:00:00 AM 6.9 44.42 0.051 6.66 6.82 11.15
3/29/2021 3:15:00 AM 6.87 44.366 0.051 6.66 7.7 11.16
3/29/2021 3:30:00 AM 6.84 44.312 0.051 6.66 6.73 11.17
3/29/2021 3:45:00 AM 6.78 44.204 0.051 6.66 7.28 11.18
3/29/2021 4:00:00 AM 6.75 44.15 0.052 6.65 7.58 11.21
3/29/2021 4:15:00 AM 6.68 44.024 0.052 6.65 6.51 11.21
3/29/2021 4:30:00 AM 6.62 43.916 0.051 6.65 7.05 11.22
3/29/2021 4:45:00 AM 6.59 43.862 0.052 6.65 6.79 11.23
3/29/2021 5:00:00 AM 6.52 43.736 0.052 6.66 6.79 11.25
3/29/2021 5:15:00 AM 6.49 43.682 0.052 6.66 6.17 11.27
3/29/2021 5:30:00 AM 6.42 43.556 0.052 6.66 6.59 11.28
3/29/2021 5:45:00 AM 6.34 43.412 0.052 6.65 6.9 11.29
3/29/2021 6:00:00 AM 6.3 43.34 0.053 6.66 7.13 11.32
3/29/2021 6:15:00 AM 6.25 43.25 0.054 6.67 7.53 11.34
3/29/2021 6:30:00 AM 6.22 43.196 0.055 6.66 7.43 11.37
3/29/2021 6:45:00 AM 6.17 43.106 0.055 6.66 7.05 11.38
3/29/2021 7:00:00 AM 6.15 43.07 0.054 6.68 9.11 11.41
3/29/2021 7:15:00 AM 6.09 42.962 0.054 6.68 6.8 11.42
3/29/2021 7:30:00 AM 6.02 42.836 0.054 6.69 6.86 11.43
3/29/2021 7:45:00 AM 6.01 42.818 0.055 6.7 6.75 11.45
3/29/2021 8:00:00 AM 5.99 42.782 0.055 6.71 6.79 11.49
3/29/2021 8:15:00 AM 5.96 42.728 0.055 6.71 6.77 11.52
3/29/2021 8:30:00 AM 5.94 42.692 0.055 6.71 7.24 11.55
3/29/2021 8:45:00 AM 5.91 42.638 0.055 6.72 6.95 11.59
3/29/2021 9:00:00 AM 5.93 42.674 0.056 6.72 6.31 11.63
3/29/2021 9:15:00 AM 5.9 42.62 0.056 6.73 6.4 11.67
3/29/2021 9:30:00 AM 5.91 42.638 0.055 6.73 6.12 11.73
3/29/2021 9:45:00 AM 5.91 42.638 0.055 6.74 5.83 11.78
3/29/2021 10:00:00 AM 5.9 42.62 0.056 6.74 5.73 11.83
3/29/2021 10:15:00 AM 5.92 42.656 0.055 6.75 5.49 11.87
3/29/2021 10:30:00 AM 5.94 42.692 0.055 6.75 5.49 11.92
3/29/2021 10:45:00 AM 5.98 42.764 0.056 6.77 5.34 11.97
3/29/2021 11:00:00 AM 5.99 42.782 0.055 6.78 5.36 12.02
3/29/2021 11:15:00 AM 6.02 42.836 0.054 6.8 5.27 12.06
3/29/2021 11:30:00 AM 6.03 42.854 0.056 6.8 7.25 12.1
3/29/2021 11:45:00 AM 6.03 42.854 0.054 6.82 10.58 12.13
3/29/2021 12:00:00 PM 6.07 42.926 0.055 6.83 7.93 12.17
3/29/2021 12:15:00 PM 6.1 42.98 0.056 6.84 6.32 12.22
3/29/2021 12:30:00 PM 6.13 43.034 0.055 6.85 7.55 12.25
3/29/2021 12:45:00 PM 6.22 43.196 0.056 6.86 6.64 12.3
3/29/2021 1:00:00 PM 6.34 43.412 0.055 6.87 6.94 12.34
3/29/2021 1:15:00 PM 6.48 43.664 0.055 6.88 5.53 12.36
3/29/2021 1:30:00 PM 6.62 43.916 0.055 6.89 5.44 12.4
3/29/2021 1:45:00 PM 6.79 44.222 0.056 6.91 6.26 12.42
3/29/2021 2:00:00 PM 6.95 44.51 0.056 6.92 4.97 12.44
3/29/2021 2:15:00 PM 7.11 44.798 0.056 6.94 5.32 12.44
3/29/2021 2:30:00 PM 7.24 45.032 0.056 6.95 5.3 12.45
3/29/2021 2:45:00 PM 7.33 45.194 0.056 6.97 5.66 12.46
3/29/2021 3:00:00 PM 7.41 45.338 0.056 6.97 5.11 12.46
3/29/2021 3:15:00 PM 7.51 45.518 0.056 6.97 5.91 12.48
3/29/2021 3:30:00 PM 7.58 45.644 0.056 6.98 5.68 12.47
3/29/2021 3:45:00 PM 7.6 45.68 0.056 6.99 5.46 12.5
3/29/2021 4:00:00 PM 7.58 45.644 0.055 6.99 4.89 12.52
3/29/2021 4:15:00 PM 7.59 45.662 0.055 6.99 5.05 12.52
3/29/2021 4:30:00 PM 7.59 45.662 0.056 6.99 4.76 12.52
3/29/2021 4:45:00 PM 7.64 45.752 0.055 6.99 4.73 12.51
3/29/2021 5:00:00 PM 7.66 45.788 0.055 6.99 4.69 12.5
3/29/2021 5:15:00 PM 7.68 45.824 0.055 6.99 4.54 12.48
3/29/2021 5:30:00 PM 7.69 45.842 0.056 6.99 5.06 12.48
3/29/2021 5:45:00 PM 7.7 45.86 0.055 6.99 4.96 12.49
3/29/2021 6:00:00 PM 7.6 45.68 0.055 6.99 4.64 12.47
3/29/2021 6:15:00 PM 7.57 45.626 0.056 6.98 4.69 12.47
3/29/2021 6:30:00 PM 7.53 45.554 0.056 6.98 4.9 12.45
3/29/2021 6:45:00 PM 7.47 45.446 0.056 6.98 5.12 12.42
3/29/2021 7:00:00 PM 7.45 45.41 0.056 6.97 5.04 12.4
3/29/2021 7:15:00 PM 7.37 45.266 0.056 6.96 4.93 12.37
3/29/2021 7:30:00 PM 7.3 45.14 0.056 6.94 4.41 12.34
3/29/2021 7:45:00 PM 7.22 44.996 0.056 6.93 4.5 12.29
3/29/2021 8:00:00 PM 7.2 44.96 0.055 6.92 4.41 12.27
3/29/2021 8:15:00 PM 7.14 44.852 0.056 6.9 4.74 12.21
3/29/2021 8:30:00 PM 7.11 44.798 0.055 6.9 4.5 12.17
3/29/2021 8:45:00 PM 7.1 44.78 0.055 6.89 4.41 12.13
3/29/2021 9:00:00 PM 7.06 44.708 0.055 6.88 4.42 12.08
3/29/2021 9:15:00 PM 7.05 44.69 0.056 6.86 4.5 12.06
3/29/2021 9:30:00 PM 7.01 44.618 0.056 6.85 4.35 12.01
3/29/2021 9:45:00 PM 7 44.6 0.055 6.84 4.73 11.99
3/29/2021 10:00:00 PM 6.97 44.546 0.056 6.83 4.4 11.97
3/29/2021 10:15:00 PM 6.92 44.456 0.055 6.82 4.38 11.93
3/29/2021 10:30:00 PM 6.87 44.366 0.056 6.81 4.39 11.9
3/29/2021 10:45:00 PM 6.86 44.348 0.057 6.81 4.59 11.89
3/29/2021 11:00:00 PM 6.81 44.258 0.056 6.8 4.5 11.87
3/29/2021 11:15:00 PM 6.79 44.222 0.057 6.8 4.73 11.86
3/29/2021 11:30:00 PM 6.75 44.15 0.056 6.79 4.52 11.84
3/29/2021 11:45:00 PM 6.7 44.06 0.056 6.79 4.61 11.82
3/30/2021 12:00:00 AM 6.67 44.006 0.055 6.78 4.79 11.81
3/30/2021 12:15:00 AM 6.62 43.916 0.055 6.77 4.6 11.79
3/30/2021 12:30:00 AM 6.56 43.808 0.056 6.77 4.64 11.79
3/30/2021 12:45:00 AM 6.52 43.736 0.056 6.76 4.54 11.78
3/30/2021 1:00:00 AM 6.47 43.646 0.055 6.76 4.69 11.77
3/30/2021 1:15:00 AM 6.43 43.574 0.054 6.75 4.61 11.76
3/30/2021 1:30:00 AM 6.4 43.52 0.055 6.75 4.79 11.75
3/30/2021 1:45:00 AM 6.37 43.466 0.056 6.75 4.69 11.74
3/30/2021 2:00:00 AM 6.34 43.412 0.056 6.74 4.6 11.72
3/30/2021 2:15:00 AM 6.29 43.322 0.056 6.74 4.73 11.73
3/30/2021 2:30:00 AM 6.27 43.286 0.056 6.74 4.82 11.71
3/30/2021 2:45:00 AM 6.23 43.214 0.057 6.73 4.93 11.68
3/30/2021 3:00:00 AM 6.21 43.178 0.056 6.73 5.1 11.68
3/30/2021 3:15:00 AM 6.21 43.178 0.056 6.73 5.05 11.68
3/30/2021 3:30:00 AM 6.19 43.142 0.056 6.72 4.87 11.67
3/30/2021 3:45:00 AM 6.17 43.106 0.056 6.73 5 11.68
3/30/2021 4:00:00 AM 6.15 43.07 0.056 6.72 4.98 11.67
3/30/2021 4:15:00 AM 6.12 43.016 0.055 6.72 4.94 11.66
3/30/2021 4:30:00 AM 6.11 42.998 0.055 6.72 4.91 11.65
3/30/2021 4:45:00 AM 6.08 42.944 0.055 6.72 5.19 11.64
3/30/2021 5:00:00 AM 6.06 42.908 0.055 6.72 5.15 11.63
3/30/2021 5:15:00 AM 6.06 42.908 0.054 6.72 5.17 11.65
3/30/2021 5:30:00 AM 6.02 42.836 0.055 6.72 5.05 11.65
3/30/2021 5:45:00 AM 6 42.8 0.054 6.72 5.06 11.62
3/30/2021 6:00:00 AM 5.98 42.764 0.056 6.73 4.73 11.62
3/30/2021 6:15:00 AM 5.96 42.728 0.056 6.72 4.76 11.61
3/30/2021 6:30:00 AM 5.95 42.71 0.055 6.73 4.98 11.63
3/30/2021 6:45:00 AM 5.94 42.692 0.056 6.73 4.96 11.65
3/30/2021 7:00:00 AM 5.91 42.638 0.055 6.73 4.8 11.64
3/30/2021 7:15:00 AM 5.9 42.62 0.055 6.73 4.88 11.66
3/30/2021 7:30:00 AM 5.87 42.566 0.055 6.73 4.65 11.64
3/30/2021 7:45:00 AM 5.84 42.512 0.055 6.73 4.95 11.65
3/30/2021 8:00:00 AM 5.83 42.494 0.055 6.74 4.73 11.68
3/30/2021 8:15:00 AM 5.81 42.458 0.055 6.74 4.73 11.69
3/30/2021 8:30:00 AM 5.8 42.44 0.055 6.74 4.88 11.71
3/30/2021 8:45:00 AM 5.82 42.476 0.055 6.75 4.55 11.73
3/30/2021 9:00:00 AM 5.89 42.602 0.055 6.76 4.71 11.8
3/30/2021 9:15:00 AM 5.96 42.728 0.055 6.77 4.66 11.85
3/30/2021 9:30:00 AM 6.04 42.872 0.056 6.78 4.31 11.92
3/30/2021 9:45:00 AM 6.09 42.962 0.055 6.79 4.74 11.94
3/30/2021 10:00:00 AM 6.19 43.142 0.056 6.8 4.65 11.99
3/30/2021 10:15:00 AM 6.31 43.358 0.056 6.82 4.59 12.05
3/30/2021 10:30:00 AM 6.42 43.556 0.055 6.83 4.44 12.07
3/30/2021 10:45:00 AM 6.55 43.79 0.056 6.84 4.69 12.11
3/30/2021 11:00:00 AM 6.69 44.042 0.056 6.85 4.4 12.16
3/30/2021 11:15:00 AM 6.83 44.294 0.056 6.87 4.35 12.24
3/30/2021 11:30:00 AM 6.96 44.528 0.056 6.88 4.29 12.26
3/30/2021 11:45:00 AM 7.1 44.78 0.056 6.89 4.32 12.3
3/30/2021 12:00:00 PM 7.26 45.068 0.056 6.9 4.28 12.34
3/30/2021 12:15:00 PM 7.42 45.356 0.056 6.92 4.32 12.37
3/30/2021 12:30:00 PM 7.59 45.662 0.055 6.93 4.47 12.39
3/30/2021 12:45:00 PM 7.77 45.986 0.056 6.93 4.46 12.4
3/30/2021 1:00:00 PM 7.93 46.274 0.055 6.95 4.38 12.45
3/30/2021 1:15:00 PM 8.05 46.49 0.055 6.96 4.81 12.47
3/30/2021 1:30:00 PM 8.2 46.76 0.056 6.96 4.24 12.5
3/30/2021 1:45:00 PM 8.34 47.012 0.055 6.97 4.38 12.51
3/30/2021 2:00:00 PM 8.49 47.282 0.055 6.98 4.54 12.54
3/30/2021 2:15:00 PM 8.61 47.498 0.055 6.99 4.64 12.55
3/30/2021 2:30:00 PM 8.73 47.714 0.056 6.99 4.46 12.56
3/30/2021 2:45:00 PM 8.81 47.858 0.055 7 4.51 12.57
3/30/2021 3:00:00 PM 8.89 48.002 0.055 7 4.23 12.58
3/30/2021 3:15:00 PM 8.99 48.182 0.055 7.01 4.33 12.59
3/30/2021 3:30:00 PM 9.06 48.308 0.055 7.02 4.52 12.59
3/30/2021 3:45:00 PM 9.13 48.434 0.055 7.03 4.34 12.58
3/30/2021 4:00:00 PM 9.19 48.542 0.055 7.03 4.26 12.57
3/30/2021 4:15:00 PM 9.22 48.596 0.055 7.03 4.23 12.55
3/30/2021 4:30:00 PM 9.27 48.686 0.054 7.04 4.44 12.55
3/30/2021 4:45:00 PM 9.29 48.722 0.056 7.04 4.63 12.53
3/30/2021 5:00:00 PM 9.3 48.74 0.056 7.04 4.68 12.52
3/30/2021 5:15:00 PM 9.32 48.776 0.055 7.05 4.75 12.5
3/30/2021 5:30:00 PM 9.33 48.794 0.055 7.05 4.32 12.48
3/30/2021 5:45:00 PM 9.28 48.704 0.056 7.06 4.38 12.45
3/30/2021 6:00:00 PM 9.21 48.578 0.056 7.06 4.29 12.42
3/30/2021 6:15:00 PM 9.14 48.452 0.056 7.05 4.14 12.4
3/30/2021 6:30:00 PM 9.08 48.344 0.056 7.05 4.32 12.39
3/30/2021 6:45:00 PM 9.03 48.254 0.056 7.05 4.23 12.37
3/30/2021 7:00:00 PM 8.91 48.038 0.057 7.05 4.24 12.34
3/30/2021 7:15:00 PM 8.82 47.876 0.056 7.04 4.31 12.31
3/30/2021 7:30:00 PM 8.7 47.66 0.057 7.02 4.25 12.27
3/30/2021 7:45:00 PM 8.58 47.444 0.057 7.01 4.33 12.23
3/30/2021 8:00:00 PM 8.46 47.228 0.056 7 4.49 12.19
3/30/2021 8:15:00 PM 8.36 47.048 0.056 6.99 4.32 12.15
3/30/2021 8:30:00 PM 8.29 46.922 0.054 6.96 4.4 12.12
3/30/2021 8:45:00 PM 8.19 46.742 0.057 6.94 4.51 12.09
3/30/2021 9:00:00 PM 8.12 46.616 0.057 6.93 4.49 12.06
3/30/2021 9:15:00 PM 8.05 46.49 0.057 6.92 4.4 12.03
3/30/2021 9:30:00 PM 7.97 46.346 0.057 6.9 4.37 11.99
3/30/2021 9:45:00 PM 7.92 46.256 0.057 6.88 4.47 11.96
3/30/2021 10:00:00 PM 7.82 46.076 0.058 6.88 4.34 11.92
3/30/2021 10:15:00 PM 7.78 46.004 0.058 6.85 4.48 11.89
3/30/2021 10:30:00 PM 7.71 45.878 0.057 6.85 4.31 11.85
3/30/2021 10:45:00 PM 7.67 45.806 0.057 6.83 4.54 11.81
3/30/2021 11:00:00 PM 7.63 45.734 0.057 6.83 4.59 11.78
3/30/2021 11:15:00 PM 7.61 45.698 0.058 6.81 4.51 11.75
3/30/2021 11:30:00 PM 7.56 45.608 0.058 6.8 4.54 11.72
3/30/2021 11:45:00 PM 7.54 45.572 0.058 6.81 4.71 11.69
3/31/2021 12:00:00 AM 7.55 45.59 0.058 6.8 4.46 11.67
3/31/2021 12:15:00 AM 7.51 45.518 0.058 6.8 4.41 11.65
3/31/2021 12:30:00 AM 7.47 45.446 0.058 6.79 4.4 11.63
3/31/2021 12:45:00 AM 7.45 45.41 0.058 6.79 4.39 11.62
3/31/2021 1:00:00 AM 7.44 45.392 0.058 6.79 4.45 11.6
3/31/2021 1:15:00 AM 7.42 45.356 0.058 6.79 4.35 11.59
3/31/2021 1:30:00 AM 7.4 45.32 0.058 6.78 4.29 11.57
3/31/2021 1:45:00 AM 7.38 45.284 0.058 6.77 4.41 11.56
3/31/2021 2:00:00 AM 7.36 45.248 0.058 6.79 4.44 11.54
3/31/2021 2:15:00 AM 7.33 45.194 0.059 6.77 4.39 11.53
3/31/2021 2:30:00 AM 7.32 45.176 0.058 6.78 4.27 11.53
3/31/2021 2:45:00 AM 7.3 45.14 0.058 6.78 4.32 11.53
3/31/2021 3:00:00 AM 7.29 45.122 0.058 6.77 4.52 11.5
3/31/2021 3:15:00 AM 7.28 45.104 0.058 6.78 4.72 11.49
3/31/2021 3:30:00 AM 7.26 45.068 0.058 6.77 4.47 11.48
3/31/2021 3:45:00 AM 7.23 45.014 0.058 6.77 4.41 11.49
3/31/2021 4:00:00 AM 7.23 45.014 0.058 6.76 4.43 11.46
3/31/2021 4:15:00 AM 7.21 44.978 0.058 6.78 4.45 11.46
3/31/2021 4:30:00 AM 7.2 44.96 0.058 6.77 4.28 11.45
3/31/2021 4:45:00 AM 7.19 44.942 0.058 6.76 4.61 11.44
3/31/2021 5:00:00 AM 7.18 44.924 0.058 6.77 4.35 11.44
3/31/2021 5:15:00 AM 7.17 44.906 0.058 6.76 4.25 11.43
3/31/2021 5:30:00 AM 7.16 44.888 0.058 6.76 4.3 11.43
3/31/2021 5:45:00 AM 7.15 44.87 0.058 6.76 4.51 11.41
3/31/2021 6:00:00 AM 7.14 44.852 0.058 6.75 4.39 11.44
3/31/2021 6:15:00 AM 7.14 44.852 0.058 6.76 4.67 11.4
3/31/2021 6:30:00 AM 7.13 44.834 0.058 6.76 4.42 11.41
3/31/2021 6:45:00 AM 7.12 44.816 0.058 6.76 4.6 11.4
3/31/2021 7:00:00 AM 7.12 44.816 0.058 6.75 4.46 11.38
3/31/2021 7:15:00 AM 7.12 44.816 0.058 6.76 4.43 11.37
3/31/2021 7:30:00 AM 7.12 44.816 0.058 6.75 4.37 11.36
3/31/2021 7:45:00 AM 7.13 44.834 0.058 6.76 4.43 11.39
3/31/2021 8:00:00 AM 7.13 44.834 0.058 6.76 4.38 11.41
3/31/2021 8:15:00 AM 7.15 44.87 0.058 6.76 4.3 11.4
3/31/2021 8:30:00 AM 7.17 44.906 0.058 6.76 4.25 11.42
3/31/2021 8:45:00 AM 7.2 44.96 0.058 6.77 4.5 11.42
3/31/2021 9:00:00 AM 7.22 44.996 0.058 6.78 4.25 11.45
3/31/2021 9:15:00 AM 7.26 45.068 0.059 6.79 4.03 11.48
3/31/2021 9:30:00 AM 7.3 45.14 0.058 6.79 4.13 11.53
3/31/2021 9:45:00 AM 7.34 45.212 0.058 6.8 4.06 11.57
3/31/2021 10:00:00 AM 7.39 45.302 0.059 6.81 3.93 11.6
3/31/2021 10:15:00 AM 7.43 45.374 0.059 6.82 4.04 11.65
3/31/2021 10:30:00 AM 7.48 45.464 0.059 6.83 4.18 11.67
3/31/2021 10:45:00 AM 7.53 45.554 0.059 6.84 3.92 11.74
3/31/2021 11:00:00 AM 7.58 45.644 0.059 6.85 3.92 11.79
3/31/2021 11:15:00 AM 7.63 45.734 0.058 6.86 3.94 11.83
3/31/2021 11:30:00 AM 7.69 45.842 0.059 6.86 4.03 11.88
3/31/2021 11:45:00 AM 7.76 45.968 0.059 6.87 4.16 11.93
3/31/2021 12:00:00 PM 7.8 46.04 0.059 6.89 3.69 11.97
3/31/2021 12:15:00 PM 7.85 46.13 0.059 6.9 3.75 12.01
3/31/2021 12:30:00 PM 7.89 46.202 0.059 6.92 3.84 12.05
3/31/2021 12:45:00 PM 7.92 46.256 0.059 6.93 3.72 12.07
3/31/2021 1:00:00 PM 7.95 46.31 0.058 6.94 3.86 12.09
3/31/2021 1:15:00 PM 7.98 46.364 0.058 6.93 3.98 12.11
3/31/2021 1:30:00 PM 8 46.4 0.059 6.94 3.72 12.15
3/31/2021 1:45:00 PM 8.04 46.472 0.059 6.96 3.72 12.16
3/31/2021 2:00:00 PM 8.07 46.526 0.059 6.96 3.66 12.18
3/31/2021 2:15:00 PM 8.11 46.598 0.059 6.97 3.7 12.18
3/31/2021 2:30:00 PM 8.15 46.67 0.059 6.98 3.83 12.2
3/31/2021 2:45:00 PM 8.2 46.76 0.059 6.98 3.86 12.2
3/31/2021 3:00:00 PM 8.23 46.814 0.059 6.99 3.86 12.21
3/31/2021 3:15:00 PM 8.26 46.868 0.059 6.99 3.79 12.22
3/31/2021 3:30:00 PM 8.29 46.922 0.059 7 4.41 12.23
3/31/2021 3:45:00 PM 8.3 46.94 0.059 7.01 3.73 12.22
3/31/2021 4:00:00 PM 8.31 46.958 0.059 7.01 3.8 12.23
3/31/2021 4:15:00 PM 8.31 46.958 0.059 7.01 3.81 12.23
3/31/2021 4:30:00 PM 8.32 46.976 0.059 7.01 3.76 12.24
3/31/2021 4:45:00 PM 8.33 46.994 0.059 7.01 3.75 12.23
3/31/2021 5:00:00 PM 8.33 46.994 0.059 7.01 3.72 12.21
3/31/2021 5:15:00 PM 8.34 47.012 0.059 7.01 3.82 12.2
3/31/2021 5:30:00 PM 8.35 47.03 0.059 7.01 3.76 12.18
3/31/2021 5:45:00 PM 8.33 46.994 0.059 7 3.83 12.14
3/31/2021 6:00:00 PM 8.32 46.976 0.059 6.99 3.72 12.1
3/31/2021 6:15:00 PM 8.32 46.976 0.059 6.98 3.77 12.06
3/31/2021 6:30:00 PM 8.3 46.94 0.059 6.97 3.68 12.02
3/31/2021 6:45:00 PM 8.29 46.922 0.059 6.96 3.77 11.97
3/31/2021 7:00:00 PM 8.29 46.922 0.06 6.96 3.71 11.93
3/31/2021 7:15:00 PM 8.28 46.904 0.059 6.94 3.75 11.88
3/31/2021 7:30:00 PM 8.27 46.886 0.06 6.93 3.78 11.83
3/31/2021 7:45:00 PM 8.26 46.868 0.059 6.93 3.78 11.79
3/31/2021 8:00:00 PM 8.24 46.832 0.059 6.91 3.8 11.73
3/31/2021 8:15:00 PM 8.24 46.832 0.06 6.91 3.86 11.69
3/31/2021 8:30:00 PM 8.24 46.832 0.06 6.9 3.77 11.66
3/31/2021 8:45:00 PM 8.24 46.832 0.059 6.88 3.88 11.6
3/31/2021 9:00:00 PM 8.23 46.814 0.059 6.87 3.93 11.56
3/31/2021 9:15:00 PM 8.24 46.832 0.059 6.86 3.85 11.52
3/31/2021 9:30:00 PM 8.22 46.796 0.059 6.86 3.86 11.48
3/31/2021 9:45:00 PM 8.22 46.796 0.06 6.85 4.04 11.44
3/31/2021 10:00:00 PM 8.17 46.706 0.06 6.85 4.02 11.41
3/31/2021 10:15:00 PM 8.13 46.634 0.06 6.84 3.95 11.37
3/31/2021 10:30:00 PM 8.08 46.544 0.061 6.85 4 11.34
3/31/2021 10:45:00 PM 8.03 46.454 0.06 6.83 4.34 11.31
3/31/2021 11:00:00 PM 8.01 46.418 0.06 6.83 4.43 11.28
3/31/2021 11:15:00 PM 7.99 46.382 0.06 6.82 4.38 11.26
3/31/2021 11:30:00 PM 7.94 46.292 0.06 6.82 4.12 11.24
3/31/2021 11:45:00 PM 7.9 46.22 0.061 6.81 4.11 11.21
4/1/2021 12:00:00 AM 7.86 46.148 0.06 6.81 4.28 11.19
4/1/2021 12:15:00 AM 7.82 46.076 0.061 6.8 4.15 11.19
4/1/2021 12:30:00 AM 7.79 46.022 0.061 6.79 4.23 11.17
4/1/2021 12:45:00 AM 7.75 45.95 0.06 6.8 4.02 11.17
4/1/2021 1:00:00 AM 7.71 45.878 0.061 6.8 4.23 11.16
4/1/2021 1:15:00 AM 7.68 45.824 0.06 6.79 4.29 11.15
4/1/2021 1:30:00 AM 7.64 45.752 0.06 6.78 4.29 11.15
4/1/2021 1:45:00 AM 7.61 45.698 0.06 6.78 4.34 11.14
4/1/2021 2:00:00 AM 7.58 45.644 0.061 6.78 4.08 11.14
4/1/2021 2:15:00 AM 7.55 45.59 0.061 6.78 4.21 11.13
4/1/2021 2:30:00 AM 7.5 45.5 0.061 6.78 4.17 11.13
4/1/2021 2:45:00 AM 7.46 45.428 0.061 6.78 4.33 11.13
4/1/2021 3:00:00 AM 7.43 45.374 0.061 6.78 4.31 11.12
4/1/2021 3:15:00 AM 7.39 45.302 0.061 6.78 4.37 11.1
4/1/2021 3:30:00 AM 7.36 45.248 0.06 6.77 4.33 11.11
4/1/2021 3:45:00 AM 7.33 45.194 0.06 6.77 4.65 11.09
4/1/2021 4:00:00 AM 7.29 45.122 0.06 6.77 4.95 11.08
4/1/2021 4:15:00 AM 7.26 45.068 0.06 6.76 4.65 11.07
4/1/2021 4:30:00 AM 7.2 44.96 0.06 6.77 4.39 11.06
4/1/2021 4:45:00 AM 7.16 44.888 0.06 6.76 4.26 11.06
4/1/2021 5:00:00 AM 7.09 44.762 0.06 6.76 4.16 11.07
4/1/2021 5:15:00 AM 7.03 44.654 0.059 6.76 4.02 11.08
4/1/2021 5:30:00 AM 6.95 44.51 0.059 6.78 8.5 11.08
4/1/2021 5:45:00 AM 6.9 44.42 0.059 6.77 4.72 11.08
4/1/2021 6:00:00 AM 6.86 44.348 0.059 6.76 5.16 11.08
4/1/2021 6:15:00 AM 6.79 44.222 0.059 6.75 5.73 11.06
4/1/2021 6:30:00 AM 6.75 44.15 0.058 6.74 6.21 11.06
4/1/2021 6:45:00 AM 6.72 44.096 0.058 6.74 4.74 11.06
4/1/2021 7:00:00 AM 6.68 44.024 0.058 6.73 4.72 11.06
4/1/2021 7:15:00 AM 6.64 43.952 0.058 6.73 4.07 11.07
4/1/2021 7:30:00 AM 6.6 43.88 0.057 6.72 5.68 11.07
4/1/2021 7:45:00 AM 6.52 43.736 0.057 6.72 5.7 11.07
4/1/2021 8:00:00 AM 6.47 43.646 0.057 6.71 3.99 11.09
4/1/2021 8:15:00 AM 6.42 43.556 0.057 6.71 4.9 11.1
4/1/2021 8:30:00 AM 6.38 43.484 0.057 6.71 4.92 11.13
4/1/2021 8:45:00 AM 6.33 43.394 0.057 6.71 4.75 11.16
4/1/2021 9:00:00 AM 6.32 43.376 0.057 6.71 5.6 11.21
4/1/2021 9:15:00 AM 6.3 43.34 0.057 6.72 4.55 11.24
4/1/2021 9:30:00 AM 6.29 43.322 0.057 6.74 5.18 11.29
4/1/2021 9:45:00 AM 6.28 43.304 0.057 6.73 5.62 11.34
4/1/2021 10:00:00 AM 6.3 43.34 0.058 6.74 7.89 11.39
4/1/2021 10:15:00 AM 6.32 43.376 0.058 6.76 6.99 11.47
4/1/2021 10:30:00 AM 6.34 43.412 0.057 6.77 5.59 11.53
4/1/2021 10:45:00 AM 6.38 43.484 0.057 6.79 4.87 11.61
4/1/2021 11:00:00 AM 6.44 43.592 0.057 6.81 6.47 11.67
4/1/2021 11:15:00 AM 6.48 43.664 0.058 6.83 8.53 11.74
4/1/2021 11:30:00 AM 6.55 43.79 0.057 6.84 7.02 11.81
4/1/2021 11:45:00 AM 6.67 44.006 0.057 6.86 5.03 11.88
4/1/2021 12:00:00 PM 6.8 44.24 0.058 6.88 9.29 11.94
4/1/2021 12:15:00 PM 6.91 44.438 0.058 6.89 4.52 12
4/1/2021 12:30:00 PM 7.06 44.708 0.057 6.91 4.34 12.06
4/1/2021 12:45:00 PM 7.18 44.924 0.057 6.93 6.64 12.11
4/1/2021 1:00:00 PM 7.31 45.158 0.057 6.94 6.17 12.16
4/1/2021 1:15:00 PM 7.4 45.32 0.057 6.96 5.06 12.22
4/1/2021 1:30:00 PM 7.47 45.446 0.058 6.98 6.01 12.27
4/1/2021 1:45:00 PM 7.53 45.554 0.057 6.98 5.46 12.31
4/1/2021 2:00:00 PM 7.61 45.698 0.057 6.99 6.47 12.35
4/1/2021 2:15:00 PM 7.66 45.788 0.057 7 8.77 12.38
4/1/2021 2:30:00 PM 7.69 45.842 0.058 7.01 10.26 12.39
4/1/2021 2:45:00 PM 7.77 45.986 0.058 7.02 4.23 12.4
4/1/2021 3:00:00 PM 7.78 46.004 0.058 7.04 4 12.41
4/1/2021 3:15:00 PM 7.75 45.95 0.058 7.05 4.89 12.42
4/1/2021 3:30:00 PM 7.72 45.896 0.059 7.05 6.42 12.41
4/1/2021 3:45:00 PM 7.74 45.932 0.059 7.06 6.21 12.42
4/1/2021 4:00:00 PM 7.72 45.896 0.06 7.06 3.98 12.42
4/1/2021 4:15:00 PM 7.72 45.896 0.06 7.07 4.32 12.43
4/1/2021 4:30:00 PM 7.7 45.86 0.06 7.08 3.97 12.43
4/1/2021 4:45:00 PM 7.66 45.788 0.06 7.07 4.47 12.44
4/1/2021 5:00:00 PM 7.61 45.698 0.06 7.07 8.43 12.44
4/1/2021 5:15:00 PM 7.55 45.59 0.06 7.08 4.5 12.44
4/1/2021 5:30:00 PM 7.49 45.482 0.06 7.08 5.67 12.44
4/1/2021 5:45:00 PM 7.44 45.392 0.06 7.08 4.77 12.42
4/1/2021 6:00:00 PM 7.38 45.284 0.06 7.08 4.58 12.41
4/1/2021 6:15:00 PM 7.33 45.194 0.06 7.08 8.29 12.38
4/1/2021 6:30:00 PM 7.27 45.086 0.06 7.08 5.6 12.36
4/1/2021 6:45:00 PM 7.2 44.96 0.06 7.08 4.63 12.32
4/1/2021 7:00:00 PM 7.12 44.816 0.06 7.07 4.75 12.3
4/1/2021 7:15:00 PM 7.05 44.69 0.06 7.07 4.08 12.28
4/1/2021 7:30:00 PM 6.98 44.564 0.06 7.05 4.95 12.23
4/1/2021 7:45:00 PM 6.91 44.438 0.061 7.05 5.36 12.18
4/1/2021 8:00:00 PM 6.84 44.312 0.061 7.02 5.45 12.14
4/1/2021 8:15:00 PM 6.8 44.24 0.061 7.03 7.14 12.1
4/1/2021 8:30:00 PM 6.73 44.114 0.061 7.01 4.92 12.06
4/1/2021 8:45:00 PM 6.65 43.97 0.061 6.99 4.98 12.02
4/1/2021 9:00:00 PM 6.59 43.862 0.061 7 6.71 11.98
4/1/2021 9:15:00 PM 6.5 43.7 0.061 6.97 7.1 11.94
4/1/2021 9:30:00 PM 6.44 43.592 0.061 6.96 5.45 11.91
4/1/2021 9:45:00 PM 6.34 43.412 0.062 6.95 5.78 11.88
4/1/2021 10:00:00 PM 6.27 43.286 0.062 6.94 6.71 11.86
4/1/2021 10:15:00 PM 6.21 43.178 0.062 6.94 6.15 11.84
4/1/2021 10:30:00 PM 6.15 43.07 0.062 6.93 5.85 11.83
4/1/2021 10:45:00 PM 6.08 42.944 0.062 6.93 6.26 11.81
4/1/2021 11:00:00 PM 5.99 42.782 0.061 6.92 5.97 11.81
4/1/2021 11:15:00 PM 5.91 42.638 0.062 6.9 5.62 11.8
4/1/2021 11:30:00 PM 5.82 42.476 0.062 6.91 5.23 11.79
4/1/2021 11:45:00 PM 5.75 42.35 0.062 6.91 8.92 11.78
4/2/2021 12:00:00 AM 5.68 42.224 0.062 6.9 7.44 11.77
4/2/2021 12:15:00 AM 5.6 42.08 0.062 6.9 8.27 11.76
4/2/2021 12:30:00 AM 5.56 42.008 0.062 6.89 6.13 11.78
4/2/2021 12:45:00 AM 5.48 41.864 0.062 6.89 6.52 11.77
4/2/2021 1:00:00 AM 5.42 41.756 0.062 6.88 10.3 11.78
4/2/2021 1:15:00 AM 5.33 41.594 0.062 6.89 9.58 11.79
4/2/2021 1:30:00 AM 5.25 41.45 0.062 6.88 7.12 11.79
4/2/2021 1:45:00 AM 5.17 41.306 0.062 6.87 6.78 11.79
4/2/2021 2:00:00 AM 5.1 41.18 0.063 6.88 3.82 11.8
4/2/2021 2:15:00 AM 5.06 41.108 0.064 6.87 3.65 11.8
4/2/2021 2:30:00 AM 5.04 41.072 0.063 6.87 3.74 11.79
4/2/2021 2:45:00 AM 5.04 41.072 0.064 6.87 3.76 11.8
4/2/2021 3:00:00 AM 5.02 41.036 0.063 6.87 3.89 11.81
4/2/2021 3:15:00 AM 4.92 40.856 0.064 6.87 4.21 11.81
4/2/2021 3:30:00 AM 4.83 40.694 0.063 6.87 4.47 11.82
4/2/2021 3:45:00 AM 4.72 40.496 0.063 6.87 4.72 11.83
4/2/2021 4:00:00 AM 4.61 40.298 0.063 6.86 4.52 11.86
4/2/2021 4:15:00 AM 4.54 40.172 0.064 6.86 3.99 11.88
4/2/2021 4:30:00 AM 4.48 40.064 0.064 6.87 3.91 11.89
4/2/2021 4:45:00 AM 4.45 40.01 0.064 6.88 3.76 11.9
4/2/2021 5:00:00 AM 4.4 39.92 0.064 6.88 3.69 11.91
4/2/2021 5:15:00 AM 4.38 39.884 0.065 6.89 3.76 11.91
4/2/2021 5:30:00 AM 4.31 39.758 0.065 6.89 4.03 11.93
4/2/2021 5:45:00 AM 4.22 39.596 0.065 6.89 3.86 11.96
4/2/2021 6:00:00 AM 4.12 39.416 0.064 6.88 3.62 11.99
4/2/2021 6:15:00 AM 4 39.2 0.064 6.89 3.62 12.01
4/2/2021 6:30:00 AM 3.96 39.128 0.065 6.88 3.62 12.04
4/2/2021 6:45:00 AM 3.93 39.074 0.065 6.88 3.58 12.04
4/2/2021 7:00:00 AM 3.89 39.002 0.066 6.89 3.72 12.05
4/2/2021 7:15:00 AM 3.88 38.984 0.065 6.88 3.56 12.07
4/2/2021 7:30:00 AM 3.84 38.912 0.065 6.89 3.63 12.07
4/2/2021 7:45:00 AM 3.79 38.822 0.065 6.89 3.66 12.08
4/2/2021 8:00:00 AM 3.78 38.804 0.066 6.89 3.63 12.11
4/2/2021 8:15:00 AM 3.71 38.678 0.065 6.9 3.65 12.14
4/2/2021 8:30:00 AM 3.68 38.624 0.065 6.9 3.59 12.16
4/2/2021 8:45:00 AM 3.67 38.606 0.065 6.91 3.62 12.21
4/2/2021 9:00:00 AM 3.62 38.516 0.065 6.92 3.64 12.25
4/2/2021 9:15:00 AM 3.61 38.498 0.065 6.93 3.64 12.3
4/2/2021 9:30:00 AM 3.74 38.732 0.065 6.94 3.63 12.37
4/2/2021 9:45:00 AM 3.8 38.84 0.065 6.95 3.65 12.41
4/2/2021 10:00:00 AM 3.94 39.092 0.064 6.97 3.78 12.45
4/2/2021 10:15:00 AM 4.05 39.29 0.064 6.99 3.66 12.48
4/2/2021 10:30:00 AM 4.11 39.398 0.064 7.01 3.78 12.52
4/2/2021 10:45:00 AM 4.2 39.56 0.064 7.02 3.64 12.57
4/2/2021 11:00:00 AM 4.27 39.686 0.064 7.04 3.7 12.63
4/2/2021 11:15:00 AM 4.32 39.776 0.064 7.05 3.64 12.67
4/2/2021 11:30:00 AM 4.32 39.776 0.064 7.06 3.67 12.73
4/2/2021 11:45:00 AM 4.3 39.74 0.064 7.08 3.61 12.79
4/2/2021 12:00:00 PM 4.34 39.812 0.063 7.08 3.6 12.85
4/2/2021 12:15:00 PM 4.35 39.83 0.063 7.08 3.54 12.9
4/2/2021 12:30:00 PM 4.38 39.884 0.063 7.09 3.54 12.96
4/2/2021 12:45:00 PM 4.44 39.992 0.063 7.1 3.56 13.02
4/2/2021 1:00:00 PM 4.48 40.064 0.063 7.1 3.44 13.08
4/2/2021 1:15:00 PM 4.48 40.064 0.062 7.1 3.44 13.14
4/2/2021 1:30:00 PM 4.55 40.19 0.062 7.1 3.45 13.18
4/2/2021 1:45:00 PM 4.58 40.244 0.062 7.12 3.34 13.22
4/2/2021 2:00:00 PM 4.7 40.46 0.062 7.12 3.36 13.24
4/2/2021 2:15:00 PM 4.86 40.748 0.062 7.12 3.43 13.26
4/2/2021 2:30:00 PM 4.98 40.964 0.063 7.14 3.38 13.26
4/2/2021 2:45:00 PM 5.19 41.342 0.062 7.15 3.44 13.23
4/2/2021 3:00:00 PM 5.35 41.63 0.062 7.17 3.42 13.23
4/2/2021 3:15:00 PM 5.5 41.9 0.061 7.18 3.38 13.21
4/2/2021 3:30:00 PM 5.59 42.062 0.062 7.19 3.34 13.2
4/2/2021 3:45:00 PM 5.68 42.224 0.061 7.2 3.37 13.2
4/2/2021 4:00:00 PM 5.7 42.26 0.062 7.2 3.42 13.19
4/2/2021 4:15:00 PM 5.73 42.314 0.062 7.22 3.5 13.19
4/2/2021 4:30:00 PM 5.74 42.332 0.062 7.21 3.48 13.17
4/2/2021 4:45:00 PM 5.71 42.278 0.062 7.22 3.49 13.17
4/2/2021 5:00:00 PM 5.72 42.296 0.062 7.22 3.48 13.18
4/2/2021 5:15:00 PM 5.68 42.224 0.063 7.22 3.48 13.17
4/2/2021 5:30:00 PM 5.65 42.17 0.062 7.23 3.64 13.17
4/2/2021 5:45:00 PM 5.64 42.152 0.063 7.23 3.53 13.15
4/2/2021 6:00:00 PM 5.59 42.062 0.063 7.22 3.47 13.12
4/2/2021 6:15:00 PM 5.6 42.08 0.063 7.23 3.5 13.11
4/2/2021 6:30:00 PM 5.54 41.972 0.063 7.23 3.43 13.08
4/2/2021 6:45:00 PM 5.47 41.846 0.063 7.23 3.47 13.06
4/2/2021 7:00:00 PM 5.41 41.738 0.063 7.23 3.4 13.04
4/2/2021 7:15:00 PM 5.33 41.594 0.063 7.23 3.34 13
4/2/2021 7:30:00 PM 5.24 41.432 0.063 7.22 3.34 12.96
4/2/2021 7:45:00 PM 5.15 41.27 0.062 7.22 3.39 12.93
4/2/2021 8:00:00 PM 5.05 41.09 0.063 7.2 4.35 12.88
4/2/2021 8:15:00 PM 4.96 40.928 0.063 7.18 3.81 12.84
4/2/2021 8:30:00 PM 4.89 40.802 0.063 7.17 3.63 12.8
4/2/2021 8:45:00 PM 4.82 40.676 0.063 7.16 3.55 12.76
4/2/2021 9:00:00 PM 4.76 40.568 0.063 7.14 3.43 12.72
4/2/2021 9:15:00 PM 4.7 40.46 0.063 7.13 3.34 12.69
4/2/2021 9:30:00 PM 4.65 40.37 0.063 7.11 3.41 12.65
4/2/2021 9:45:00 PM 4.6 40.28 0.063 7.1 3.37 12.62
4/2/2021 10:00:00 PM 4.57 40.226 0.063 7.1 3.43 12.59
4/2/2021 10:15:00 PM 4.53 40.154 0.063 7.08 3.47 12.56
4/2/2021 10:30:00 PM 4.5 40.1 0.063 7.07 3.43 12.53
4/2/2021 10:45:00 PM 4.46 40.028 0.064 7.06 3.38 12.51
4/2/2021 11:00:00 PM 4.43 39.974 0.064 7.05 3.62 12.48
4/2/2021 11:15:00 PM 4.4 39.92 0.064 7.04 3.76 12.45
4/2/2021 11:30:00 PM 4.35 39.83 0.063 7.04 3.68 12.44
4/2/2021 11:45:00 PM 4.31 39.758 0.064 7.04 3.71 12.43
4/3/2021 12:00:00 AM 4.26 39.668 0.064 7.03 3.89 12.42
4/3/2021 12:15:00 AM 4.21 39.578 0.063 7.02 4.17 12.42
4/3/2021 12:30:00 AM 4.14 39.452 0.064 7.01 3.75 12.42
4/3/2021 12:45:00 AM 4.09 39.362 0.064 7.01 3.77 12.42
4/3/2021 1:00:00 AM 4.03 39.254 0.064 7.01 3.71 12.41
4/3/2021 1:15:00 AM 4 39.2 0.064 6.99 3.94 12.41
4/3/2021 1:30:00 AM 3.97 39.146 0.064 6.99 3.68 12.4
4/3/2021 1:45:00 AM 3.93 39.074 0.064 7 3.88 12.38
4/3/2021 2:00:00 AM 3.92 39.056 0.064 7 3.98 12.38
4/3/2021 2:15:00 AM 3.9 39.02 0.064 6.98 4 12.36
4/3/2021 2:30:00 AM 3.91 39.038 0.064 6.99 3.95 12.35
4/3/2021 2:45:00 AM 3.9 39.02 0.064 6.98 3.89 12.33
4/3/2021 3:00:00 AM 3.9 39.02 0.064 6.99 3.93 12.32
4/3/2021 3:15:00 AM 3.89 39.002 0.064 6.97 4.02 12.3
4/3/2021 3:30:00 AM 3.91 39.038 0.064 6.98 3.87 12.28
4/3/2021 3:45:00 AM 3.93 39.074 0.064 6.97 3.89 12.27
4/3/2021 4:00:00 AM 3.92 39.056 0.064 6.97 3.96 12.26
4/3/2021 4:15:00 AM 3.92 39.056 0.064 6.97 3.88 12.25
4/3/2021 4:30:00 AM 3.88 38.984 0.065 6.97 3.97 12.23
4/3/2021 4:45:00 AM 3.9 39.02 0.064 6.97 3.91 12.22
4/3/2021 5:00:00 AM 3.91 39.038 0.064 6.96 10.92 12.21
4/3/2021 5:15:00 AM 3.92 39.056 0.064 6.97 3.96 12.2
4/3/2021 5:30:00 AM 3.93 39.074 0.064 6.97 4.15 12.2
4/3/2021 5:45:00 AM 3.92 39.056 0.064 6.97 4.11 12.19
4/3/2021 6:00:00 AM 3.9 39.02 0.064 6.96 4.05 12.19
4/3/2021 6:15:00 AM 3.89 39.002 0.064 6.97 4.07 12.18
4/3/2021 6:30:00 AM 3.89 39.002 0.064 6.97 4 12.17
4/3/2021 6:45:00 AM 3.87 38.966 0.064 6.97 3.96 12.17
4/3/2021 7:00:00 AM 3.85 38.93 0.064 6.96 3.97 12.16
4/3/2021 7:15:00 AM 3.82 38.876 0.064 6.96 4.07 12.16
4/3/2021 7:30:00 AM 3.84 38.912 0.064 6.96 3.85 12.17
4/3/2021 7:45:00 AM 3.83 38.894 0.065 6.97 3.82 12.19
4/3/2021 8:00:00 AM 3.81 38.858 0.064 6.97 3.91 12.21
4/3/2021 8:15:00 AM 3.79 38.822 0.064 6.97 3.94 12.22
4/3/2021 8:30:00 AM 3.76 38.768 0.064 6.96 3.9 12.25
4/3/2021 8:45:00 AM 3.78 38.804 0.064 6.97 3.92 12.29
4/3/2021 9:00:00 AM 3.81 38.858 0.064 6.98 3.88 12.34
4/3/2021 9:15:00 AM 3.86 38.948 0.064 6.98 3.75 12.41
4/3/2021 9:30:00 AM 3.92 39.056 0.064 6.99 3.8 12.47
4/3/2021 9:45:00 AM 3.96 39.128 0.064 7.01 3.83 12.52
4/3/2021 10:00:00 AM 4.05 39.29 0.064 7.02 3.73 12.58
4/3/2021 10:15:00 AM 4.15 39.47 0.064 7.02 3.69 12.61
4/3/2021 10:30:00 AM 4.28 39.704 0.064 7.03 3.69 12.67
4/3/2021 10:45:00 AM 4.41 39.938 0.064 7.04 3.78 12.72
4/3/2021 11:00:00 AM 4.53 40.154 0.063 7.05 3.64 12.76
4/3/2021 11:15:00 AM 4.66 40.388 0.063 7.05 3.72 12.8
4/3/2021 11:30:00 AM 4.78 40.604 0.063 7.07 3.68 12.85
4/3/2021 11:45:00 AM 4.92 40.856 0.063 7.07 3.74 12.89
4/3/2021 12:00:00 PM 5.08 41.144 0.064 7.08 3.58 12.91
4/3/2021 12:15:00 PM 5.22 41.396 0.063 7.09 3.49 12.95
4/3/2021 12:30:00 PM 5.34 41.612 0.063 7.1 3.55 13
4/3/2021 12:45:00 PM 5.52 41.936 0.063 7.1 3.48 13.04
4/3/2021 1:00:00 PM 5.69 42.242 0.063 7.12 3.43 13.05
4/3/2021 1:15:00 PM 5.87 42.566 0.063 7.12 3.54 13.07
4/3/2021 1:30:00 PM 6.02 42.836 0.062 7.13 3.47 13.1
4/3/2021 1:45:00 PM 6.22 43.196 0.063 7.14 3.49 13.11
4/3/2021 2:00:00 PM 6.4 43.52 0.063 7.15 3.44 13.14
4/3/2021 2:15:00 PM 6.52 43.736 0.063 7.15 3.45 13.16
4/3/2021 2:30:00 PM 6.64 43.952 0.062 7.16 3.44 13.18
4/3/2021 2:45:00 PM 6.76 44.168 0.063 7.16 3.35 13.2
4/3/2021 3:00:00 PM 6.93 44.474 0.062 7.16 3.39 13.22
4/3/2021 3:15:00 PM 6.95 44.51 0.063 7.16 3.38 13.25
4/3/2021 3:30:00 PM 6.95 44.51 0.063 7.17 3.37 13.28
4/3/2021 3:45:00 PM 7.02 44.636 0.062 7.17 3.37 13.31
4/3/2021 4:00:00 PM 7.03 44.654 0.062 7.17 3.5 13.34
4/3/2021 4:15:00 PM 7.05 44.69 0.062 7.17 3.26 13.37
4/3/2021 4:30:00 PM 7.01 44.618 0.062 7.16 3.28 13.39
4/3/2021 4:45:00 PM 6.99 44.582 0.062 7.16 3.31 13.4
4/3/2021 5:00:00 PM 6.94 44.492 0.062 7.16 3.2 13.42
4/3/2021 5:15:00 PM 6.83 44.294 0.062 7.16 3.47 13.42
4/3/2021 5:30:00 PM 6.73 44.114 0.062 7.17 3.19 13.44
4/3/2021 5:45:00 PM 6.63 43.934 0.062 7.17 3.4 13.44
4/3/2021 6:00:00 PM 6.52 43.736 0.062 7.18 3.22 13.44
4/3/2021 6:15:00 PM 6.49 43.682 0.062 7.17 3.23 13.42
4/3/2021 6:30:00 PM 6.43 43.574 0.062 7.18 3.24 13.39
4/3/2021 6:45:00 PM 6.37 43.466 0.062 7.17 3.22 13.36
4/3/2021 7:00:00 PM 6.33 43.394 0.062 7.18 3.23 13.33
4/3/2021 7:15:00 PM 6.31 43.358 0.062 7.17 3.33 13.29
4/3/2021 7:30:00 PM 6.29 43.322 0.063 7.16 3.29 13.25
4/3/2021 7:45:00 PM 6.25 43.25 0.063 7.17 3.19 13.18
4/3/2021 8:00:00 PM 6.26 43.268 0.063 7.16 3.39 13.13
4/3/2021 8:15:00 PM 6.25 43.25 0.063 7.15 3.4 13.05
4/3/2021 8:30:00 PM 6.25 43.25 0.063 7.15 3.38 13
4/3/2021 8:45:00 PM 6.2 43.16 0.063 7.14 3.4 12.92
4/3/2021 9:00:00 PM 6.19 43.142 0.063 7.14 3.46 12.85
4/3/2021 9:15:00 PM 6.17 43.106 0.064 7.12 3.53 12.78
4/3/2021 9:30:00 PM 6.17 43.106 0.064 7.11 3.66 12.73
4/3/2021 9:45:00 PM 6.13 43.034 0.064 7.09 3.65 12.65
4/3/2021 10:00:00 PM 6.12 43.016 0.064 7.08 3.92 12.58
4/3/2021 10:15:00 PM 6.1 42.98 0.064 7.07 3.58 12.53
4/3/2021 10:30:00 PM 6.09 42.962 0.064 7.06 3.61 12.46
4/3/2021 10:45:00 PM 6.07 42.926 0.064 7.05 3.61 12.37
4/3/2021 11:00:00 PM 6.07 42.926 0.064 7.04 3.71 12.34
4/3/2021 11:15:00 PM 6.05 42.89 0.064 7.04 3.55 12.28
4/3/2021 11:30:00 PM 6.05 42.89 0.064 7.03 3.58 12.26
4/3/2021 11:45:00 PM 6.04 42.872 0.064 7.02 3.62 12.2
4/4/2021 12:00:00 AM 6.04 42.872 0.064 7.01 3.56 12.19
4/4/2021 12:15:00 AM 6.01 42.818 0.064 7 3.47 12.15
4/4/2021 12:30:00 AM 5.98 42.764 0.064 7.01 3.67 12.13
4/4/2021 12:45:00 AM 5.97 42.746 0.064 7 3.86 12.12
4/4/2021 1:00:00 AM 5.93 42.674 0.064 6.99 3.73 12.08
4/4/2021 1:15:00 AM 5.9 42.62 0.064 6.99 3.75 12.07
4/4/2021 1:30:00 AM 5.87 42.566 0.064 6.98 3.63 12.06
4/4/2021 1:45:00 AM 5.85 42.53 0.064 6.98 3.64 12.04
4/4/2021 2:00:00 AM 5.82 42.476 0.064 6.97 3.75 12.04
4/4/2021 2:15:00 AM 5.8 42.44 0.064 6.97 3.72 12.03
4/4/2021 2:30:00 AM 5.79 42.422 0.064 6.97 3.73 12.03
4/4/2021 2:45:00 AM 5.75 42.35 0.064 6.96 3.69 12.01
4/4/2021 3:00:00 AM 5.72 42.296 0.064 6.96 4.09 12
4/4/2021 3:15:00 AM 5.69 42.242 0.064 6.96 3.62 11.99
4/4/2021 3:30:00 AM 5.66 42.188 0.064 6.95 3.57 11.98
4/4/2021 3:45:00 AM 5.64 42.152 0.064 6.95 3.89 11.98
4/4/2021 4:00:00 AM 5.62 42.116 0.064 6.94 3.76 11.96
4/4/2021 4:15:00 AM 5.6 42.08 0.064 6.95 3.82 11.95
4/4/2021 4:30:00 AM 5.58 42.044 0.064 6.94 3.68 11.95
4/4/2021 4:45:00 AM 5.57 42.026 0.064 6.94 3.69 11.95
4/4/2021 5:00:00 AM 5.56 42.008 0.064 6.94 3.9 11.94
4/4/2021 5:15:00 AM 5.55 41.99 0.064 6.93 3.85 11.93
4/4/2021 5:30:00 AM 5.54 41.972 0.064 6.93 4.07 11.91
4/4/2021 5:45:00 AM 5.53 41.954 0.065 6.93 3.8 11.89
4/4/2021 6:00:00 AM 5.53 41.954 0.065 6.92 3.88 11.89
4/4/2021 6:15:00 AM 5.53 41.954 0.064 6.92 3.86 11.88
4/4/2021 6:30:00 AM 5.52 41.936 0.064 6.92 3.82 11.87
4/4/2021 6:45:00 AM 5.51 41.918 0.065 6.92 3.95 11.87
4/4/2021 7:00:00 AM 5.5 41.9 0.064 6.93 3.83 11.87
4/4/2021 7:15:00 AM 5.49 41.882 0.065 6.92 4.22 11.88
4/4/2021 7:30:00 AM 5.49 41.882 0.064 6.92 4.09 11.87
4/4/2021 7:45:00 AM 5.48 41.864 0.065 6.92 3.81 11.88
4/4/2021 8:00:00 AM 5.48 41.864 0.065 6.92 5.25 11.87
4/4/2021 8:15:00 AM 5.48 41.864 0.065 6.91 5.66 11.88
4/4/2021 8:30:00 AM 5.48 41.864 0.064 6.91 8.78 11.89
4/4/2021 8:45:00 AM 5.49 41.882 0.065 6.91 9.21 11.91
4/4/2021 9:00:00 AM 5.51 41.918 0.065 6.92 9.54 11.93
4/4/2021 9:15:00 AM 5.56 42.008 0.065 6.92 7.52 11.99
4/4/2021 9:30:00 AM 5.62 42.116 0.065 6.93 4.83 12.02
4/4/2021 9:45:00 AM 5.69 42.242 0.065 6.93 7.28 12.09
4/4/2021 10:00:00 AM 5.78 42.404 0.065 6.94 6.09 12.13
4/4/2021 10:15:00 AM 5.9 42.62 0.065 6.96 3.93 12.2
4/4/2021 10:30:00 AM 6.03 42.854 0.064 6.96 4.46 12.24
4/4/2021 10:45:00 AM 6.15 43.07 0.065 6.98 3.45 12.29
4/4/2021 11:00:00 AM 6.28 43.304 0.065 6.99 3.48 12.32
4/4/2021 11:15:00 AM 6.41 43.538 0.064 7.01 5.53 12.36
4/4/2021 11:30:00 AM 6.58 43.844 0.064 7.02 3.78 12.41
4/4/2021 11:45:00 AM 6.74 44.132 0.064 7.03 3.27 12.49
4/4/2021 12:00:00 PM 6.89 44.402 0.064 7.05 3.18 12.55
4/4/2021 12:15:00 PM 7.03 44.654 0.064 7.06 3.27 12.59
4/4/2021 12:30:00 PM 7.24 45.032 0.064 7.07 139.4 12.6
4/4/2021 12:45:00 PM 7.41 45.338 0.064 7.08 6.29 12.64
4/4/2021 1:00:00 PM 7.56 45.608 0.064 7.09 9.21 12.67
4/4/2021 1:15:00 PM 7.73 45.914 0.064 7.1 3.62 12.7
4/4/2021 1:30:00 PM 7.97 46.346 0.064 7.11 3.21 12.72
4/4/2021 1:45:00 PM 8.09 46.562 0.064 7.13 3.3 12.76
4/4/2021 2:00:00 PM 8.27 46.886 0.063 7.14 3.15 12.78
4/4/2021 2:15:00 PM 8.43 47.174 0.064 7.16 3.2 12.8
4/4/2021 2:30:00 PM 8.56 47.408 0.064 7.17 3.15 12.82
4/4/2021 2:45:00 PM 8.61 47.498 0.064 7.18 3.16 12.84
4/4/2021 3:00:00 PM 8.77 47.786 0.064 7.2 3.16 12.85
4/4/2021 3:15:00 PM 8.87 47.966 0.063 7.21 3.06 12.86
4/4/2021 3:30:00 PM 8.98 48.164 0.064 7.22 3.34 12.86
4/4/2021 3:45:00 PM 9.08 48.344 0.064 7.24 3.26 12.86
4/4/2021 4:00:00 PM 9.13 48.434 0.064 7.25 3.41 12.85
4/4/2021 4:15:00 PM 9.14 48.452 0.063 7.24 3.3 12.83
4/4/2021 4:30:00 PM 9.14 48.452 0.064 7.25 3.41 12.81
4/4/2021 4:45:00 PM 9.13 48.434 0.063 7.25 3.21 12.8
4/4/2021 5:00:00 PM 9.14 48.452 0.063 7.26 3.26 12.78
4/4/2021 5:15:00 PM 9.03 48.254 0.064 7.26 3.38 12.76
4/4/2021 5:30:00 PM 9.03 48.254 0.063 7.25 4.21 12.74
4/4/2021 5:45:00 PM 8.99 48.182 0.063 7.26 3.29 12.7
4/4/2021 6:00:00 PM 8.94 48.092 0.063 7.25 3.8 12.68
4/4/2021 6:15:00 PM 8.9 48.02 0.063 7.25 3.29 12.65
4/4/2021 6:30:00 PM 8.8 47.84 0.063 7.26 3.15 12.63
4/4/2021 6:45:00 PM 8.74 47.732 0.063 7.25 3.17 12.6
4/4/2021 7:00:00 PM 8.66 47.588 0.063 7.24 3.14 12.57
4/4/2021 7:15:00 PM 8.52 47.336 0.063 7.23 3.14 12.54
4/4/2021 7:30:00 PM 8.38 47.084 0.063 7.21 3.29 12.51
4/4/2021 7:45:00 PM 8.26 46.868 0.063 7.19 3.2 12.46
4/4/2021 8:00:00 PM 8.21 46.778 0.063 7.17 3.2 12.42
4/4/2021 8:15:00 PM 8.07 46.526 0.063 7.17 3.24 12.37
4/4/2021 8:30:00 PM 8.03 46.454 0.063 7.14 3.61 12.31
4/4/2021 8:45:00 PM 7.93 46.274 0.063 7.12 3.58 12.24
4/4/2021 9:00:00 PM 7.87 46.166 0.063 7.1 3.59 12.17
4/4/2021 9:15:00 PM 7.8 46.04 0.063 7.09 3.3 12.09
4/4/2021 9:30:00 PM 7.76 45.968 0.063 7.06 3.63 12.03
4/4/2021 9:45:00 PM 7.7 45.86 0.063 7.05 4.71 11.96
4/4/2021 10:00:00 PM 7.66 45.788 0.063 7.04 3.46 11.89
4/4/2021 10:15:00 PM 7.64 45.752 0.063 7.02 3.64 11.82
4/4/2021 10:30:00 PM 7.64 45.752 0.063 7.01 3.56 11.75
4/4/2021 10:45:00 PM 7.64 45.752 0.063 7 3.75 11.69
4/4/2021 11:00:00 PM 7.62 45.716 0.063 7 3.64 11.65
4/4/2021 11:15:00 PM 7.6 45.68 0.064 7 3.7 11.6
4/4/2021 11:30:00 PM 7.57 45.626 0.064 6.99 4.09 11.55
4/4/2021 11:45:00 PM 7.54 45.572 0.064 6.98 4.55 11.52
4/5/2021 12:00:00 AM 7.48 45.464 0.064 6.99 3.89 11.49
4/5/2021 12:15:00 AM 7.42 45.356 0.065 6.98 3.83 11.48
4/5/2021 12:30:00 AM 7.34 45.212 0.065 6.97 3.8 11.47
4/5/2021 12:45:00 AM 7.28 45.104 0.065 6.96 3.73 11.46
4/5/2021 1:00:00 AM 7.2 44.96 0.066 6.96 4.09 11.44
4/5/2021 1:15:00 AM 7.15 44.87 0.066 6.94 4.14 11.44
4/5/2021 1:30:00 AM 7.07 44.726 0.066 6.95 3.84 11.43
4/5/2021 1:45:00 AM 7.02 44.636 0.066 6.94 3.75 11.42
4/5/2021 2:00:00 AM 6.94 44.492 0.066 6.93 4.02 11.41
4/5/2021 2:15:00 AM 6.89 44.402 0.066 6.92 4.22 11.4
4/5/2021 2:30:00 AM 6.82 44.276 0.066 6.92 4.84 11.4
4/5/2021 2:45:00 AM 6.76 44.168 0.066 6.92 5.49 11.4
4/5/2021 3:00:00 AM 6.7 44.06 0.066 6.91 4.4 11.39
4/5/2021 3:15:00 AM 6.63 43.934 0.066 6.9 4.41 11.39
4/5/2021 3:30:00 AM 6.56 43.808 0.066 6.89 4.67 11.4
4/5/2021 3:45:00 AM 6.51 43.718 0.066 6.9 4.83 11.38
4/5/2021 4:00:00 AM 6.44 43.592 0.066 6.89 6.42 11.39
4/5/2021 4:15:00 AM 6.39 43.502 0.066 6.89 6.68 11.39
4/5/2021 4:30:00 AM 6.34 43.412 0.066 6.88 5.53 11.39
4/5/2021 4:45:00 AM 6.29 43.322 0.066 6.88 5.35 11.4
4/5/2021 5:00:00 AM 6.25 43.25 0.066 6.89 6.28 11.4
4/5/2021 5:15:00 AM 6.23 43.214 0.066 6.88 5.37 11.37
4/5/2021 5:30:00 AM 6.19 43.142 0.067 6.89 6.51 11.39
4/5/2021 5:45:00 AM 6.15 43.07 0.066 6.88 3.74 11.39
4/5/2021 6:00:00 AM 6.12 43.016 0.066 6.88 3.93 11.37
4/5/2021 6:15:00 AM 6.1 42.98 0.067 6.88 4.15 11.37
4/5/2021 6:30:00 AM 6.05 42.89 0.066 6.88 4.06 11.39
4/5/2021 6:45:00 AM 6.04 42.872 0.066 6.88 3.84 11.39
4/5/2021 7:00:00 AM 6.01 42.818 0.066 6.88 3.85 11.39
4/5/2021 7:15:00 AM 5.99 42.782 0.066 6.88 3.79 11.37
4/5/2021 7:30:00 AM 5.97 42.746 0.066 6.88 3.75 11.4
4/5/2021 7:45:00 AM 5.95 42.71 0.067 6.88 3.66 11.4
4/5/2021 8:00:00 AM 5.94 42.692 0.067 6.89 3.76 11.43
4/5/2021 8:15:00 AM 5.94 42.692 0.067 6.89 3.56 11.44
4/5/2021 8:30:00 AM 5.93 42.674 0.067 6.89 3.55 11.48
4/5/2021 8:45:00 AM 5.94 42.692 0.066 6.9 3.44 11.5
4/5/2021 9:00:00 AM 5.97 42.746 0.067 6.91 3.39 11.55
4/5/2021 9:15:00 AM 6.03 42.854 0.066 6.91 3.41 11.6
4/5/2021 9:30:00 AM 6.1 42.98 0.066 6.92 3.5 11.62
4/5/2021 9:45:00 AM 6.19 43.142 0.066 6.94 3.47 11.71
4/5/2021 10:00:00 AM 6.29 43.322 0.066 6.95 3.5 11.77
4/5/2021 10:15:00 AM 6.42 43.556 0.066 6.97 3.4 11.83
4/5/2021 10:30:00 AM 6.56 43.808 0.066 6.98 3.44 11.86
4/5/2021 10:45:00 AM 6.72 44.096 0.066 7 3.52 11.93
4/5/2021 11:00:00 AM 6.87 44.366 0.066 7.03 3.47 12.01
4/5/2021 11:15:00 AM 7.02 44.636 0.066 7.06 3.37 12.1
4/5/2021 11:30:00 AM 7.19 44.942 0.066 7.07 3.44 12.14
4/5/2021 11:45:00 AM 7.36 45.248 0.066 7.09 3.39 12.17
4/5/2021 12:00:00 PM 7.53 45.554 0.066 7.1 3.43 12.21
4/5/2021 12:15:00 PM 7.73 45.914 0.066 7.11 3.36 12.25
4/5/2021 12:30:00 PM 7.85 46.13 0.066 7.13 3.34 12.3
4/5/2021 12:45:00 PM 8.02 46.436 0.066 7.14 3.4 12.33
4/5/2021 1:00:00 PM 8.19 46.742 0.066 7.16 3.4 12.36
4/5/2021 1:15:00 PM 8.36 47.048 0.066 7.17 3.33 12.39
4/5/2021 1:30:00 PM 8.52 47.336 0.066 7.18 3.45 12.42
4/5/2021 1:45:00 PM 8.66 47.588 0.066 7.19 3.36 12.43
4/5/2021 2:00:00 PM 8.87 47.966 0.066 7.2 3.32 12.46
4/5/2021 2:15:00 PM 9.01 48.218 0.066 7.22 3.34 12.48
4/5/2021 2:30:00 PM 9.19 48.542 0.065 7.23 3.37 12.49
4/5/2021 2:45:00 PM 9.33 48.794 0.065 7.24 3.31 12.5
4/5/2021 3:00:00 PM 9.47 49.046 0.065 7.25 3.63 12.51
4/5/2021 3:15:00 PM 9.52 49.136 0.065 7.26 4.12 12.5
4/5/2021 3:30:00 PM 9.6 49.28 0.065 7.25 4.37 12.51
4/5/2021 3:45:00 PM 9.64 49.352 0.065 7.28 3.37 12.52
4/5/2021 4:00:00 PM 9.66 49.388 0.064 7.27 3.26 12.52
4/5/2021 4:15:00 PM 9.68 49.424 0.064 7.27 3.39 12.52
4/5/2021 4:30:00 PM 9.65 49.37 0.064 7.26 3.35 12.51
4/5/2021 4:45:00 PM 9.73 49.514 0.064 7.27 3.25 12.51
4/5/2021 5:00:00 PM 9.69 49.442 0.064 7.26 3.47 12.5
4/5/2021 5:15:00 PM 9.69 49.442 0.064 7.26 3.3 12.49
4/5/2021 5:30:00 PM 9.67 49.406 0.064 7.26 3.22 12.48
4/5/2021 5:45:00 PM 9.64 49.352 0.064 7.27 3.28 12.46
4/5/2021 6:00:00 PM 9.61 49.298 0.064 7.28 3.28 12.44
4/5/2021 6:15:00 PM 9.62 49.316 0.064 7.28 3.24 12.42
4/5/2021 6:30:00 PM 9.57 49.226 0.064 7.29 3.29 12.4
4/5/2021 6:45:00 PM 9.5 49.1 0.064 7.3 3.44 12.37
4/5/2021 7:00:00 PM 9.45 49.01 0.064 7.3 3.41 12.33
4/5/2021 7:15:00 PM 9.4 48.92 0.064 7.3 3.45 12.3
4/5/2021 7:30:00 PM 9.32 48.776 0.064 7.3 3.38 12.25
4/5/2021 7:45:00 PM 9.24 48.632 0.065 7.29 3.44 12.21
4/5/2021 8:00:00 PM 9.16 48.488 0.065 7.28 3.46 12.16
4/5/2021 8:15:00 PM 9.06 48.308 0.065 7.27 3.62 12.1
4/5/2021 8:30:00 PM 9.01 48.218 0.065 7.26 3.81 12.04
4/5/2021 8:45:00 PM 8.93 48.074 0.065 7.24 3.74 11.97
4/5/2021 9:00:00 PM 8.88 47.984 0.065 7.23 3.85 11.9
4/5/2021 9:15:00 PM 8.81 47.858 0.065 7.2 3.77 11.83
4/5/2021 9:30:00 PM 8.77 47.786 0.065 7.17 3.88 11.75
4/5/2021 9:45:00 PM 8.76 47.768 0.065 7.16 3.93 11.68
4/5/2021 10:00:00 PM 8.72 47.696 0.065 7.14 3.9 11.61
4/5/2021 10:15:00 PM 8.68 47.624 0.066 7.12 3.87 11.55
4/5/2021 10:30:00 PM 8.63 47.534 0.066 7.1 4.01 11.5
4/5/2021 10:45:00 PM 8.59 47.462 0.066 7.09 4.04 11.44
4/5/2021 11:00:00 PM 8.54 47.372 0.066 7.08 4.01 11.38
4/5/2021 11:15:00 PM 8.51 47.318 0.066 7.07 3.94 11.31
4/5/2021 11:30:00 PM 8.47 47.246 0.066 7.04 4.21 11.27
4/5/2021 11:45:00 PM 8.42 47.156 0.066 7.04 4.24 11.23
4/6/2021 12:00:00 AM 8.37 47.066 0.066 7.03 4.49 11.19
4/6/2021 12:15:00 AM 8.31 46.958 0.066 7.01 4.29 11.13
4/6/2021 12:30:00 AM 8.25 46.85 0.066 7 4.23 11.11
4/6/2021 12:45:00 AM 8.2 46.76 0.066 6.98 4.22 11.09
4/6/2021 1:00:00 AM 8.13 46.634 0.067 6.98 4.13 11.07
4/6/2021 1:15:00 AM 8.07 46.526 0.067 6.98 4.14 11.06
4/6/2021 1:30:00 AM 7.98 46.364 0.067 6.97 4.16 11.05
4/6/2021 1:45:00 AM 7.9 46.22 0.067 6.96 4.43 11.03
4/6/2021 2:00:00 AM 7.83 46.094 0.067 6.95 4.21 11.03
4/6/2021 2:15:00 AM 7.75 45.95 0.067 6.95 4.34 11.03
4/6/2021 2:30:00 AM 7.67 45.806 0.067 6.93 4.16 11.02
4/6/2021 2:45:00 AM 7.6 45.68 0.067 6.93 4.45 11.01
4/6/2021 3:00:00 AM 7.52 45.536 0.067 6.92 4.44 11
4/6/2021 3:15:00 AM 7.45 45.41 0.067 6.91 4.21 10.99
4/6/2021 3:30:00 AM 7.39 45.302 0.067 6.9 4.1 10.99
4/6/2021 3:45:00 AM 7.31 45.158 0.067 6.9 4.34 11
4/6/2021 4:00:00 AM 7.26 45.068 0.067 6.89 4.14 10.98
4/6/2021 4:15:00 AM 7.18 44.924 0.067 6.88 4.03 11
4/6/2021 4:30:00 AM 7.12 44.816 0.067 6.86 3.8 10.99
4/6/2021 4:45:00 AM 7.07 44.726 0.067 6.88 3.72 11
4/6/2021 5:00:00 AM 7.01 44.618 0.067 6.88 4.02 10.98
4/6/2021 5:15:00 AM 6.96 44.528 0.067 6.88 3.93 11.01
4/6/2021 5:30:00 AM 6.91 44.438 0.067 6.89 4.14 11.01
4/6/2021 5:45:00 AM 6.87 44.366 0.068 6.88 3.96 11
4/6/2021 6:00:00 AM 6.82 44.276 0.068 6.89 3.88 11.01
4/6/2021 6:15:00 AM 6.79 44.222 0.068 6.89 3.88 11.01
4/6/2021 6:30:00 AM 6.75 44.15 0.068 6.87 3.98 11
4/6/2021 6:45:00 AM 6.71 44.078 0.068 6.88 4.06 11.01
4/6/2021 7:00:00 AM 6.68 44.024 0.068 6.88 3.97 11.02
4/6/2021 7:15:00 AM 6.66 43.988 0.068 6.87 4.12 11.02
4/6/2021 7:30:00 AM 6.62 43.916 0.068 6.88 3.87 11.01
4/6/2021 7:45:00 AM 6.59 43.862 0.068 6.89 3.69 11.03
4/6/2021 8:00:00 AM 6.56 43.808 0.068 6.88 3.68 11.03
4/6/2021 8:15:00 AM 6.54 43.772 0.068 6.89 4.42 11.05
4/6/2021 8:30:00 AM 6.53 43.754 0.068 6.89 3.72 11.08
4/6/2021 8:45:00 AM 6.54 43.772 0.068 6.89 3.67 11.11
4/6/2021 9:00:00 AM 6.57 43.826 0.068 6.91 3.51 11.16
4/6/2021 9:15:00 AM 6.63 43.934 0.068 6.92 3.67 11.22
4/6/2021 9:30:00 AM 6.69 44.042 0.068 6.94 3.5 11.28
4/6/2021 9:45:00 AM 6.78 44.204 0.068 6.95 3.54 11.34
4/6/2021 10:00:00 AM 6.88 44.384 0.068 6.97 3.43 11.42
4/6/2021 10:15:00 AM 7 44.6 0.068 6.97 3.66 11.47
4/6/2021 10:30:00 AM 7.15 44.87 0.067 6.98 3.48 11.52
4/6/2021 10:45:00 AM 7.3 45.14 0.067 6.99 3.37 11.6
4/6/2021 11:00:00 AM 7.47 45.446 0.067 7.04 3.42 11.68
4/6/2021 11:15:00 AM 7.63 45.734 0.067 7.04 3.45 11.72
4/6/2021 11:30:00 AM 7.82 46.076 0.067 7.06 3.51 11.77
4/6/2021 11:45:00 AM 7.99 46.382 0.067 7.06 3.39 11.83
4/6/2021 12:00:00 PM 8.18 46.724 0.067 7.09 3.43 11.88
4/6/2021 12:15:00 PM 8.36 47.048 0.067 7.1 3.48 11.95
4/6/2021 12:30:00 PM 8.54 47.372 0.067 7.12 3.33 11.99
4/6/2021 12:45:00 PM 8.77 47.786 0.067 7.13 3.41 12.01
4/6/2021 1:00:00 PM 8.9 48.02 0.067 7.15 3.32 12.09
4/6/2021 1:15:00 PM 9.07 48.326 0.067 7.17 3.53 12.14
4/6/2021 1:30:00 PM 9.26 48.668 0.067 7.18 3.49 12.19
4/6/2021 1:45:00 PM 9.4 48.92 0.067 7.2 3.32 12.23
4/6/2021 2:00:00 PM 9.57 49.226 0.067 7.21 3.43 12.26
4/6/2021 2:15:00 PM 9.74 49.532 0.067 7.22 3.36 12.3
4/6/2021 2:30:00 PM 9.92 49.856 0.067 7.24 3.54 12.34
4/6/2021 2:45:00 PM 10.05 50.09 0.067 7.25 3.93 12.35
4/6/2021 3:00:00 PM 10.12 50.216 0.067 7.27 3.46 12.39
4/6/2021 3:15:00 PM 10.28 50.504 0.066 7.28 4.04 12.42
4/6/2021 3:30:00 PM 10.36 50.648 0.066 7.31 3.35 12.45
4/6/2021 3:45:00 PM 10.48 50.864 0.066 7.33 3.92 12.45
4/6/2021 4:00:00 PM 10.58 51.044 0.066 7.34 3.23 12.47
4/6/2021 4:15:00 PM 10.61 51.098 0.066 7.35 3.17 12.47
4/6/2021 4:30:00 PM 10.67 51.206 0.066 7.36 3.34 12.48
4/6/2021 4:45:00 PM 10.68 51.224 0.066 7.38 3.16 12.48
4/6/2021 5:00:00 PM 10.73 51.314 0.066 7.38 3.19 12.47
4/6/2021 5:15:00 PM 10.73 51.314 0.066 7.39 3.28 12.48
4/6/2021 5:30:00 PM 10.73 51.314 0.066 7.4 3.18 12.48
4/6/2021 5:45:00 PM 10.68 51.224 0.066 7.41 3.98 12.5
4/6/2021 6:00:00 PM 10.6 51.08 0.066 7.41 3.56 12.49
4/6/2021 6:15:00 PM 10.52 50.936 0.066 7.4 3.6 12.49
4/6/2021 6:30:00 PM 10.42 50.756 0.066 7.39 3.56 12.5
4/6/2021 6:45:00 PM 10.35 50.63 0.065 7.41 3.93 12.5
4/6/2021 7:00:00 PM 10.2 50.36 0.065 7.4 3.43 12.48
4/6/2021 7:15:00 PM 10.11 50.198 0.065 7.4 3.38 12.47
4/6/2021 7:30:00 PM 10.01 50.018 0.065 7.39 3.4 12.44
4/6/2021 7:45:00 PM 9.88 49.784 0.066 7.38 3.63 12.41
4/6/2021 8:00:00 PM 9.75 49.55 0.066 7.37 3.39 12.36
4/6/2021 8:15:00 PM 9.66 49.388 0.066 7.35 3.55 12.31
4/6/2021 8:30:00 PM 9.58 49.244 0.066 7.34 3.74 12.24
4/6/2021 8:45:00 PM 9.51 49.118 0.066 7.31 3.68 12.18
4/6/2021 9:00:00 PM 9.45 49.01 0.066 7.29 3.71 12.1
4/6/2021 9:15:00 PM 9.39 48.902 0.066 7.27 3.44 12.01
4/6/2021 9:30:00 PM 9.33 48.794 0.067 7.25 3.5 11.95
4/6/2021 9:45:00 PM 9.29 48.722 0.066 7.23 3.47 11.88
4/6/2021 10:00:00 PM 9.24 48.632 0.066 7.2 3.75 11.8
4/6/2021 10:15:00 PM 9.19 48.542 0.066 7.19 3.69 11.71
4/6/2021 10:30:00 PM 9.14 48.452 0.066 7.16 3.73 11.62
4/6/2021 10:45:00 PM 9.1 48.38 0.067 7.15 3.86 11.55
4/6/2021 11:00:00 PM 9.07 48.326 0.067 7.14 3.67 11.48
4/6/2021 11:15:00 PM 9.04 48.272 0.067 7.11 3.78 11.41
4/6/2021 11:30:00 PM 9.01 48.218 0.067 7.09 3.86 11.34
4/6/2021 11:45:00 PM 8.97 48.146 0.067 7.1 3.95 11.28
4/7/2021 12:00:00 AM 8.94 48.092 0.067 7.06 4.13 11.22
4/7/2021 12:15:00 AM 8.9 48.02 0.067 7.07 4.33 11.16
4/7/2021 12:30:00 AM 8.88 47.984 0.067 7.05 4.4 11.11
4/7/2021 12:45:00 AM 8.84 47.912 0.067 7.04 4.56 11.05
4/7/2021 1:00:00 AM 8.81 47.858 0.067 7.03 4.28 10.99
4/7/2021 1:15:00 AM 8.78 47.804 0.067 7.01 4.37 10.94
4/7/2021 1:30:00 AM 8.74 47.732 0.067 6.99 4.55 10.9
4/7/2021 1:45:00 AM 8.71 47.678 0.068 7 4.18 10.86
4/7/2021 2:00:00 AM 8.68 47.624 0.068 6.97 4.54 10.83
4/7/2021 2:15:00 AM 8.66 47.588 0.068 6.98 4.2 10.81
4/7/2021 2:30:00 AM 8.63 47.534 0.068 6.98 4.52 10.79
4/7/2021 2:45:00 AM 8.59 47.462 0.068 6.95 4.48 10.78
4/7/2021 3:00:00 AM 8.56 47.408 0.068 6.96 4.44 10.77
4/7/2021 3:15:00 AM 8.52 47.336 0.068 6.97 4.33 10.76
4/7/2021 3:30:00 AM 8.49 47.282 0.068 6.96 4.66 10.74
4/7/2021 3:45:00 AM 8.46 47.228 0.068 6.95 5.11 10.72
4/7/2021 4:00:00 AM 8.43 47.174 0.068 6.94 4.98 10.72
4/7/2021 4:15:00 AM 8.41 47.138 0.068 6.94 4.33 10.7
4/7/2021 4:30:00 AM 8.39 47.102 0.068 6.92 4.38 10.7
4/7/2021 4:45:00 AM 8.37 47.066 0.069 6.91 4.55 10.7
4/7/2021 5:00:00 AM 8.35 47.03 0.069 6.92 4.03 10.67
4/7/2021 5:15:00 AM 8.33 46.994 0.069 6.92 4.51 10.66
4/7/2021 5:30:00 AM 8.32 46.976 0.069 6.92 4.35 10.66
4/7/2021 5:45:00 AM 8.3 46.94 0.069 6.89 4.3 10.65
4/7/2021 6:00:00 AM 8.29 46.922 0.069 6.9 4.5 10.64
4/7/2021 6:15:00 AM 8.28 46.904 0.069 6.91 4.22 10.64
4/7/2021 6:30:00 AM 8.27 46.886 0.069 6.9 4.13 10.64
4/7/2021 6:45:00 AM 8.26 46.868 0.069 6.88 4.48 10.64
4/7/2021 7:00:00 AM 8.25 46.85 0.069 6.88 4.7 10.63
4/7/2021 7:15:00 AM 8.24 46.832 0.069 6.9 4.34 10.64
4/7/2021 7:30:00 AM 8.23 46.814 0.069 6.9 4.46 10.65
4/7/2021 7:45:00 AM 8.23 46.814 0.069 6.88 4.32 10.65
4/7/2021 8:00:00 AM 8.24 46.832 0.069 6.89 4.14 10.65
4/7/2021 8:15:00 AM 8.24 46.832 0.069 6.89 4.29 10.65
4/7/2021 8:30:00 AM 8.24 46.832 0.068 6.88 4.13 10.67
4/7/2021 8:45:00 AM 8.26 46.868 0.069 6.89 4.17 10.67
4/7/2021 9:00:00 AM 8.27 46.886 0.068 6.9 3.78 10.7
4/7/2021 9:15:00 AM 8.29 46.922 0.068 6.9 3.84 10.72
4/7/2021 9:30:00 AM 8.32 46.976 0.069 6.91 3.74 10.76
4/7/2021 9:45:00 AM 8.35 47.03 0.068 6.91 4.1 10.79
4/7/2021 10:00:00 AM 8.4 47.12 0.068 6.92 4.02 10.85
4/7/2021 10:15:00 AM 8.48 47.264 0.068 6.92 4.46 10.91
4/7/2021 10:30:00 AM 8.54 47.372 0.068 6.94 3.74 10.97
4/7/2021 10:45:00 AM 8.65 47.57 0.068 6.94 3.91 11.03
4/7/2021 11:00:00 AM 8.75 47.75 0.068 6.95 4.54 11.1
4/7/2021 11:15:00 AM 8.88 47.984 0.068 6.97 3.86 11.17
4/7/2021 11:30:00 AM 9.02 48.236 0.068 6.99 3.76 11.25
4/7/2021 11:45:00 AM 9.17 48.506 0.068 7 3.56 11.3
4/7/2021 12:00:00 PM 9.31 48.758 0.068 7.01 3.7 11.36
4/7/2021 12:15:00 PM 9.45 49.01 0.068 7.02 3.6 11.43
4/7/2021 12:30:00 PM 9.6 49.28 0.068 7.04 3.54 11.51
4/7/2021 12:45:00 PM 9.76 49.568 0.068 7.06 3.61 11.61
4/7/2021 1:00:00 PM 9.97 49.946 0.068 7.09 3.54 11.71
4/7/2021 1:15:00 PM 10.19 50.342 0.068 7.11 3.6 11.78
4/7/2021 1:30:00 PM 10.38 50.684 0.068 7.13 3.57 11.85
4/7/2021 1:45:00 PM 10.53 50.954 0.067 7.15 3.49 11.9
4/7/2021 2:00:00 PM 10.74 51.332 0.067 7.17 3.47 11.95
4/7/2021 2:15:00 PM 10.94 51.692 0.067 7.18 3.57 11.98
4/7/2021 2:30:00 PM 11.1 51.98 0.067 7.19 3.44 12.06
4/7/2021 2:45:00 PM 11.35 52.43 0.067 7.2 3.6 12.09
4/7/2021 3:00:00 PM 11.46 52.628 0.067 7.23 3.59 12.18
4/7/2021 3:15:00 PM 11.61 52.898 0.067 7.25 3.55 12.24
4/7/2021 3:30:00 PM 11.8 53.24 0.067 7.27 3.77 12.3
4/7/2021 3:45:00 PM 11.93 53.474 0.067 7.29 3.54 12.35
4/7/2021 4:00:00 PM 12.09 53.762 0.067 7.32 3.42 12.39
4/7/2021 4:15:00 PM 12.2 53.96 0.067 7.35 3.44 12.43
4/7/2021 4:30:00 PM 12.35 54.23 0.067 7.37 3.48 12.44
4/7/2021 4:45:00 PM 12.45 54.41 0.067 7.39 3.56 12.47
4/7/2021 5:00:00 PM 12.49 54.482 0.067 7.4 3.58 12.5
4/7/2021 5:15:00 PM 12.54 54.572 0.067 7.43 3.54 12.51
4/7/2021 5:30:00 PM 12.55 54.59 0.067 7.45 3.44 12.51
4/7/2021 5:45:00 PM 12.58 54.644 0.067 7.46 3.53 12.51
4/7/2021 6:00:00 PM 12.57 54.626 0.067 7.48 3.96 12.51
4/7/2021 6:15:00 PM 12.55 54.59 0.067 7.48 3.48 12.5
4/7/2021 6:30:00 PM 12.51 54.518 0.067 7.5 3.39 12.48
4/7/2021 6:45:00 PM 12.46 54.428 0.067 7.52 3.47 12.47
4/7/2021 7:00:00 PM 12.37 54.266 0.067 7.51 3.49 12.43
4/7/2021 7:15:00 PM 12.27 54.086 0.067 7.52 3.58 12.4
4/7/2021 7:30:00 PM 12.18 53.924 0.067 7.5 3.55 12.35
4/7/2021 7:45:00 PM 12.07 53.726 0.068 7.5 3.72 12.31
4/7/2021 8:00:00 PM 11.98 53.564 0.068 7.49 3.55 12.25
4/7/2021 8:15:00 PM 11.9 53.42 0.068 7.46 3.66 12.18
4/7/2021 8:30:00 PM 11.84 53.312 0.068 7.44 3.84 12.09
4/7/2021 8:45:00 PM 11.77 53.186 0.068 7.41 3.62 12.02
4/7/2021 9:00:00 PM 11.7 53.06 0.068 7.38 3.8 11.9
4/7/2021 9:15:00 PM 11.62 52.916 0.068 7.34 3.7 11.8
4/7/2021 9:30:00 PM 11.53 52.754 0.068 7.31 3.65 11.68
4/7/2021 9:45:00 PM 11.44 52.592 0.068 7.27 3.68 11.59
4/7/2021 10:00:00 PM 11.36 52.448 0.068 7.24 3.98 11.5
4/7/2021 10:15:00 PM 11.27 52.286 0.068 7.21 3.92 11.39
4/7/2021 10:30:00 PM 11.2 52.16 0.068 7.17 3.82 11.3
4/7/2021 10:45:00 PM 11.12 52.016 0.068 7.14 3.94 11.2
4/7/2021 11:00:00 PM 11.06 51.908 0.068 7.12 3.99 11.12
4/7/2021 11:15:00 PM 10.99 51.782 0.068 7.09 4.53 11.01
4/7/2021 11:30:00 PM 10.94 51.692 0.068 7.07 4.11 10.93
4/7/2021 11:45:00 PM 10.89 51.602 0.068 7.05 4.28 10.86
4/8/2021 12:00:00 AM 10.86 51.548 0.068 7.03 4.15 10.79
4/8/2021 12:15:00 AM 10.81 51.458 0.068 7.02 4.59 10.72
4/8/2021 12:30:00 AM 10.78 51.404 0.068 7 4.34 10.66
4/8/2021 12:45:00 AM 10.75 51.35 0.068 6.99 4.14 10.61
4/8/2021 1:00:00 AM 10.72 51.296 0.068 6.98 4.32 10.54
4/8/2021 1:15:00 AM 10.69 51.242 0.068 6.97 4.21 10.49
4/8/2021 1:30:00 AM 10.68 51.224 0.069 6.95 4.17 10.46
4/8/2021 1:45:00 AM 10.64 51.152 0.067 6.95 4.26 10.42
4/8/2021 2:00:00 AM 10.6 51.08 0.067 6.94 4.03 10.38
4/8/2021 2:15:00 AM 10.55 50.99 0.067 6.93 4.14 10.34
4/8/2021 2:30:00 AM 10.5 50.9 0.067 6.93 4.35 10.32
4/8/2021 2:45:00 AM 10.47 50.846 0.067 6.92 4.4 10.3
4/8/2021 3:00:00 AM 10.41 50.738 0.068 6.92 4.47 10.28
4/8/2021 3:15:00 AM 10.35 50.63 0.068 6.9 4.1 10.26
4/8/2021 3:30:00 AM 10.29 50.522 0.068 6.9 4.07 10.26
4/8/2021 3:45:00 AM 10.24 50.432 0.068 6.89 4.25 10.26
4/8/2021 4:00:00 AM 10.18 50.324 0.068 6.89 4.17 10.25
4/8/2021 4:15:00 AM 10.13 50.234 0.068 6.89 4.29 10.24
4/8/2021 4:30:00 AM 10.07 50.126 0.068 6.88 4.08 10.24
4/8/2021 4:45:00 AM 10.03 50.054 0.068 6.87 4 10.23
4/8/2021 5:00:00 AM 9.98 49.964 0.068 6.86 4.34 10.22
4/8/2021 5:15:00 AM 9.93 49.874 0.068 6.87 4.27 10.22
4/8/2021 5:30:00 AM 9.88 49.784 0.068 6.85 4.3 10.2
4/8/2021 5:45:00 AM 9.82 49.676 0.068 6.85 4.52 10.18
4/8/2021 6:00:00 AM 9.79 49.622 0.068 6.85 4.3 10.18
4/8/2021 6:15:00 AM 9.74 49.532 0.068 6.84 4.31 10.15
4/8/2021 6:30:00 AM 9.7 49.46 0.068 6.85 4.29 10.16
4/8/2021 6:45:00 AM 9.65 49.37 0.068 6.84 4.76 10.18
4/8/2021 7:00:00 AM 9.61 49.298 0.068 6.85 4.28 10.17
4/8/2021 7:15:00 AM 9.57 49.226 0.068 6.84 4.54 10.2
4/8/2021 7:30:00 AM 9.53 49.154 0.068 6.84 4.31 10.22
4/8/2021 7:45:00 AM 9.48 49.064 0.068 6.84 4.49 10.22
4/8/2021 8:00:00 AM 9.44 48.992 0.068 6.83 4.33 10.22
4/8/2021 8:15:00 AM 9.4 48.92 0.068 6.84 4.54 10.24
4/8/2021 8:30:00 AM 9.38 48.884 0.068 6.84 4.25 10.24
4/8/2021 8:45:00 AM 9.38 48.884 0.068 6.84 4.03 10.26
4/8/2021 9:00:00 AM 9.42 48.956 0.068 6.84 4.29 10.28
4/8/2021 9:15:00 AM 9.48 49.064 0.067 6.84 4.05 10.34
4/8/2021 9:30:00 AM 9.55 49.19 0.067 6.86 3.86 10.42
4/8/2021 9:45:00 AM 9.64 49.352 0.067 6.87 3.69 10.51
4/8/2021 10:00:00 AM 9.75 49.55 0.067 6.88 3.77 10.57
4/8/2021 10:15:00 AM 9.89 49.802 0.067 6.91 3.78 10.67
4/8/2021 10:30:00 AM 10.03 50.054 0.067 6.92 3.69 10.73
4/8/2021 10:45:00 AM 10.19 50.342 0.066 6.94 3.64 10.83
4/8/2021 11:00:00 AM 10.34 50.612 0.066 6.96 3.76 10.93
4/8/2021 11:15:00 AM 10.52 50.936 0.066 6.99 3.62 11.02
4/8/2021 11:30:00 AM 10.71 51.278 0.066 7.01 3.72 11.13
4/8/2021 11:45:00 AM 10.88 51.584 0.066 7.03 3.75 11.19
4/8/2021 12:00:00 PM 11.06 51.908 0.066 7.06 3.87 11.26
4/8/2021 12:15:00 PM 11.26 52.268 0.066 7.08 3.68 11.33
4/8/2021 12:30:00 PM 11.45 52.61 0.066 7.09 3.72 11.42
4/8/2021 12:45:00 PM 11.64 52.952 0.066 7.11 3.89 11.5
4/8/2021 1:00:00 PM 11.82 53.276 0.066 7.13 3.78 11.56
4/8/2021 1:15:00 PM 12.01 53.618 0.067 7.15 3.85 11.62
4/8/2021 1:30:00 PM 12.2 53.96 0.066 7.16 3.64 11.7
4/8/2021 1:45:00 PM 12.4 54.32 0.068 7.19 3.69 11.76
4/8/2021 2:00:00 PM 12.57 54.626 0.066 7.22 3.58 11.83
4/8/2021 2:15:00 PM 12.77 54.986 0.066 7.23 3.8 11.87
4/8/2021 2:30:00 PM 12.95 55.31 0.067 7.25 3.74 11.93
4/8/2021 2:45:00 PM 13.14 55.652 0.066 7.27 3.65 11.98
4/8/2021 3:00:00 PM 13.33 55.994 0.066 7.3 3.63 12.04
4/8/2021 3:15:00 PM 13.52 56.336 0.066 7.33 3.62 12.07
4/8/2021 3:30:00 PM 13.66 56.588 0.066 7.36 3.59 12.11
4/8/2021 3:45:00 PM 13.81 56.858 0.066 7.38 3.29 12.15
4/8/2021 4:00:00 PM 13.96 57.128 0.066 7.41 3.48 12.17
4/8/2021 4:15:00 PM 14.05 57.29 0.066 7.44 3.42 12.2
4/8/2021 4:30:00 PM 14.16 57.488 0.067 7.48 3.35 12.23
4/8/2021 4:45:00 PM 14.24 57.632 0.067 7.49 3.49 12.25
4/8/2021 5:00:00 PM 14.31 57.758 0.067 7.51 3.45 12.25
4/8/2021 5:15:00 PM 14.35 57.83 0.067 7.53 3.68 12.26
4/8/2021 5:30:00 PM 14.36 57.848 0.067 7.55 3.58 12.25
4/8/2021 5:45:00 PM 14.35 57.83 0.067 7.56 3.51 12.24
4/8/2021 6:00:00 PM 14.34 57.812 0.067 7.57 3.53 12.24
4/8/2021 6:15:00 PM 14.3 57.74 0.067 7.59 3.56 12.22
4/8/2021 6:30:00 PM 14.26 57.668 0.067 7.58 3.66 12.2
4/8/2021 6:45:00 PM 14.2 57.56 0.067 7.58 3.7 12.16
4/8/2021 7:00:00 PM 14.14 57.452 0.067 7.58 3.54 12.15
4/8/2021 7:15:00 PM 14.04 57.272 0.067 7.57 3.88 12.1
4/8/2021 7:30:00 PM 13.94 57.092 0.067 7.59 3.64 12.07
4/8/2021 7:45:00 PM 13.79 56.822 0.067 7.56 3.63 11.99
4/8/2021 8:00:00 PM 13.62 56.516 0.067 7.53 3.57 11.92
4/8/2021 8:15:00 PM 13.46 56.228 0.067 7.49 3.66 11.85
4/8/2021 8:30:00 PM 13.28 55.904 0.067 7.45 3.66 11.76
4/8/2021 8:45:00 PM 13.13 55.634 0.067 7.41 3.81 11.67
4/8/2021 9:00:00 PM 12.97 55.346 0.067 7.38 3.67 11.59
4/8/2021 9:15:00 PM 12.88 55.184 0.067 7.34 3.52 11.54
4/8/2021 9:30:00 PM 12.78 55.004 0.067 7.32 3.81 11.5
4/8/2021 9:45:00 PM 12.66 54.788 0.068 7.28 3.79 11.43
4/8/2021 10:00:00 PM 12.56 54.608 0.068 7.25 3.68 11.36
4/8/2021 10:15:00 PM 12.42 54.356 0.068 7.22 3.63 11.27
4/8/2021 10:30:00 PM 12.28 54.104 0.068 7.18 3.62 11.17
4/8/2021 10:45:00 PM 12.16 53.888 0.068 7.15 3.7 11.07
4/8/2021 11:00:00 PM 12.03 53.654 0.068 7.11 3.86 10.97
4/8/2021 11:15:00 PM 11.9 53.42 0.068 7.08 3.66 10.89
4/8/2021 11:30:00 PM 11.78 53.204 0.068 7.06 3.9 10.81
4/8/2021 11:45:00 PM 11.66 52.988 0.068 7.03 3.73 10.71
4/9/2021 12:00:00 AM 11.54 52.772 0.068 7 4.09 10.65
4/9/2021 12:15:00 AM 11.43 52.574 0.068 6.99 3.85 10.56
4/9/2021 12:30:00 AM 11.34 52.412 0.068 6.97 3.9 10.5
4/9/2021 12:45:00 AM 11.26 52.268 0.068 6.95 3.91 10.44
4/9/2021 1:00:00 AM 11.18 52.124 0.068 6.94 4.14 10.39
4/9/2021 1:15:00 AM 11.1 51.98 0.068 6.92 3.95 10.34
4/9/2021 1:30:00 AM 11.03 51.854 0.068 6.91 4.04 10.28
4/9/2021 1:45:00 AM 10.98 51.764 0.068 6.91 3.93 10.24
4/9/2021 2:00:00 AM 10.92 51.656 0.068 6.9 3.84 10.2
4/9/2021 2:15:00 AM 10.87 51.566 0.068 6.9 4.3 10.17
4/9/2021 2:30:00 AM 10.82 51.476 0.069 6.89 4.15 10.13
4/9/2021 2:45:00 AM 10.78 51.404 0.069 6.88 3.87 10.1
4/9/2021 3:00:00 AM 10.75 51.35 0.069 6.88 4.13 10.07
4/9/2021 3:15:00 AM 10.72 51.296 0.069 6.88 3.9 10.05
4/9/2021 3:30:00 AM 10.68 51.224 0.069 6.87 4.19 10.03
4/9/2021 3:45:00 AM 10.67 51.206 0.069 6.87 4.39 10.01
4/9/2021 4:00:00 AM 10.64 51.152 0.069 6.86 4.22 10
4/9/2021 4:15:00 AM 10.62 51.116 0.069 6.86 4.1 9.98
4/9/2021 4:30:00 AM 10.6 51.08 0.069 6.86 4.07 9.95
4/9/2021 4:45:00 AM 10.58 51.044 0.069 6.86 6.22 9.95
4/9/2021 5:00:00 AM 10.55 50.99 0.069 6.86 4.62 9.93
4/9/2021 5:15:00 AM 10.53 50.954 0.07 6.86 4.04 9.91
4/9/2021 5:30:00 AM 10.51 50.918 0.07 6.86 4.03 9.89
4/9/2021 5:45:00 AM 10.49 50.882 0.07 6.85 4.1 9.88
4/9/2021 6:00:00 AM 10.48 50.864 0.07 6.84 4.45 9.87
4/9/2021 6:15:00 AM 10.46 50.828 0.07 6.84 4.22 9.83
4/9/2021 6:30:00 AM 10.43 50.774 0.07 6.84 3.99 9.83
4/9/2021 6:45:00 AM 10.42 50.756 0.07 6.85 4.25 9.85
4/9/2021 7:00:00 AM 10.4 50.72 0.07 6.84 4.74 9.85
4/9/2021 7:15:00 AM 10.39 50.702 0.07 6.85 4.6 9.82
4/9/2021 7:30:00 AM 10.38 50.684 0.07 6.85 4.36 9.84
4/9/2021 7:45:00 AM 10.37 50.666 0.07 6.84 4.19 9.84
4/9/2021 8:00:00 AM 10.35 50.63 0.07 6.85 4.48 9.85
4/9/2021 8:15:00 AM 10.35 50.63 0.07 6.84 4.22 9.85
4/9/2021 8:30:00 AM 10.35 50.63 0.07 6.85 4.16 9.87
4/9/2021 8:45:00 AM 10.36 50.648 0.07 6.85 3.85 9.91
4/9/2021 9:00:00 AM 10.38 50.684 0.07 6.86 3.97 9.95
4/9/2021 9:15:00 AM 10.4 50.72 0.07 6.87 4.12 10.03
4/9/2021 9:30:00 AM 10.44 50.792 0.07 6.88 4 10.12
4/9/2021 9:45:00 AM 10.48 50.864 0.071 6.9 3.9 10.17
4/9/2021 10:00:00 AM 10.53 50.954 0.071 6.9 3.82 10.21
4/9/2021 10:15:00 AM 10.62 51.116 0.071 6.91 3.93 10.27
4/9/2021 10:30:00 AM 10.72 51.296 0.071 6.93 3.99 10.38
4/9/2021 10:45:00 AM 10.85 51.53 0.071 6.95 4.12 10.48
4/9/2021 11:00:00 AM 11 51.8 0.071 6.98 4.04 10.6
4/9/2021 11:15:00 AM 11.14 52.052 0.07 7 3.99 10.69
4/9/2021 11:30:00 AM 11.26 52.268 0.07 7.03 3.83 10.75
4/9/2021 11:45:00 AM 11.37 52.466 0.07 7.05 4.01 10.81
4/9/2021 12:00:00 PM 11.48 52.664 0.07 7.06 3.81 10.88
4/9/2021 12:15:00 PM 11.59 52.862 0.071 7.08 4.04 10.95
4/9/2021 12:30:00 PM 11.7 53.06 0.071 7.1 3.84 11.04
4/9/2021 12:45:00 PM 11.79 53.222 0.07 7.13 3.95 11.12
4/9/2021 1:00:00 PM 11.87 53.366 0.07 7.14 3.88 11.21
4/9/2021 1:15:00 PM 11.92 53.456 0.07 7.17 3.8 11.24
4/9/2021 1:30:00 PM 11.94 53.492 0.07 7.19 3.78 11.31
4/9/2021 1:45:00 PM 11.94 53.492 0.07 7.21 3.84 11.36
4/9/2021 2:00:00 PM 11.93 53.474 0.07 7.23 4.09 11.39
4/9/2021 2:15:00 PM 11.91 53.438 0.07 7.24 3.77 11.44
4/9/2021 2:30:00 PM 11.88 53.384 0.07 7.25 3.63 11.46
4/9/2021 2:45:00 PM 11.87 53.366 0.07 7.26 3.79 11.51
4/9/2021 3:00:00 PM 11.88 53.384 0.07 7.28 3.84 11.57
4/9/2021 3:15:00 PM 11.89 53.402 0.07 7.31 3.79 11.59
4/9/2021 3:30:00 PM 11.89 53.402 0.07 7.32 3.72 11.63
4/9/2021 3:45:00 PM 11.89 53.402 0.07 7.34 3.73 11.67
4/9/2021 4:00:00 PM 11.89 53.402 0.07 7.35 3.73 11.7
4/9/2021 4:15:00 PM 11.91 53.438 0.07 7.36 4.22 11.72
4/9/2021 4:30:00 PM 11.91 53.438 0.07 7.38 3.82 11.75
4/9/2021 4:45:00 PM 11.9 53.42 0.07 7.39 3.87 11.74
4/9/2021 5:00:00 PM 11.91 53.438 0.07 7.42 3.9 11.77
4/9/2021 5:15:00 PM 11.92 53.456 0.07 7.44 3.72 11.79
4/9/2021 5:30:00 PM 11.93 53.474 0.07 7.46 3.9 11.79
4/9/2021 5:45:00 PM 11.91 53.438 0.07 7.46 3.75 11.78
4/9/2021 6:00:00 PM 11.91 53.438 0.07 7.47 3.83 11.77
4/9/2021 6:15:00 PM 11.9 53.42 0.07 7.47 3.83 11.76
4/9/2021 6:30:00 PM 11.89 53.402 0.07 7.47 4.08 11.74
4/9/2021 6:45:00 PM 11.87 53.366 0.07 7.47 3.89 11.71
4/9/2021 7:00:00 PM 11.84 53.312 0.07 7.46 4.02 11.67
4/9/2021 7:15:00 PM 11.81 53.258 0.07 7.45 3.87 11.65
4/9/2021 7:30:00 PM 11.78 53.204 0.07 7.45 3.92 11.61
4/9/2021 7:45:00 PM 11.75 53.15 0.07 7.42 3.93 11.55
4/9/2021 8:00:00 PM 11.73 53.114 0.07 7.4 3.82 11.53
4/9/2021 8:15:00 PM 11.7 53.06 0.07 7.38 4.12 11.49
4/9/2021 8:30:00 PM 11.67 53.006 0.07 7.36 3.98 11.43
4/9/2021 8:45:00 PM 11.65 52.97 0.07 7.35 4.09 11.38
4/9/2021 9:00:00 PM 11.62 52.916 0.07 7.33 3.96 11.31
4/9/2021 9:15:00 PM 11.59 52.862 0.07 7.29 3.96 11.24
4/9/2021 9:30:00 PM 11.57 52.826 0.07 7.27 4.15 11.17
4/9/2021 9:45:00 PM 11.54 52.772 0.07 7.25 4.08 11.09
4/9/2021 10:00:00 PM 11.52 52.736 0.07 7.22 4.06 11.01
4/9/2021 10:15:00 PM 11.51 52.718 0.07 7.2 4.23 10.93
4/9/2021 10:30:00 PM 11.49 52.682 0.07 7.17 4.31 10.84
4/9/2021 10:45:00 PM 11.48 52.664 0.07 7.15 4.45 10.77
4/9/2021 11:00:00 PM 11.47 52.646 0.07 7.13 4.36 10.69
4/9/2021 11:15:00 PM 11.46 52.628 0.07 7.1 4.32 10.6
4/9/2021 11:30:00 PM 11.45 52.61 0.07 7.08 4.61 10.54
4/9/2021 11:45:00 PM 11.43 52.574 0.071 7.07 4.59 10.48
4/10/2021 12:00:00 AM 11.42 52.556 0.071 7.05 4.75 10.41
4/10/2021 12:15:00 AM 11.41 52.538 0.071 7.04 4.78 10.34
4/10/2021 12:30:00 AM 11.4 52.52 0.071 7.03 4.53 10.28
4/10/2021 12:45:00 AM 11.39 52.502 0.071 7.01 4.67 10.22
4/10/2021 1:00:00 AM 11.37 52.466 0.071 7 4.52 10.17
4/10/2021 1:15:00 AM 11.36 52.448 0.071 6.99 4.73 10.12
4/10/2021 1:30:00 AM 11.35 52.43 0.071 6.98 4.81 10.09
4/10/2021 1:45:00 AM 11.33 52.394 0.071 6.96 6.63 10
4/10/2021 2:00:00 AM 11.32 52.376 0.071 6.96 4.84 9.99
4/10/2021 2:15:00 AM 11.31 52.358 0.071 6.95 4.8 9.95
4/10/2021 2:30:00 AM 11.3 52.34 0.071 6.94 5.02 9.9
4/10/2021 2:45:00 AM 11.28 52.304 0.071 6.93 5.09 9.87
4/10/2021 3:00:00 AM 11.27 52.286 0.071 6.92 4.86 9.84
4/10/2021 3:15:00 AM 11.27 52.286 0.071 6.91 5.16 9.81
4/10/2021 3:30:00 AM 11.25 52.25 0.071 6.91 5.23 9.78
4/10/2021 3:45:00 AM 11.25 52.25 0.071 6.9 5.29 9.73
4/10/2021 4:00:00 AM 11.24 52.232 0.071 6.89 5.1 9.72
4/10/2021 4:15:00 AM 11.23 52.214 0.071 6.89 4.98 9.7
4/10/2021 4:30:00 AM 11.22 52.196 0.071 6.88 5.39 9.66
4/10/2021 4:45:00 AM 11.21 52.178 0.071 6.87 5.06 9.63
4/10/2021 5:00:00 AM 11.21 52.178 0.071 6.86 5.04 9.62
4/10/2021 5:15:00 AM 11.2 52.16 0.071 6.86 5.04 9.63
4/10/2021 5:30:00 AM 11.19 52.142 0.071 6.86 4.83 9.61
4/10/2021 5:45:00 AM 11.19 52.142 0.071 6.86 5.23 9.58
4/10/2021 6:00:00 AM 11.17 52.106 0.071 6.85 5.07 9.57
4/10/2021 6:15:00 AM 11.17 52.106 0.071 6.85 5.09 9.55
4/10/2021 6:30:00 AM 11.15 52.07 0.071 6.85 5.48 9.52
4/10/2021 6:45:00 AM 11.15 52.07 0.071 6.85 5.06 9.51
4/10/2021 7:00:00 AM 11.14 52.052 0.071 6.84 4.82 9.5
4/10/2021 7:15:00 AM 11.13 52.034 0.071 6.83 5.12 9.5
4/10/2021 7:30:00 AM 11.12 52.016 0.071 6.84 4.86 9.51
4/10/2021 7:45:00 AM 11.12 52.016 0.071 6.83 4.89 9.51
4/10/2021 8:00:00 AM 11.11 51.998 0.071 6.83 4.82 9.51
4/10/2021 8:15:00 AM 11.11 51.998 0.071 6.83 5.44 9.5
4/10/2021 8:30:00 AM 11.12 52.016 0.071 6.83 4.92 9.51
4/10/2021 8:45:00 AM 11.12 52.016 0.071 6.83 4.87 9.53
4/10/2021 9:00:00 AM 11.13 52.034 0.071 6.84 4.69 9.58
4/10/2021 9:15:00 AM 11.14 52.052 0.071 6.84 4.58 9.6
4/10/2021 9:30:00 AM 11.16 52.088 0.071 6.85 4.51 9.66
4/10/2021 9:45:00 AM 11.18 52.124 0.071 6.85 4.87 9.68
4/10/2021 10:00:00 AM 11.21 52.178 0.071 6.86 4.41 9.75
4/10/2021 10:15:00 AM 11.24 52.232 0.071 6.87 4.23 9.82
4/10/2021 10:30:00 AM 11.27 52.286 0.071 6.88 4.27 9.87
4/10/2021 10:45:00 AM 11.32 52.376 0.071 6.89 4.31 9.96
4/10/2021 11:00:00 AM 11.36 52.448 0.07 6.91 4.25 10.06
4/10/2021 11:15:00 AM 11.42 52.556 0.07 6.92 4.27 10.16
4/10/2021 11:30:00 AM 11.49 52.682 0.07 6.94 4.23 10.27
4/10/2021 11:45:00 AM 11.58 52.844 0.07 6.95 4.34 10.34
4/10/2021 12:00:00 PM 11.7 53.06 0.07 6.97 4.2 10.43
4/10/2021 12:15:00 PM 11.83 53.294 0.07 7.01 4.22 10.52
4/10/2021 12:30:00 PM 11.96 53.528 0.07 7.02 4.45 10.63
4/10/2021 12:45:00 PM 12.15 53.87 0.07 7.04 4.28 10.74
4/10/2021 1:00:00 PM 12.29 54.122 0.07 7.06 4.75 10.81
4/10/2021 1:15:00 PM 12.46 54.428 0.07 7.09 4.33 10.9
4/10/2021 1:30:00 PM 12.68 54.824 0.07 7.12 4.32 11.01
4/10/2021 1:45:00 PM 12.88 55.184 0.071 7.14 4.31 11.08
4/10/2021 2:00:00 PM 13.11 55.598 0.07 7.17 4.06 11.17
4/10/2021 2:15:00 PM 13.31 55.958 0.07 7.2 4.11 11.28
4/10/2021 2:30:00 PM 13.52 56.336 0.07 7.22 4.22 11.37
4/10/2021 2:45:00 PM 13.73 56.714 0.069 7.25 4.11 11.45
4/10/2021 3:00:00 PM 13.93 57.074 0.069 7.29 4.18 11.53
4/10/2021 3:15:00 PM 14.08 57.344 0.07 7.31 4.18 11.57
4/10/2021 3:30:00 PM 14.27 57.686 0.07 7.34 4.25 11.64
4/10/2021 3:45:00 PM 14.41 57.938 0.07 7.38 4.14 11.73
4/10/2021 4:00:00 PM 14.52 58.136 0.07 7.41 4.21 11.78
4/10/2021 4:15:00 PM 14.64 58.352 0.07 7.45 4.06 11.87
4/10/2021 4:30:00 PM 14.74 58.532 0.07 7.5 3.94 11.9
4/10/2021 4:45:00 PM 14.8 58.64 0.07 7.51 4.05 11.92
4/10/2021 5:00:00 PM 14.84 58.712 0.07 7.55 4.2 11.97
4/10/2021 5:15:00 PM 14.88 58.784 0.07 7.57 4.06 11.96
4/10/2021 5:30:00 PM 14.9 58.82 0.07 7.6 4.14 11.99
4/10/2021 5:45:00 PM 14.91 58.838 0.07 7.61 4.09 11.98
4/10/2021 6:00:00 PM 14.91 58.838 0.069 7.64 4.04 11.99
4/10/2021 6:15:00 PM 14.93 58.874 0.07 7.66 3.97 11.99
4/10/2021 6:30:00 PM 14.99 58.982 0.07 7.71 4.09 12.04
4/10/2021 6:45:00 PM 14.98 58.964 0.07 7.75 4.18 12.02
4/10/2021 7:00:00 PM 14.96 58.928 0.07 7.78 4.07 12.03
4/10/2021 7:15:00 PM 14.88 58.784 0.07 7.76 4.12 11.99
4/10/2021 7:30:00 PM 14.8 58.64 0.07 7.77 4.17 11.98
4/10/2021 7:45:00 PM 14.75 58.55 0.07 7.76 4.18 11.94
4/10/2021 8:00:00 PM 14.63 58.334 0.07 7.72 4.1 11.89
4/10/2021 8:15:00 PM 14.58 58.244 0.07 7.72 4.26 11.88
4/10/2021 8:30:00 PM 14.51 58.118 0.07 7.69 4.33 11.81
4/10/2021 8:45:00 PM 14.42 57.956 0.07 7.63 4.4 11.74
4/10/2021 9:00:00 PM 14.32 57.776 0.07 7.59 4.58 11.68
4/10/2021 9:15:00 PM 14.25 57.65 0.07 7.54 4.3 11.58
4/10/2021 9:30:00 PM 14.15 57.47 0.071 7.49 4.52 11.49
4/10/2021 9:45:00 PM 14.09 57.362 0.071 7.44 4.42 11.39
4/10/2021 10:00:00 PM 13.99 57.182 0.071 7.4 4.82 11.31
4/10/2021 10:15:00 PM 13.88 56.984 0.071 7.35 5.33 11.19
4/10/2021 10:30:00 PM 13.78 56.804 0.071 7.3 4.81 11.06
4/10/2021 10:45:00 PM 13.66 56.588 0.071 7.25 4.57 10.94
4/10/2021 11:00:00 PM 13.56 56.408 0.071 7.2 4.8 10.8
4/10/2021 11:15:00 PM 13.46 56.228 0.071 7.16 4.63 10.67
4/10/2021 11:30:00 PM 13.38 56.084 0.071 7.13 4.79 10.53
4/10/2021 11:45:00 PM 13.28 55.904 0.071 7.08 4.85 10.42
4/11/2021 12:00:00 AM 13.19 55.742 0.071 7.06 4.81 10.32
4/11/2021 12:15:00 AM 13.12 55.616 0.071 7.03 5.16 10.24
4/11/2021 12:30:00 AM 13.04 55.472 0.071 7.01 5.23 10.15
4/11/2021 12:45:00 AM 12.95 55.31 0.071 6.98 5.72 10.05
4/11/2021 1:00:00 AM 12.88 55.184 0.071 6.97 4.89 9.96
4/11/2021 1:15:00 AM 12.8 55.04 0.071 6.95 5.19 9.9
4/11/2021 1:30:00 AM 12.72 54.896 0.071 6.94 4.91 9.82
4/11/2021 1:45:00 AM 12.64 54.752 0.071 6.92 4.86 9.75
4/11/2021 2:00:00 AM 12.57 54.626 0.071 6.91 4.82 9.71
4/11/2021 2:15:00 AM 12.5 54.5 0.071 6.89 4.77 9.65
4/11/2021 2:30:00 AM 12.42 54.356 0.071 6.88 5.31 9.58
4/11/2021 2:45:00 AM 12.35 54.23 0.07 6.87 4.95 9.52
4/11/2021 3:00:00 AM 12.29 54.122 0.071 6.86 4.97 9.46
4/11/2021 3:15:00 AM 12.22 53.996 0.07 6.85 4.84 9.42
4/11/2021 3:30:00 AM 12.17 53.906 0.07 6.84 5.05 9.38
4/11/2021 3:45:00 AM 12.11 53.798 0.07 6.84 5.33 9.34
4/11/2021 4:00:00 AM 12.06 53.708 0.07 6.82 4.92 9.31
4/11/2021 4:15:00 AM 12.02 53.636 0.07 6.83 5.32 9.27
4/11/2021 4:30:00 AM 11.97 53.546 0.07 6.82 4.95 9.25
4/11/2021 4:45:00 AM 11.92 53.456 0.071 6.82 4.93 9.23
4/11/2021 5:00:00 AM 11.88 53.384 0.071 6.81 4.87 9.21
4/11/2021 5:15:00 AM 11.83 53.294 0.07 6.81 4.72 9.2
4/11/2021 5:30:00 AM 11.8 53.24 0.07 6.81 4.82 9.18
4/11/2021 5:45:00 AM 11.78 53.204 0.071 6.8 5.18 9.14
4/11/2021 6:00:00 AM 11.76 53.168 0.07 6.8 5.28 9.14
4/11/2021 6:15:00 AM 11.73 53.114 0.07 6.8 5.16 9.13
4/11/2021 6:30:00 AM 11.72 53.096 0.07 6.81 5.17 9.12
4/11/2021 6:45:00 AM 11.71 53.078 0.07 6.8 5.33 9.1
4/11/2021 7:00:00 AM 11.71 53.078 0.071 6.8 4.81 9.08
4/11/2021 7:15:00 AM 11.71 53.078 0.071 6.8 5.06 9.06
4/11/2021 7:30:00 AM 11.72 53.096 0.071 6.8 4.95 9.04
4/11/2021 7:45:00 AM 11.74 53.132 0.071 6.8 4.96 9.03
4/11/2021 8:00:00 AM 11.75 53.15 0.071 6.8 4.87 9.04
4/11/2021 8:15:00 AM 11.78 53.204 0.071 6.79 5 9.05
4/11/2021 8:30:00 AM 11.8 53.24 0.071 6.8 4.82 9.05
4/11/2021 8:45:00 AM 11.82 53.276 0.071 6.81 5.36 9.05
4/11/2021 9:00:00 AM 11.84 53.312 0.071 6.81 5.26 9.07
4/11/2021 9:15:00 AM 11.86 53.348 0.071 6.82 4.54 9.1
4/11/2021 9:30:00 AM 11.89 53.402 0.071 6.82 4.67 9.12
4/11/2021 9:45:00 AM 11.91 53.438 0.071 6.81 4.89 9.16
4/11/2021 10:00:00 AM 11.94 53.492 0.071 6.82 4.52 9.21
4/11/2021 10:15:00 AM 11.97 53.546 0.071 6.83 4.72 9.27
4/11/2021 10:30:00 AM 12.01 53.618 0.071 6.84 4.75 9.35
4/11/2021 10:45:00 AM 12.04 53.672 0.071 6.85 4.55 9.4
4/11/2021 11:00:00 AM 12.07 53.726 0.071 6.86 4.55 9.47
4/11/2021 11:15:00 AM 12.1 53.78 0.071 6.87 4.54 9.54
4/11/2021 11:30:00 AM 12.15 53.87 0.071 6.87 4.44 9.63
4/11/2021 11:45:00 AM 12.19 53.942 0.071 6.88 4.34 9.69
4/11/2021 12:00:00 PM 12.23 54.014 0.071 6.91 4.45 9.78
4/11/2021 12:15:00 PM 12.28 54.104 0.07 6.91 4.44 9.84
4/11/2021 12:30:00 PM 12.32 54.176 0.07 6.94 4.51 9.91
4/11/2021 12:45:00 PM 12.37 54.266 0.07 6.95 4.49 9.97
4/11/2021 1:00:00 PM 12.4 54.32 0.07 6.96 4.29 10.02
4/11/2021 1:15:00 PM 12.44 54.392 0.07 6.97 4.44 10.07
4/11/2021 1:30:00 PM 12.49 54.482 0.07 6.98 5.24 10.13
4/11/2021 1:45:00 PM 12.53 54.554 0.07 6.98 4.41 10.22
4/11/2021 2:00:00 PM 12.58 54.644 0.07 6.99 4.49 10.29
4/11/2021 2:15:00 PM 12.64 54.752 0.07 7.02 5.5 10.37
4/11/2021 2:30:00 PM 12.71 54.878 0.07 7.03 7.29 10.45
4/11/2021 2:45:00 PM 12.76 54.968 0.07 7.04 4.32 10.5
4/11/2021 3:00:00 PM 12.79 55.022 0.07 7.05 4.57 10.55
4/11/2021 3:15:00 PM 12.82 55.076 0.07 7.09 4.23 10.61
4/11/2021 3:30:00 PM 12.87 55.166 0.07 7.1 4.21 10.65
4/11/2021 3:45:00 PM 12.9 55.22 0.07 7.11 4.41 10.7
4/11/2021 4:00:00 PM 12.92 55.256 0.07 7.11 4.5 10.72
4/11/2021 4:15:00 PM 12.95 55.31 0.07 7.14 4.42 10.74
4/11/2021 4:30:00 PM 12.98 55.364 0.07 7.15 4.44 10.75
4/11/2021 4:45:00 PM 13.01 55.418 0.07 7.16 4.5 10.79
4/11/2021 5:00:00 PM 13.03 55.454 0.07 7.16 4.83 10.78
4/11/2021 5:15:00 PM 13.04 55.472 0.07 7.2 5.78 10.8
4/11/2021 5:30:00 PM 13.04 55.472 0.07 7.19 5.08 10.78
4/11/2021 5:45:00 PM 13.04 55.472 0.07 7.19 4.77 10.75
4/11/2021 6:00:00 PM 13.03 55.454 0.07 7.17 4.53 10.72
4/11/2021 6:15:00 PM 13.01 55.418 0.07 7.15 4.47 10.66
4/11/2021 6:30:00 PM 12.99 55.382 0.071 7.13 4.99 10.61
4/11/2021 6:45:00 PM 12.99 55.382 0.071 7.11 4.56 10.58
4/11/2021 7:00:00 PM 12.97 55.346 0.071 7.1 4.42 10.54
4/11/2021 7:15:00 PM 12.97 55.346 0.071 7.09 5.08 10.5
4/11/2021 7:30:00 PM 12.95 55.31 0.071 7.09 4.86 10.45
4/11/2021 7:45:00 PM 12.94 55.292 0.071 7.08 5.24 10.4
4/11/2021 8:00:00 PM 12.92 55.256 0.072 7.09 5.23 10.34
4/11/2021 8:15:00 PM 12.9 55.22 0.072 7.09 5.47 10.28
4/11/2021 8:30:00 PM 12.88 55.184 0.072 7.08 5.46 10.21
4/11/2021 8:45:00 PM 12.86 55.148 0.072 7.07 5.19 10.14
4/11/2021 9:00:00 PM 12.84 55.112 0.072 7.06 5.1 10.06
4/11/2021 9:15:00 PM 12.82 55.076 0.072 7.04 5.23 9.99
4/11/2021 9:30:00 PM 12.8 55.04 0.073 7.03 5.46 9.9
4/11/2021 9:45:00 PM 12.77 54.986 0.073 7 5.49 9.83
4/11/2021 10:00:00 PM 12.73 54.914 0.073 6.99 5.51 9.74
4/11/2021 10:15:00 PM 12.7 54.86 0.074 6.97 5.54 9.65
4/11/2021 10:30:00 PM 12.68 54.824 0.073 6.96 5.28 9.59
4/11/2021 10:45:00 PM 12.66 54.788 0.074 6.95 5.17 9.53
4/11/2021 11:00:00 PM 12.64 54.752 0.074 6.93 5.42 9.47
4/11/2021 11:15:00 PM 12.62 54.716 0.074 6.93 5.39 9.41
4/11/2021 11:30:00 PM 12.6 54.68 0.074 6.91 5.37 9.37
4/11/2021 11:45:00 PM 12.57 54.626 0.074 6.9 5.47 9.33
4/12/2021 12:00:00 AM 12.55 54.59 0.074 6.9 5.55 9.27
4/12/2021 12:15:00 AM 12.53 54.554 0.074 6.89 5.96 9.23
4/12/2021 12:30:00 AM 12.51 54.518 0.074 6.88 5.55 9.21
4/12/2021 12:45:00 AM 12.47 54.446 0.074 6.87 5.6 9.19
4/12/2021 1:00:00 AM 12.44 54.392 0.074 6.86 5.69 9.17
4/12/2021 1:15:00 AM 12.4 54.32 0.074 6.86 5.63 9.16
4/12/2021 1:30:00 AM 12.38 54.284 0.073 6.85 5.35 9.15
4/12/2021 1:45:00 AM 12.33 54.194 0.073 6.85 5.77 9.16
4/12/2021 2:00:00 AM 12.28 54.104 0.073 6.85 6.13 9.17
4/12/2021 2:15:00 AM 12.26 54.068 0.073 6.85 6.62 9.19
4/12/2021 2:30:00 AM 12.21 53.978 0.073 6.84 6.79 9.19
4/12/2021 2:45:00 AM 12.17 53.906 0.072 6.84 11.97 9.19
4/12/2021 3:00:00 AM 12.13 53.834 0.072 6.84 6.14 9.19
4/12/2021 3:15:00 AM 12.06 53.708 0.072 6.84 5.75 9.16
4/12/2021 3:30:00 AM 12.03 53.654 0.072 6.82 6.39 9.17
4/12/2021 3:45:00 AM 12 53.6 0.072 6.82 6.16 9.2
4/12/2021 4:00:00 AM 11.97 53.546 0.072 6.82 6.21 9.22
4/12/2021 4:15:00 AM 11.93 53.474 0.071 6.82 6.31 9.25
4/12/2021 4:30:00 AM 11.88 53.384 0.071 6.83 6.52 9.25
4/12/2021 4:45:00 AM 11.83 53.294 0.071 6.83 5.51 9.26
4/12/2021 5:00:00 AM 11.77 53.186 0.071 6.83 5.33 9.25
4/12/2021 5:15:00 AM 11.71 53.078 0.071 6.82 5.53 9.24
4/12/2021 5:30:00 AM 11.67 53.006 0.071 6.81 5.63 9.23
4/12/2021 5:45:00 AM 11.63 52.934 0.071 6.81 5.44 9.24
4/12/2021 6:00:00 AM 11.6 52.88 0.071 6.81 5.41 9.25
4/12/2021 6:15:00 AM 11.55 52.79 0.071 6.81 5.58 9.25
4/12/2021 6:30:00 AM 11.51 52.718 0.071 6.81 8.67 9.27
4/12/2021 6:45:00 AM 11.47 52.646 0.071 6.81 5.9 9.3
4/12/2021 7:00:00 AM 11.42 52.556 0.071 6.8 8.75 9.3
4/12/2021 7:15:00 AM 11.37 52.466 0.07 6.8 6.14 9.31
4/12/2021 7:30:00 AM 11.32 52.376 0.07 6.79 6.67 9.31
4/12/2021 7:45:00 AM 11.26 52.268 0.07 6.78 6.03 9.34
4/12/2021 8:00:00 AM 11.22 52.196 0.07 6.79 5.8 9.37
4/12/2021 8:15:00 AM 11.18 52.124 0.069 6.81 6.03 9.42
4/12/2021 8:30:00 AM 11.13 52.034 0.069 6.79 10.55 9.47
4/12/2021 8:45:00 AM 11.08 51.944 0.069 6.76 10.12 9.51
4/12/2021 9:00:00 AM 11.04 51.872 0.069 6.75 9.39 9.55
4/12/2021 9:15:00 AM 11.02 51.836 0.068 6.74 9.92 9.62
4/12/2021 9:30:00 AM 11 51.8 0.068 6.75 9.58 9.7
4/12/2021 9:45:00 AM 10.95 51.71 0.068 6.75 9.56 9.75
4/12/2021 10:00:00 AM 10.91 51.638 0.068 6.75 9.24 9.79
4/12/2021 10:15:00 AM 10.88 51.584 0.067 6.74 12.64 9.87
4/12/2021 10:30:00 AM 10.85 51.53 0.067 6.74 8.11 9.91
4/12/2021 10:45:00 AM 10.81 51.458 0.067 6.75 9.83 9.95
4/12/2021 11:00:00 AM 10.79 51.422 0.067 6.76 8.73 10.02
4/12/2021 11:15:00 AM 10.76 51.368 0.067 6.78 9.15 10.07
4/12/2021 11:30:00 AM 10.75 51.35 0.066 6.79 14.52 10.12
4/12/2021 11:45:00 AM 10.74 51.332 0.066 6.8 8.67 10.17
4/12/2021 12:00:00 PM 10.74 51.332 0.066 6.81 9.1 10.24
4/12/2021 12:15:00 PM 10.74 51.332 0.066 6.82 10.27 10.3
4/12/2021 12:30:00 PM 10.75 51.35 0.066 6.83 9.74 10.34
4/12/2021 12:45:00 PM 10.76 51.368 0.066 6.82 12.26 10.41
4/12/2021 1:00:00 PM 10.76 51.368 0.066 6.84 12.73 10.45
4/12/2021 1:15:00 PM 10.78 51.404 0.066 6.84 9.68 10.51
4/12/2021 1:30:00 PM 10.8 51.44 0.065 6.86 15.09 10.55
4/12/2021 1:45:00 PM 10.81 51.458 0.065 6.85 10.81 10.57
4/12/2021 2:00:00 PM 10.81 51.458 0.065 6.86 13.79 10.6
4/12/2021 2:15:00 PM 10.81 51.458 0.065 6.86 14.29 10.63
4/12/2021 2:30:00 PM 10.82 51.476 0.065 6.88 12.41 10.64
4/12/2021 2:45:00 PM 10.83 51.494 0.065 6.88 13.19 10.67
4/12/2021 3:00:00 PM 10.84 51.512 0.065 6.89 9.1 10.68
4/12/2021 3:15:00 PM 10.84 51.512 0.065 6.89 10.6 10.69
4/12/2021 3:30:00 PM 10.84 51.512 0.069 6.89 10.82 10.7
4/12/2021 3:45:00 PM 10.83 51.494 0.065 6.88 10.09 10.69
4/12/2021 4:00:00 PM 10.81 51.458 0.065 6.9 9.92 10.68
4/12/2021 4:15:00 PM 10.79 51.422 0.066 6.9 10.45 10.68
4/12/2021 4:30:00 PM 10.77 51.386 0.065 6.89 13.96 10.69
4/12/2021 4:45:00 PM 10.75 51.35 0.065 6.89 9.68 10.69
4/12/2021 5:00:00 PM 10.72 51.296 0.065 6.88 12.32 10.68
4/12/2021 5:15:00 PM 10.7 51.26 0.065 6.88 14 10.68
4/12/2021 5:30:00 PM 10.68 51.224 0.065 6.88 13.79 10.67
4/12/2021 5:45:00 PM 10.66 51.188 0.065 6.88 36.56 10.66
4/12/2021 6:00:00 PM 10.63 51.134 0.065 6.86 14.07 10.64
4/12/2021 6:15:00 PM 10.61 51.098 0.065 6.86 15.79 10.62
4/12/2021 6:30:00 PM 10.59 51.062 0.065 6.85 74.25 10.6
4/12/2021 6:45:00 PM 10.57 51.026 0.065 6.84 98.52 10.57
4/12/2021 7:00:00 PM 10.55 50.99 0.065 6.83 39.6 10.55
4/12/2021 7:15:00 PM 10.53 50.954 0.065 6.82 12.26 10.52
4/12/2021 7:30:00 PM 10.51 50.918 0.065 6.81 20.76 10.5
4/12/2021 7:45:00 PM 10.5 50.9 0.065 6.81 51.04 10.47
4/12/2021 8:00:00 PM 10.48 50.864 0.065 6.79 55.88 10.44
4/12/2021 8:15:00 PM 10.46 50.828 0.065 6.79 30.13 10.41
4/12/2021 8:30:00 PM 10.44 50.792 0.065 6.79 25.73 10.38
4/12/2021 8:45:00 PM 10.42 50.756 0.065 6.77 13.07 10.36
4/12/2021 9:00:00 PM 10.4 50.72 0.065 6.77 37.54 10.34
4/12/2021 9:15:00 PM 10.39 50.702 0.064 6.76 20.54 10.33
4/12/2021 9:30:00 PM 10.37 50.666 0.064 6.76 29.79 10.31
4/12/2021 9:45:00 PM 10.34 50.612 0.064 6.76 33.62 10.27
4/12/2021 10:00:00 PM 10.32 50.576 0.064 6.76 13.85 10.27
4/12/2021 10:15:00 PM 10.29 50.522 0.064 6.76 13.65 10.25
4/12/2021 10:30:00 PM 10.27 50.486 0.064 6.75 28.03 10.23
4/12/2021 10:45:00 PM 10.25 50.45 0.064 6.75 14.76 10.24
4/12/2021 11:00:00 PM 10.22 50.396 0.064 6.75 15.24 10.23
4/12/2021 11:15:00 PM 10.2 50.36 0.064 6.74 15.97 10.22
4/12/2021 11:30:00 PM 10.17 50.306 0.064 6.74 21.02 10.21
4/12/2021 11:45:00 PM 10.16 50.288 0.064 6.74 15.85 10.23
4/13/2021 12:00:00 AM 10.13 50.234 0.064 6.73 14.84 10.22
4/13/2021 12:15:00 AM 10.11 50.198 0.064 6.73 14.01 10.18
4/13/2021 12:30:00 AM 10.09 50.162 0.064 6.72 14.77 10.2
4/13/2021 12:45:00 AM 10.06 50.108 0.064 6.72 14.79 10.2
4/13/2021 1:00:00 AM 10.03 50.054 0.064 6.72 15.73 10.17
4/13/2021 1:15:00 AM 10 50 0.064 6.72 15.17 10.18
4/13/2021 1:30:00 AM 9.98 49.964 0.064 6.72 17.15 10.18
4/13/2021 1:45:00 AM 9.96 49.928 0.064 6.72 19.11 10.21
4/13/2021 2:00:00 AM 9.93 49.874 0.064 6.71 18.17 10.16
4/13/2021 2:15:00 AM 9.91 49.838 0.064 6.71 14.65 10.16
4/13/2021 2:30:00 AM 9.89 49.802 0.064 6.71 15.62 10.19
4/13/2021 2:45:00 AM 9.87 49.766 0.064 6.7 14.6 10.18
4/13/2021 3:00:00 AM 9.84 49.712 0.064 6.71 11.35 10.15
4/13/2021 3:15:00 AM 9.83 49.694 0.064 6.7 16 10.14
4/13/2021 3:30:00 AM 9.81 49.658 0.065 6.68 18.29 10.12
4/13/2021 3:45:00 AM 9.8 49.64 0.065 6.7 15 10.12
4/13/2021 4:00:00 AM 9.8 49.64 0.065 6.69 13.24 10.15
4/13/2021 4:15:00 AM 9.79 49.622 0.065 6.71 14.28 10.12
4/13/2021 4:30:00 AM 9.78 49.604 0.065 6.71 14.55 10.15
4/13/2021 4:45:00 AM 9.75 49.55 0.065 6.72 12.85 10.11
4/13/2021 5:00:00 AM 9.74 49.532 0.065 6.7 14.7 10.13
4/13/2021 5:15:00 AM 9.73 49.514 0.065 6.7 14.28 10.15
4/13/2021 5:30:00 AM 9.69 49.442 0.065 6.7 11.72 10.13
4/13/2021 5:45:00 AM 9.68 49.424 0.066 6.71 11.35 10.16
4/13/2021 6:00:00 AM 9.66 49.388 0.065 6.71 11.46 10.13
4/13/2021 6:15:00 AM 9.64 49.352 0.065 6.71 11.42 10.14
4/13/2021 6:30:00 AM 9.63 49.334 0.066 6.71 11.42 10.15
4/13/2021 6:45:00 AM 9.63 49.334 0.066 6.71 14.03 10.18
4/13/2021 7:00:00 AM 9.61 49.298 0.066 6.71 11.21 10.15
4/13/2021 7:15:00 AM 9.59 49.262 0.066 6.71 13.69 10.14
4/13/2021 7:30:00 AM 9.57 49.226 0.066 6.71 12.53 10.14
4/13/2021 7:45:00 AM 9.56 49.208 0.066 6.73 11.77 10.16
4/13/2021 8:00:00 AM 9.57 49.226 0.066 6.73 10 10.21
4/13/2021 8:15:00 AM 9.56 49.208 0.066 6.74 10.41 10.2
4/13/2021 8:30:00 AM 9.59 49.262 0.066 6.75 7.7 10.26
4/13/2021 8:45:00 AM 9.64 49.352 0.066 6.76 8.02 10.32
4/13/2021 9:00:00 AM 9.7 49.46 0.067 6.77 7.97 10.38
4/13/2021 9:15:00 AM 9.76 49.568 0.067 6.78 8.56 10.44
4/13/2021 9:30:00 AM 9.84 49.712 0.067 6.8 7.42 10.5
4/13/2021 9:45:00 AM 9.93 49.874 0.067 6.81 7.23 10.57
4/13/2021 10:00:00 AM 10.04 50.072 0.067 6.84 7.51 10.66
4/13/2021 10:15:00 AM 10.14 50.252 0.068 6.85 8.16 10.7
4/13/2021 10:30:00 AM 10.25 50.45 0.069 6.86 7.14 10.76
4/13/2021 10:45:00 AM 10.37 50.666 0.069 6.88 6.62 10.84
4/13/2021 11:00:00 AM 10.5 50.9 0.069 6.9 9.27 10.89
4/13/2021 11:15:00 AM 10.6 51.08 0.069 6.91 7.46 10.92
4/13/2021 11:30:00 AM 10.78 51.404 0.068 6.92 7.41 10.96
4/13/2021 11:45:00 AM 10.97 51.746 0.067 6.93 7.03 11.02
4/13/2021 12:00:00 PM 11.14 52.052 0.069 6.94 8.39 11.06
4/13/2021 12:15:00 PM 11.32 52.376 0.069 6.97 7.63 11.12
4/13/2021 12:30:00 PM 11.49 52.682 0.067 6.98 6.87 11.15
4/13/2021 12:45:00 PM 11.67 53.006 0.067 6.99 6.68 11.19
4/13/2021 1:00:00 PM 11.84 53.312 0.067 7 6.59 11.23
4/13/2021 1:15:00 PM 12.01 53.618 0.067 7.01 6.44 11.25
4/13/2021 1:30:00 PM 12.16 53.888 0.067 7.01 6.05 11.28
4/13/2021 1:45:00 PM 12.31 54.158 0.067 7.02 5.47 11.31
4/13/2021 2:00:00 PM 12.43 54.374 0.067 7.03 5.89 11.35
4/13/2021 2:15:00 PM 12.59 54.662 0.067 7.04 6.22 11.38
4/13/2021 2:30:00 PM 12.65 54.77 0.067 7.04 6.34 11.39
4/13/2021 2:45:00 PM 12.77 54.986 0.067 7.07 6.06 11.4
4/13/2021 3:00:00 PM 12.88 55.184 0.067 7.06 6.09 11.41
4/13/2021 3:15:00 PM 12.97 55.346 0.067 7.07 5.87 11.43
4/13/2021 3:30:00 PM 12.98 55.364 0.067 7.09 5 11.42
4/13/2021 3:45:00 PM 13.05 55.49 0.067 7.07 5.58 11.42
4/13/2021 4:00:00 PM 13.09 55.562 0.067 7.08 4.9 11.43
4/13/2021 4:15:00 PM 13.14 55.652 0.067 7.07 4.93 11.4
4/13/2021 4:30:00 PM 13.16 55.688 0.067 7.09 5.22 11.38
4/13/2021 4:45:00 PM 13.12 55.616 0.067 7.07 5.04 11.35
4/13/2021 5:00:00 PM 13.13 55.634 0.067 7.06 4.83 11.34
4/13/2021 5:15:00 PM 13.13 55.634 0.067 7.05 5.1 11.32
4/13/2021 5:30:00 PM 13.11 55.598 0.067 7.04 4.89 11.28
4/13/2021 5:45:00 PM 13.11 55.598 0.067 7.03 5.04 11.22
4/13/2021 6:00:00 PM 13.12 55.616 0.067 7.03 5.05 11.19
4/13/2021 6:15:00 PM 13.13 55.634 0.067 7.02 5.16 11.15
4/13/2021 6:30:00 PM 13.11 55.598 0.067 7.01 5.13 11.06
4/13/2021 6:45:00 PM 13.11 55.598 0.067 7.01 5.14 11.01
4/13/2021 7:00:00 PM 13.1 55.58 0.067 7 5.14 10.94
4/13/2021 7:15:00 PM 13.08 55.544 0.067 6.98 5.26 10.87
4/13/2021 7:30:00 PM 13.07 55.526 0.068 6.97 5.33 10.81
4/13/2021 7:45:00 PM 13.03 55.454 0.068 6.95 5.31 10.7
4/13/2021 8:00:00 PM 13.02 55.436 0.068 6.94 5.44 10.62
4/13/2021 8:15:00 PM 12.99 55.382 0.068 6.91 5.26 10.55
4/13/2021 8:30:00 PM 12.93 55.274 0.068 6.9 5.74 10.48
4/13/2021 8:45:00 PM 12.88 55.184 0.068 6.88 5.88 10.41
4/13/2021 9:00:00 PM 12.84 55.112 0.068 6.87 6.01 10.34
4/13/2021 9:15:00 PM 12.8 55.04 0.068 6.85 6.5 10.29
4/13/2021 9:30:00 PM 12.78 55.004 0.067 6.84 6.13 10.24
4/13/2021 9:45:00 PM 12.75 54.95 0.067 6.83 6.34 10.21
4/13/2021 10:00:00 PM 12.68 54.824 0.067 6.82 6.15 10.17
4/13/2021 10:15:00 PM 12.62 54.716 0.067 6.81 6.35 10.13
4/13/2021 10:30:00 PM 12.56 54.608 0.067 6.8 5.93 10.1
4/13/2021 10:45:00 PM 12.52 54.536 0.067 6.8 6.11 10.08
4/13/2021 11:00:00 PM 12.43 54.374 0.067 6.78 6.48 10.06
4/13/2021 11:15:00 PM 12.38 54.284 0.067 6.77 6.22 10.03
4/13/2021 11:30:00 PM 12.31 54.158 0.067 6.77 6.06 10.01
4/13/2021 11:45:00 PM 12.27 54.086 0.067 6.76 5.91 9.99
4/14/2021 12:00:00 AM 12.19 53.942 0.067 6.75 6.04 9.99
4/14/2021 12:15:00 AM 12.13 53.834 0.067 6.73 5.94 9.97
4/14/2021 12:30:00 AM 12.06 53.708 0.067 6.73 6.16 9.98
4/14/2021 12:45:00 AM 12.01 53.618 0.067 6.73 5.91 9.95
4/14/2021 1:00:00 AM 11.95 53.51 0.067 6.73 5.88 9.92
4/14/2021 1:15:00 AM 11.89 53.402 0.067 6.72 6.16 9.9
4/14/2021 1:30:00 AM 11.84 53.312 0.068 6.71 6.15 9.9
4/14/2021 1:45:00 AM 11.78 53.204 0.072 6.7 5.74 9.87
4/14/2021 2:00:00 AM 11.7 53.06 0.068 6.71 5.46 9.93
4/14/2021 2:15:00 AM 11.64 52.952 0.068 6.71 5.51 9.89
4/14/2021 2:30:00 AM 11.58 52.844 0.068 6.7 5.57 9.88
4/14/2021 2:45:00 AM 11.5 52.7 0.068 6.7 5.51 9.89
4/14/2021 3:00:00 AM 11.43 52.574 0.069 6.71 5.61 9.93
4/14/2021 3:15:00 AM 11.36 52.448 0.07 6.7 5.49 9.91
4/14/2021 3:30:00 AM 11.31 52.358 0.07 6.69 5.43 9.89
4/14/2021 3:45:00 AM 11.24 52.232 0.07 6.69 5.52 9.92
4/14/2021 4:00:00 AM 11.17 52.106 0.067 6.69 5.69 9.91
4/14/2021 4:15:00 AM 11.11 51.998 0.069 6.69 6.2 9.91
4/14/2021 4:30:00 AM 11.06 51.908 0.069 6.68 5.79 9.95
4/14/2021 4:45:00 AM 11.01 51.818 0.069 6.68 5.79 9.92
4/14/2021 5:00:00 AM 10.96 51.728 0.069 6.67 6.01 9.92
4/14/2021 5:15:00 AM 10.91 51.638 0.069 6.68 5.53 9.99
4/14/2021 5:30:00 AM 10.86 51.548 0.068 6.68 6.21 9.84
4/14/2021 5:45:00 AM 10.82 51.476 0.066 6.68 5.81 9.92
4/14/2021 6:00:00 AM 10.78 51.404 0.069 6.7 5.65 9.96
4/14/2021 6:15:00 AM 10.73 51.314 0.069 6.69 5.75 9.95
4/14/2021 6:30:00 AM 10.68 51.224 0.068 6.69 5.8 9.94
4/14/2021 6:45:00 AM 10.63 51.134 0.065 6.69 5.69 9.94
4/14/2021 7:00:00 AM 10.59 51.062 0.069 6.69 8.75 9.94
4/14/2021 7:15:00 AM 10.56 51.008 0.068 6.68 7.34 9.94
4/14/2021 7:30:00 AM 10.51 50.918 0.068 6.69 5.68 10
4/14/2021 7:45:00 AM 10.47 50.846 0.065 6.69 6 10.01
4/14/2021 8:00:00 AM 10.43 50.774 0.065 6.7 6.23 10.02
4/14/2021 8:15:00 AM 10.41 50.738 0.064 6.69 6.09 10.05
4/14/2021 8:30:00 AM 10.39 50.702 0.064 6.7 8.08 10.07
4/14/2021 8:45:00 AM 10.39 50.702 0.07 6.71 8.11 10.17
4/14/2021 9:00:00 AM 10.41 50.738 0.063 6.72 6.25 10.21
4/14/2021 9:15:00 AM 10.46 50.828 0.063 6.74 5.96 10.29
4/14/2021 9:30:00 AM 10.53 50.954 0.062 6.75 6.28 10.33
4/14/2021 9:45:00 AM 10.61 51.098 0.063 6.77 6.11 10.46
4/14/2021 10:00:00 AM 10.71 51.278 0.062 6.8 6.63 10.51
4/14/2021 10:15:00 AM 10.8 51.44 0.062 6.82 6.84 10.6
4/14/2021 10:30:00 AM 10.88 51.584 0.062 6.84 7.16 10.68
4/14/2021 10:45:00 AM 10.96 51.728 0.062 6.85 7.15 10.73
4/14/2021 11:00:00 AM 11.05 51.89 0.063 6.87 6.96 10.84
4/14/2021 11:15:00 AM 11.14 52.052 0.061 6.89 7.46 10.91
4/14/2021 11:30:00 AM 11.24 52.232 0.062 6.89 7.89 10.97
4/14/2021 11:45:00 AM 11.3 52.34 0.062 6.9 16.21 11
4/14/2021 12:00:00 PM 11.38 52.484 0.062 6.91 11.53 11.04
4/14/2021 12:15:00 PM 11.46 52.628 0.062 6.92 10.51 11.07
4/14/2021 12:30:00 PM 11.5 52.7 0.063 6.92 10.59 11.12
4/14/2021 12:45:00 PM 11.55 52.79 0.063 6.93 5.32 11.17
4/14/2021 1:00:00 PM 11.6 52.88 0.063 6.94 5.37 11.23
4/14/2021 1:15:00 PM 11.63 52.934 0.063 6.97 4.87 11.24
4/14/2021 1:30:00 PM 11.65 52.97 0.063 6.99 4.93 11.27
4/14/2021 1:45:00 PM 11.69 53.042 0.063 6.99 4.83 11.3
4/14/2021 2:00:00 PM 11.7 53.06 0.063 6.99 4.82 11.33
4/14/2021 2:15:00 PM 11.7 53.06 0.064 7 4.82 11.31
4/14/2021 2:30:00 PM 11.71 53.078 0.064 7 4.98 11.32
4/14/2021 2:45:00 PM 11.72 53.096 0.064 7 5.12 11.3
4/14/2021 3:00:00 PM 11.73 53.114 0.064 7.01 5.33 11.29
4/14/2021 3:15:00 PM 11.73 53.114 0.064 7.02 5.48 11.26
4/14/2021 3:30:00 PM 11.71 53.078 0.064 7.01 4.76 11.23
4/14/2021 3:45:00 PM 11.69 53.042 0.064 7 4.62 11.23
4/14/2021 4:00:00 PM 11.65 52.97 0.064 7 4.69 11.21
4/14/2021 4:15:00 PM 11.58 52.844 0.064 7 5.24 11.2
4/14/2021 4:30:00 PM 11.51 52.718 0.063 6.99 4.77 11.17
4/14/2021 4:45:00 PM 11.41 52.538 0.063 6.97 4.9 11.15
4/14/2021 5:00:00 PM 11.31 52.358 0.063 6.97 4.89 11.13
4/14/2021 5:15:00 PM 11.23 52.214 0.063 6.96 4.8 11.11
4/14/2021 5:30:00 PM 11.15 52.07 0.063 6.96 4.94 11.08
4/14/2021 5:45:00 PM 11.07 51.926 0.063 6.96 4.98 11.08
4/14/2021 6:00:00 PM 10.98 51.764 0.063 6.94 5.14 11.06
4/14/2021 6:15:00 PM 10.9 51.62 0.063 6.92 5.01 11.04
4/14/2021 6:30:00 PM 10.82 51.476 0.062 6.91 5 11.03
4/14/2021 6:45:00 PM 10.77 51.386 0.062 6.9 4.68 11.01
4/14/2021 7:00:00 PM 10.7 51.26 0.062 6.88 4.78 11
4/14/2021 7:15:00 PM 10.64 51.152 0.062 6.88 4.68 10.99
4/14/2021 7:30:00 PM 10.59 51.062 0.062 6.87 4.73 10.98
4/14/2021 7:45:00 PM 10.53 50.954 0.062 6.88 4.63 10.96
4/14/2021 8:00:00 PM 10.48 50.864 0.062 6.87 4.8 10.94
4/14/2021 8:15:00 PM 10.42 50.756 0.062 6.89 4.83 10.92
4/14/2021 8:30:00 PM 10.38 50.684 0.062 6.85 4.73 10.88
4/14/2021 8:45:00 PM 10.33 50.594 0.062 6.83 4.71 10.85
4/14/2021 9:00:00 PM 10.29 50.522 0.062 6.83 4.61 10.82
4/14/2021 9:15:00 PM 10.22 50.396 0.062 6.83 4.78 10.79
4/14/2021 9:30:00 PM 10.15 50.27 0.062 6.82 4.74 10.77
4/14/2021 9:45:00 PM 10.07 50.126 0.062 6.82 5.02 10.73
4/14/2021 10:00:00 PM 10.01 50.018 0.062 6.81 4.93 10.7
4/14/2021 10:15:00 PM 9.95 49.91 0.063 6.81 4.85 10.67
4/14/2021 10:30:00 PM 9.91 49.838 0.062 6.8 4.97 10.63
4/14/2021 10:45:00 PM 9.89 49.802 0.062 6.8 5.8 10.6
4/14/2021 11:00:00 PM 9.88 49.784 0.063 6.8 4.99 10.57
4/14/2021 11:15:00 PM 9.84 49.712 0.063 6.8 4.88 10.55
4/14/2021 11:30:00 PM 9.85 49.73 0.062 6.79 4.97 10.51
4/14/2021 11:45:00 PM 9.86 49.748 0.063 6.79 4.95 10.47
4/15/2021 12:00:00 AM 9.89 49.802 0.063 6.8 5.09 10.44
4/15/2021 12:15:00 AM 9.9 49.82 0.063 6.8 5.25 10.41
4/15/2021 12:30:00 AM 9.9 49.82 0.063 6.79 5.07 10.39
4/15/2021 12:45:00 AM 9.92 49.856 0.063 6.79 5.21 10.35
4/15/2021 1:00:00 AM 9.92 49.856 0.063 6.79 5.17 10.32
4/15/2021 1:15:00 AM 9.91 49.838 0.064 6.79 5.27 10.29
4/15/2021 1:30:00 AM 9.89 49.802 0.063 6.79 5.26 10.3
4/15/2021 1:45:00 AM 9.86 49.748 0.063 6.79 5.54 10.29
4/15/2021 2:00:00 AM 9.83 49.694 0.063 6.78 5.16 10.3
4/15/2021 2:15:00 AM 9.82 49.676 0.064 6.78 5.35 10.26
4/15/2021 2:30:00 AM 9.8 49.64 0.064 6.77 5.46 10.23
4/15/2021 2:45:00 AM 9.77 49.586 0.064 6.77 5.56 10.24
4/15/2021 3:00:00 AM 9.75 49.55 0.064 6.77 5.9 10.24
4/15/2021 3:15:00 AM 9.73 49.514 0.064 6.76 5.15 10.2
4/15/2021 3:30:00 AM 9.72 49.496 0.064 6.76 5.48 10.24
4/15/2021 3:45:00 AM 9.71 49.478 0.064 6.75 5.15 10.21
4/15/2021 4:00:00 AM 9.71 49.478 0.065 6.76 5.18 10.2
4/15/2021 4:15:00 AM 9.71 49.478 0.065 6.75 5.3 10.21
4/15/2021 4:30:00 AM 9.72 49.496 0.065 6.76 5.22 10.19
4/15/2021 4:45:00 AM 9.74 49.532 0.065 6.75 5.18 10.17
4/15/2021 5:00:00 AM 9.73 49.514 0.065 6.75 5.16 10.15
4/15/2021 5:15:00 AM 9.74 49.532 0.065 6.75 5.1 10.15
4/15/2021 5:30:00 AM 9.75 49.55 0.065 6.76 5.05 10.19
4/15/2021 5:45:00 AM 9.75 49.55 0.065 6.76 5.37 10.17
4/15/2021 6:00:00 AM 9.75 49.55 0.065 6.76 5.07 10.16
4/15/2021 6:15:00 AM 9.75 49.55 0.065 6.76 5.14 10.14
4/15/2021 6:30:00 AM 9.73 49.514 0.065 6.76 5.11 10.13
4/15/2021 6:45:00 AM 9.73 49.514 0.065 6.76 5.02 10.13
4/15/2021 7:00:00 AM 9.73 49.514 0.065 6.76 5.09 10.12
4/15/2021 7:15:00 AM 9.75 49.55 0.065 6.77 4.85 10.14
4/15/2021 7:30:00 AM 9.76 49.568 0.065 6.76 5.29 10.14
4/15/2021 7:45:00 AM 9.77 49.586 0.065 6.77 4.9 10.15
4/15/2021 8:00:00 AM 9.78 49.604 0.065 6.77 4.71 10.15
4/15/2021 8:15:00 AM 9.8 49.64 0.065 6.78 4.67 10.17
4/15/2021 8:30:00 AM 9.83 49.694 0.064 6.79 4.56 10.22
4/15/2021 8:45:00 AM 9.86 49.748 0.064 6.79 4.55 10.26
4/15/2021 9:00:00 AM 9.89 49.802 0.064 6.8 4.51 10.32
4/15/2021 9:15:00 AM 9.91 49.838 0.064 6.81 4.54 10.33
4/15/2021 9:30:00 AM 9.94 49.892 0.064 6.82 4.41 10.38
4/15/2021 9:45:00 AM 9.97 49.946 0.064 6.82 4.44 10.45
4/15/2021 10:00:00 AM 10.01 50.018 0.064 6.84 4.54 10.51
4/15/2021 10:15:00 AM 10.04 50.072 0.064 6.84 4.44 10.56
4/15/2021 10:30:00 AM 10.07 50.126 0.064 6.86 4.72 10.62
4/15/2021 10:45:00 AM 10.09 50.162 0.064 6.86 4.68 10.65
4/15/2021 11:00:00 AM 10.12 50.216 0.064 6.88 4.75 10.69
4/15/2021 11:15:00 AM 10.13 50.234 0.063 6.89 4.58 10.72
4/15/2021 11:30:00 AM 10.15 50.27 0.063 6.9 4.48 10.77
4/15/2021 11:45:00 AM 10.16 50.288 0.063 6.91 4.35 10.79
4/15/2021 12:00:00 PM 10.17 50.306 0.063 6.91 4.58 10.79
4/15/2021 12:15:00 PM 10.18 50.324 0.063 6.91 4.34 10.81
4/15/2021 12:30:00 PM 10.19 50.342 0.063 6.92 4.29 10.85
4/15/2021 12:45:00 PM 10.2 50.36 0.063 6.92 4.66 10.88
4/15/2021 1:00:00 PM 10.23 50.414 0.063 6.94 4.39 10.91
4/15/2021 1:15:00 PM 10.25 50.45 0.063 6.95 4.39 10.95
4/15/2021 1:30:00 PM 10.29 50.522 0.063 6.97 4.35 10.97
4/15/2021 1:45:00 PM 10.31 50.558 0.063 6.97 4.27 11.02
4/15/2021 2:00:00 PM 10.33 50.594 0.063 6.99 4.3 11.03
4/15/2021 2:15:00 PM 10.35 50.63 0.063 6.99 4.34 11.06
4/15/2021 2:30:00 PM 10.36 50.648 0.064 6.99 4.4 11.06
4/15/2021 2:45:00 PM 10.36 50.648 0.063 7.01 4.37 11.09
4/15/2021 3:00:00 PM 10.35 50.63 0.064 7 4.34 11.1
4/15/2021 3:15:00 PM 10.33 50.594 0.064 7.01 4.32 11.1
4/15/2021 3:30:00 PM 10.32 50.576 0.064 7.03 4.28 11.12
4/15/2021 3:45:00 PM 10.31 50.558 0.064 7.03 4.32 11.13
4/15/2021 4:00:00 PM 10.32 50.576 0.064 7.04 4.29 11.15
4/15/2021 4:15:00 PM 10.36 50.648 0.064 7.04 4.25 11.17
4/15/2021 4:30:00 PM 10.36 50.648 0.064 7.05 4.32 11.18
4/15/2021 4:45:00 PM 10.35 50.63 0.064 7.05 4.34 11.19
4/15/2021 5:00:00 PM 10.34 50.612 0.064 7.05 4.3 11.21
4/15/2021 5:15:00 PM 10.34 50.612 0.064 7.06 4.3 11.2
4/15/2021 5:30:00 PM 10.31 50.558 0.064 7.06 4.29 11.2
4/15/2021 5:45:00 PM 10.26 50.468 0.064 7.06 4.33 11.19
4/15/2021 6:00:00 PM 10.21 50.378 0.064 7.06 4.34 11.17
4/15/2021 6:15:00 PM 10.18 50.324 0.064 7.06 4.28 11.16
4/15/2021 6:30:00 PM 10.14 50.252 0.064 7.06 4.39 11.13
4/15/2021 6:45:00 PM 10.1 50.18 0.064 7.05 4.29 11.09
4/15/2021 7:00:00 PM 10.07 50.126 0.064 7.03 4.5 11.04
4/15/2021 7:15:00 PM 10.03 50.054 0.064 7.03 4.44 10.99
4/15/2021 7:30:00 PM 10 50 0.064 7.02 4.55 10.95
4/15/2021 7:45:00 PM 9.96 49.928 0.064 7.02 4.59 10.91
4/15/2021 8:00:00 PM 9.94 49.892 0.064 7 4.54 10.85
4/15/2021 8:15:00 PM 9.91 49.838 0.064 6.99 4.68 10.81
4/15/2021 8:30:00 PM 9.88 49.784 0.065 6.98 4.52 10.77
4/15/2021 8:45:00 PM 9.86 49.748 0.065 6.97 4.42 10.73
4/15/2021 9:00:00 PM 9.83 49.694 0.065 6.97 4.47 10.7
4/15/2021 9:15:00 PM 9.8 49.64 0.065 6.96 4.53 10.67
4/15/2021 9:30:00 PM 9.76 49.568 0.064 6.95 4.36 10.64
4/15/2021 9:45:00 PM 9.71 49.478 0.064 6.95 4.65 10.61
4/15/2021 10:00:00 PM 9.65 49.37 0.064 6.94 4.63 10.58
4/15/2021 10:15:00 PM 9.6 49.28 0.064 6.93 4.83 10.58
4/15/2021 10:30:00 PM 9.54 49.172 0.064 6.92 4.98 10.55
4/15/2021 10:45:00 PM 9.49 49.082 0.064 6.91 4.71 10.54
4/15/2021 11:00:00 PM 9.45 49.01 0.064 6.91 4.63 10.53
4/15/2021 11:15:00 PM 9.42 48.956 0.064 6.89 4.7 10.52
4/15/2021 11:30:00 PM 9.39 48.902 0.064 6.89 4.98 10.49
4/15/2021 11:45:00 PM 9.36 48.848 0.064 6.88 4.78 10.48
4/16/2021 12:00:00 AM 9.33 48.794 0.064 6.87 5.25 10.46
4/16/2021 12:15:00 AM 9.3 48.74 0.064 6.87 5.09 10.47
4/16/2021 12:30:00 AM 9.26 48.668 0.064 6.87 4.91 10.43
4/16/2021 12:45:00 AM 9.22 48.596 0.064 6.86 4.85 10.42
4/16/2021 1:00:00 AM 9.18 48.524 0.064 6.86 4.83 10.41
4/16/2021 1:15:00 AM 9.14 48.452 0.064 6.85 5.54 10.4
4/16/2021 1:30:00 AM 9.11 48.398 0.065 6.85 5.61 10.4
4/16/2021 1:45:00 AM 9.07 48.326 0.065 6.85 4.98 10.38
4/16/2021 2:00:00 AM 9.04 48.272 0.065 6.85 4.88 10.38
4/16/2021 2:15:00 AM 9.02 48.236 0.065 6.85 4.88 10.37
4/16/2021 2:30:00 AM 9 48.2 0.065 6.84 5.08 10.35
4/16/2021 2:45:00 AM 8.97 48.146 0.065 6.84 5.06 10.33
4/16/2021 3:00:00 AM 8.95 48.11 0.065 6.84 4.87 10.33
4/16/2021 3:15:00 AM 8.94 48.092 0.066 6.83 4.97 10.31
4/16/2021 3:30:00 AM 8.93 48.074 0.065 6.84 5.17 10.31
4/16/2021 3:45:00 AM 8.91 48.038 0.067 6.83 4.93 10.29
4/16/2021 4:00:00 AM 8.89 48.002 0.066 6.83 5.08 10.28
4/16/2021 4:15:00 AM 8.87 47.966 0.066 6.83 5.25 10.27
4/16/2021 4:30:00 AM 8.86 47.948 0.066 6.82 5.36 10.28
4/16/2021 4:45:00 AM 8.85 47.93 0.067 6.83 4.97 10.28
4/16/2021 5:00:00 AM 8.84 47.912 0.066 6.84 4.85 10.28
4/16/2021 5:15:00 AM 8.81 47.858 0.067 6.83 5.42 10.25
4/16/2021 5:30:00 AM 8.8 47.84 0.066 6.83 5.04 10.26
4/16/2021 5:45:00 AM 8.78 47.804 0.066 6.84 5.06 10.24
4/16/2021 6:00:00 AM 8.78 47.804 0.066 6.83 6.23 10.25
4/16/2021 6:15:00 AM 8.77 47.786 0.066 6.83 5.66 10.24
4/16/2021 6:30:00 AM 8.75 47.75 0.067 6.83 4.89 10.24
4/16/2021 6:45:00 AM 8.75 47.75 0.066 6.83 4.85 10.26
4/16/2021 7:00:00 AM 8.73 47.714 0.066 6.83 4.91 10.25
4/16/2021 7:15:00 AM 8.71 47.678 0.066 6.83 4.8 10.25
4/16/2021 7:30:00 AM 8.69 47.642 0.066 6.83 4.84 10.25
4/16/2021 7:45:00 AM 8.69 47.642 0.066 6.84 4.54 10.28
4/16/2021 8:00:00 AM 8.68 47.624 0.065 6.83 4.65 10.29
4/16/2021 8:15:00 AM 8.63 47.534 0.066 6.84 4.56 10.29
4/16/2021 8:30:00 AM 8.62 47.516 0.066 6.83 4.67 10.32
4/16/2021 8:45:00 AM 8.61 47.498 0.066 6.84 4.37 10.34
4/16/2021 9:00:00 AM 8.59 47.462 0.066 6.85 4.46 10.36
4/16/2021 9:15:00 AM 8.59 47.462 0.065 6.84 4.39 10.4
4/16/2021 9:30:00 AM 8.58 47.444 0.066 6.85 4.26 10.45
4/16/2021 9:45:00 AM 8.57 47.426 0.065 6.85 4.34 10.47
4/16/2021 10:00:00 AM 8.57 47.426 0.066 6.84 4.29 10.51
4/16/2021 10:15:00 AM 8.59 47.462 0.066 6.85 4.32 10.58
4/16/2021 10:30:00 AM 8.61 47.498 0.065 6.87 4.33 10.63
4/16/2021 10:45:00 AM 8.63 47.534 0.066 6.88 4.45 10.69
4/16/2021 11:00:00 AM 8.65 47.57 0.066 6.89 4.44 10.75
4/16/2021 11:15:00 AM 8.69 47.642 0.065 6.9 4.26 10.82
4/16/2021 11:30:00 AM 8.73 47.714 0.065 6.91 4.48 10.88
4/16/2021 11:45:00 AM 8.79 47.822 0.065 6.93 4.47 10.95
4/16/2021 12:00:00 PM 8.81